<?xml version="1.0" encoding="UTF-8" standalone="no" ?>
<gpx xmlns="http://www.topografix.com/GPX/1/1" xmlns:xsi="http://www.w3.org/2001/XMLSchema-instance" xsi:schemaLocation="http://www.topografix.com/GPX/1/1 http://www.topografix.com/GPX/1/1/gpx.xsd" version="1.1" creator="VisuGPX - https://www.visugpx.com">
  <metadata>
    <name>Bignan / Kerguével - Kerguéhennec</name>
    <desc><![CDATA[jolie boucle de 33 km environ autour de Bignan
un peu de goudron sur de petites routes et de supers chemins creux en pleine nature avec un passage dans la célèbre propriété du château de Kerguéhennec ....]]></desc>
  </metadata>
  <trk>
    <name><![CDATA[le bézo st allouestre kerguéhennec 33]]></name>
    <trkseg>
      <trkpt lat="47.85216" lon="-2.79081">
        <ele>117.1</ele>
        <time>2018-08-08T07:41:18Z</time>
      </trkpt>
      <trkpt lat="47.85218" lon="-2.79085">
        <ele>117.22</ele>
        <time>2018-08-08T07:41:21Z</time>
      </trkpt>
      <trkpt lat="47.85219" lon="-2.79089">
        <ele>117.3</ele>
        <time>2018-08-08T07:41:23Z</time>
      </trkpt>
      <trkpt lat="47.85219" lon="-2.79098">
        <ele>117.72</ele>
        <time>2018-08-08T07:41:28Z</time>
      </trkpt>
      <trkpt lat="47.85222" lon="-2.79122">
        <ele>118.81</ele>
        <time>2018-08-08T07:41:39Z</time>
      </trkpt>
      <trkpt lat="47.85222" lon="-2.79136">
        <ele>119.59</ele>
        <time>2018-08-08T07:41:46Z</time>
      </trkpt>
      <trkpt lat="47.85224" lon="-2.79152">
        <ele>120.37</ele>
        <time>2018-08-08T07:41:54Z</time>
      </trkpt>
      <trkpt lat="47.85232" lon="-2.79166">
        <ele>121.85</ele>
        <time>2018-08-08T07:42:04Z</time>
      </trkpt>
      <trkpt lat="47.85233" lon="-2.79172">
        <ele>122.2</ele>
        <time>2018-08-08T07:42:07Z</time>
      </trkpt>
      <trkpt lat="47.85235" lon="-2.79185">
        <ele>122.81</ele>
        <time>2018-08-08T07:42:13Z</time>
      </trkpt>
      <trkpt lat="47.85236" lon="-2.79188">
        <ele>123.03</ele>
        <time>2018-08-08T07:42:15Z</time>
      </trkpt>
      <trkpt lat="47.85235" lon="-2.79223">
        <ele>124.51</ele>
        <time>2018-08-08T07:42:29Z</time>
      </trkpt>
      <trkpt lat="47.85227" lon="-2.79258">
        <ele>124.76</ele>
        <time>2018-08-08T07:42:44Z</time>
      </trkpt>
      <trkpt lat="47.85223" lon="-2.79409">
        <ele>122.99</ele>
        <time>2018-08-08T07:44:05Z</time>
      </trkpt>
      <trkpt lat="47.85231" lon="-2.79432">
        <ele>124.41</ele>
        <time>2018-08-08T07:44:16Z</time>
      </trkpt>
      <trkpt lat="47.85232" lon="-2.79436">
        <ele>124.54</ele>
        <time>2018-08-08T07:44:18Z</time>
      </trkpt>
      <trkpt lat="47.85233" lon="-2.79445">
        <ele>124.78</ele>
        <time>2018-08-08T07:44:22Z</time>
      </trkpt>
      <trkpt lat="47.85236" lon="-2.79463">
        <ele>125.31</ele>
        <time>2018-08-08T07:44:29Z</time>
      </trkpt>
      <trkpt lat="47.85242" lon="-2.79502">
        <ele>126.17</ele>
        <time>2018-08-08T07:44:44Z</time>
      </trkpt>
      <trkpt lat="47.85254" lon="-2.79537">
        <ele>127.14</ele>
        <time>2018-08-08T07:45:01Z</time>
      </trkpt>
      <trkpt lat="47.85258" lon="-2.79556">
        <ele>127.52</ele>
        <time>2018-08-08T07:45:10Z</time>
      </trkpt>
      <trkpt lat="47.8526" lon="-2.79567">
        <ele>127.99</ele>
        <time>2018-08-08T07:45:17Z</time>
      </trkpt>
      <trkpt lat="47.85264" lon="-2.79586">
        <ele>128.36</ele>
        <time>2018-08-08T07:45:26Z</time>
      </trkpt>
      <trkpt lat="47.85265" lon="-2.796">
        <ele>128.71</ele>
        <time>2018-08-08T07:45:31Z</time>
      </trkpt>
      <trkpt lat="47.85267" lon="-2.79612">
        <ele>128.95</ele>
        <time>2018-08-08T07:45:36Z</time>
      </trkpt>
      <trkpt lat="47.85266" lon="-2.79649">
        <ele>129.32</ele>
        <time>2018-08-08T07:45:51Z</time>
      </trkpt>
      <trkpt lat="47.85268" lon="-2.7968">
        <ele>129.17</ele>
        <time>2018-08-08T07:46:06Z</time>
      </trkpt>
      <trkpt lat="47.85269" lon="-2.79687">
        <ele>129.03</ele>
        <time>2018-08-08T07:46:10Z</time>
      </trkpt>
      <trkpt lat="47.85274" lon="-2.79773">
        <ele>126.44</ele>
        <time>2018-08-08T07:46:48Z</time>
      </trkpt>
      <trkpt lat="47.85275" lon="-2.79793">
        <ele>126.01</ele>
        <time>2018-08-08T07:46:58Z</time>
      </trkpt>
      <trkpt lat="47.85274" lon="-2.79826">
        <ele>125.16</ele>
        <time>2018-08-08T07:47:12Z</time>
      </trkpt>
      <trkpt lat="47.85272" lon="-2.79854">
        <ele>124.71</ele>
        <time>2018-08-08T07:47:24Z</time>
      </trkpt>
      <trkpt lat="47.85271" lon="-2.79876">
        <ele>124.41</ele>
        <time>2018-08-08T07:47:32Z</time>
      </trkpt>
      <trkpt lat="47.8527" lon="-2.79912">
        <ele>123.33</ele>
        <time>2018-08-08T07:47:46Z</time>
      </trkpt>
      <trkpt lat="47.85268" lon="-2.79952">
        <ele>122.32</ele>
        <time>2018-08-08T07:48:03Z</time>
      </trkpt>
      <trkpt lat="47.85263" lon="-2.79996">
        <ele>121.59</ele>
        <time>2018-08-08T07:48:20Z</time>
      </trkpt>
      <trkpt lat="47.85264" lon="-2.80042">
        <ele>121.69</ele>
        <time>2018-08-08T07:48:39Z</time>
      </trkpt>
      <trkpt lat="47.85271" lon="-2.80086">
        <ele>122.36</ele>
        <time>2018-08-08T07:48:58Z</time>
      </trkpt>
      <trkpt lat="47.85278" lon="-2.80126">
        <ele>123.29</ele>
        <time>2018-08-08T07:49:16Z</time>
      </trkpt>
      <trkpt lat="47.85287" lon="-2.80162">
        <ele>124.4</ele>
        <time>2018-08-08T07:49:34Z</time>
      </trkpt>
      <trkpt lat="47.85304" lon="-2.80196">
        <ele>125.68</ele>
        <time>2018-08-08T07:49:54Z</time>
      </trkpt>
      <trkpt lat="47.8532" lon="-2.80218">
        <ele>127.26</ele>
        <time>2018-08-08T07:50:10Z</time>
      </trkpt>
      <trkpt lat="47.85339" lon="-2.80244">
        <ele>129.51</ele>
        <time>2018-08-08T07:50:28Z</time>
      </trkpt>
      <trkpt lat="47.8536" lon="-2.8027">
        <ele>131.46</ele>
        <time>2018-08-08T07:50:48Z</time>
      </trkpt>
      <trkpt lat="47.85377" lon="-2.80288">
        <ele>132.47</ele>
        <time>2018-08-08T07:51:02Z</time>
      </trkpt>
      <trkpt lat="47.85399" lon="-2.80307">
        <ele>133.33</ele>
        <time>2018-08-08T07:51:19Z</time>
      </trkpt>
      <trkpt lat="47.85408" lon="-2.80334">
        <ele>132.8</ele>
        <time>2018-08-08T07:51:34Z</time>
      </trkpt>
      <trkpt lat="47.85405" lon="-2.80366">
        <ele>130.6</ele>
        <time>2018-08-08T07:51:49Z</time>
      </trkpt>
      <trkpt lat="47.85404" lon="-2.80372">
        <ele>130.07</ele>
        <time>2018-08-08T07:51:52Z</time>
      </trkpt>
      <trkpt lat="47.85403" lon="-2.804">
        <ele>128.39</ele>
        <time>2018-08-08T07:52:06Z</time>
      </trkpt>
      <trkpt lat="47.85405" lon="-2.80438">
        <ele>125.15</ele>
        <time>2018-08-08T07:52:25Z</time>
      </trkpt>
      <trkpt lat="47.85403" lon="-2.80461">
        <ele>123.69</ele>
        <time>2018-08-08T07:52:35Z</time>
      </trkpt>
      <trkpt lat="47.85415" lon="-2.80484">
        <ele>121.19</ele>
        <time>2018-08-08T07:52:48Z</time>
      </trkpt>
      <trkpt lat="47.85426" lon="-2.80487">
        <ele>119.46</ele>
        <time>2018-08-08T07:52:57Z</time>
      </trkpt>
      <trkpt lat="47.85446" lon="-2.8049">
        <ele>117.36</ele>
        <time>2018-08-08T07:53:08Z</time>
      </trkpt>
      <trkpt lat="47.85463" lon="-2.80496">
        <ele>116.6</ele>
        <time>2018-08-08T07:53:19Z</time>
      </trkpt>
      <trkpt lat="47.85468" lon="-2.80502">
        <ele>116.39</ele>
        <time>2018-08-08T07:53:23Z</time>
      </trkpt>
      <trkpt lat="47.85482" lon="-2.80516">
        <ele>115.98</ele>
        <time>2018-08-08T07:53:37Z</time>
      </trkpt>
      <trkpt lat="47.85486" lon="-2.80522">
        <ele>115.93</ele>
        <time>2018-08-08T07:53:42Z</time>
      </trkpt>
      <trkpt lat="47.85488" lon="-2.80524">
        <ele>115.93</ele>
        <time>2018-08-08T07:53:44Z</time>
      </trkpt>
      <trkpt lat="47.85511" lon="-2.80547">
        <ele>116.12</ele>
        <time>2018-08-08T07:54:04Z</time>
      </trkpt>
      <trkpt lat="47.85535" lon="-2.80556">
        <ele>116.68</ele>
        <time>2018-08-08T07:54:23Z</time>
      </trkpt>
      <trkpt lat="47.85575" lon="-2.80587">
        <ele>117.4</ele>
        <time>2018-08-08T07:54:46Z</time>
      </trkpt>
      <trkpt lat="47.85591" lon="-2.80603">
        <ele>117.37</ele>
        <time>2018-08-08T07:54:56Z</time>
      </trkpt>
      <trkpt lat="47.85621" lon="-2.80626">
        <ele>116.76</ele>
        <time>2018-08-08T07:55:13Z</time>
      </trkpt>
      <trkpt lat="47.85641" lon="-2.80633">
        <ele>116.52</ele>
        <time>2018-08-08T07:55:25Z</time>
      </trkpt>
      <trkpt lat="47.8566" lon="-2.80641">
        <ele>116.25</ele>
        <time>2018-08-08T07:55:37Z</time>
      </trkpt>
      <trkpt lat="47.85662" lon="-2.80642">
        <ele>116.18</ele>
        <time>2018-08-08T07:55:38Z</time>
      </trkpt>
      <trkpt lat="47.85664" lon="-2.80642">
        <ele>116.12</ele>
        <time>2018-08-08T07:55:39Z</time>
      </trkpt>
      <trkpt lat="47.85665" lon="-2.80643">
        <ele>116.05</ele>
        <time>2018-08-08T07:55:40Z</time>
      </trkpt>
      <trkpt lat="47.85667" lon="-2.80643">
        <ele>115.98</ele>
        <time>2018-08-08T07:55:41Z</time>
      </trkpt>
      <trkpt lat="47.85669" lon="-2.80644">
        <ele>115.91</ele>
        <time>2018-08-08T07:55:42Z</time>
      </trkpt>
      <trkpt lat="47.85683" lon="-2.80647">
        <ele>115.16</ele>
        <time>2018-08-08T07:55:53Z</time>
      </trkpt>
      <trkpt lat="47.85693" lon="-2.8065">
        <ele>114.66</ele>
        <time>2018-08-08T07:55:59Z</time>
      </trkpt>
      <trkpt lat="47.85694" lon="-2.8065">
        <ele>114.58</ele>
        <time>2018-08-08T07:56:00Z</time>
      </trkpt>
      <trkpt lat="47.85695" lon="-2.8065">
        <ele>114.48</ele>
        <time>2018-08-08T07:56:01Z</time>
      </trkpt>
      <trkpt lat="47.85696" lon="-2.80651">
        <ele>114.41</ele>
        <time>2018-08-08T07:56:02Z</time>
      </trkpt>
      <trkpt lat="47.85698" lon="-2.8065">
        <ele>114.3</ele>
        <time>2018-08-08T07:56:03Z</time>
      </trkpt>
      <trkpt lat="47.85699" lon="-2.8065">
        <ele>114.19</ele>
        <time>2018-08-08T07:56:04Z</time>
      </trkpt>
      <trkpt lat="47.85721" lon="-2.80653">
        <ele>112.99</ele>
        <time>2018-08-08T07:56:19Z</time>
      </trkpt>
      <trkpt lat="47.85745" lon="-2.80656">
        <ele>111.96</ele>
        <time>2018-08-08T07:56:35Z</time>
      </trkpt>
      <trkpt lat="47.8576" lon="-2.80662">
        <ele>111.98</ele>
        <time>2018-08-08T07:56:49Z</time>
      </trkpt>
      <trkpt lat="47.85761" lon="-2.80662">
        <ele>111.99</ele>
        <time>2018-08-08T07:56:50Z</time>
      </trkpt>
      <trkpt lat="47.85763" lon="-2.80662">
        <ele>112.02</ele>
        <time>2018-08-08T07:56:51Z</time>
      </trkpt>
      <trkpt lat="47.85782" lon="-2.80662">
        <ele>112.41</ele>
        <time>2018-08-08T07:57:05Z</time>
      </trkpt>
      <trkpt lat="47.85811" lon="-2.80676">
        <ele>112.71</ele>
        <time>2018-08-08T07:57:18Z</time>
      </trkpt>
      <trkpt lat="47.85835" lon="-2.80685">
        <ele>112.87</ele>
        <time>2018-08-08T07:57:33Z</time>
      </trkpt>
      <trkpt lat="47.85856" lon="-2.80691">
        <ele>112.82</ele>
        <time>2018-08-08T07:57:46Z</time>
      </trkpt>
      <trkpt lat="47.85872" lon="-2.80694">
        <ele>112.66</ele>
        <time>2018-08-08T07:57:56Z</time>
      </trkpt>
      <trkpt lat="47.85873" lon="-2.80693">
        <ele>112.64</ele>
        <time>2018-08-08T07:57:57Z</time>
      </trkpt>
      <trkpt lat="47.85875" lon="-2.80689">
        <ele>112.61</ele>
        <time>2018-08-08T07:58:00Z</time>
      </trkpt>
      <trkpt lat="47.85881" lon="-2.80663">
        <ele>113.75</ele>
        <time>2018-08-08T07:58:12Z</time>
      </trkpt>
      <trkpt lat="47.85888" lon="-2.80637">
        <ele>116.52</ele>
        <time>2018-08-08T07:58:24Z</time>
      </trkpt>
      <trkpt lat="47.8589" lon="-2.80625">
        <ele>100.19140625</ele>
      </trkpt>
      <trkpt lat="47.85845" lon="-2.80601">
        <ele>100.71484375</ele>
      </trkpt>
      <trkpt lat="47.85847" lon="-2.80582">
        <ele>102.6171875</ele>
      </trkpt>
      <trkpt lat="47.85858" lon="-2.80552">
        <ele>106.62890625</ele>
      </trkpt>
      <trkpt lat="47.85857" lon="-2.80525">
        <ele>108.89453125</ele>
      </trkpt>
      <trkpt lat="47.85852" lon="-2.80512">
        <ele>109.671875</ele>
      </trkpt>
      <trkpt lat="47.85852" lon="-2.80464">
        <ele>113.7109375</ele>
      </trkpt>
      <trkpt lat="47.85851" lon="-2.80445">
        <ele>115.2109375</ele>
      </trkpt>
      <trkpt lat="47.85837" lon="-2.80398">
        <ele>119.953125</ele>
      </trkpt>
      <trkpt lat="47.85881" lon="-2.80402">
        <ele>121.890625</ele>
      </trkpt>
      <trkpt lat="47.85888" lon="-2.80391">
        <ele>123.765625</ele>
      </trkpt>
      <trkpt lat="47.85892" lon="-2.80341">
        <ele>129.0078125</ele>
      </trkpt>
      <trkpt lat="47.85894" lon="-2.80321">
        <ele>130.94921875</ele>
      </trkpt>
      <trkpt lat="47.859" lon="-2.80316">
        <ele>131.62890625</ele>
      </trkpt>
      <trkpt lat="47.85902" lon="-2.80329">
        <ele>130.4921875</ele>
      </trkpt>
      <trkpt lat="47.85908" lon="-2.80355">
        <ele>128.8984375</ele>
      </trkpt>
      <trkpt lat="47.85938" lon="-2.80377">
        <ele>131.30078125</ele>
      </trkpt>
      <trkpt lat="47.85949" lon="-2.80375">
        <ele>132.93359375</ele>
      </trkpt>
      <trkpt lat="47.85951" lon="-2.80365">
        <ele>134.171875</ele>
      </trkpt>
      <trkpt lat="47.8595" lon="-2.80299">
        <ele>139.75390625</ele>
      </trkpt>
      <trkpt lat="47.85941" lon="-2.80204">
        <ele>144.66796875</ele>
      </trkpt>
      <trkpt lat="47.86033" lon="-2.80233">
        <ele>156.09375</ele>
      </trkpt>
      <trkpt lat="47.86086" lon="-2.80215">
        <ele>163.2421875</ele>
      </trkpt>
      <trkpt lat="47.86114" lon="-2.80184">
        <ele>166.859375</ele>
      </trkpt>
      <trkpt lat="47.86123" lon="-2.80171">
        <ele>168.0390625</ele>
      </trkpt>
      <trkpt lat="47.86122" lon="-2.80157">
        <ele>167.94921875</ele>
      </trkpt>
      <trkpt lat="47.86091" lon="-2.80017">
        <ele>160.27734375</ele>
      </trkpt>
      <trkpt lat="47.86083" lon="-2.79997">
        <ele>158.99609375</ele>
      </trkpt>
      <trkpt lat="47.86164" lon="-2.79909">
        <ele>175.75</ele>
        <time>2018-08-08T08:05:10Z</time>
      </trkpt>
      <trkpt lat="47.86234" lon="-2.79832">
        <ele>177.63</ele>
        <time>2018-08-08T08:05:22Z</time>
      </trkpt>
      <trkpt lat="47.86247" lon="-2.79819">
        <ele>178.03</ele>
        <time>2018-08-08T08:05:24Z</time>
      </trkpt>
      <trkpt lat="47.86304" lon="-2.79758">
        <ele>181.35</ele>
        <time>2018-08-08T08:05:34Z</time>
      </trkpt>
      <trkpt lat="47.86324" lon="-2.79737">
        <ele>183.61</ele>
        <time>2018-08-08T08:05:39Z</time>
      </trkpt>
      <trkpt lat="47.86345" lon="-2.79717">
        <ele>186.65</ele>
        <time>2018-08-08T08:05:48Z</time>
      </trkpt>
      <trkpt lat="47.86367" lon="-2.79699">
        <ele>188.55</ele>
        <time>2018-08-08T08:06:01Z</time>
      </trkpt>
      <trkpt lat="47.86389" lon="-2.79672">
        <ele>190.45</ele>
        <time>2018-08-08T08:06:16Z</time>
      </trkpt>
      <trkpt lat="47.86399" lon="-2.79638">
        <ele>191.62</ele>
        <time>2018-08-08T08:06:31Z</time>
      </trkpt>
      <trkpt lat="47.86416" lon="-2.79558">
        <ele>193</ele>
        <time>2018-08-08T08:06:46Z</time>
      </trkpt>
      <trkpt lat="47.86444" lon="-2.79582">
        <ele>193.52</ele>
        <time>2018-08-08T08:07:08Z</time>
      </trkpt>
      <trkpt lat="47.86647" lon="-2.79771">
        <ele>186.69</ele>
        <time>2018-08-08T08:09:36Z</time>
      </trkpt>
      <trkpt lat="47.86667" lon="-2.79791">
        <ele>185.69</ele>
        <time>2018-08-08T08:09:50Z</time>
      </trkpt>
      <trkpt lat="47.86697" lon="-2.79817">
        <ele>183.87</ele>
        <time>2018-08-08T08:10:09Z</time>
      </trkpt>
      <trkpt lat="47.86727" lon="-2.79846">
        <ele>181.1</ele>
        <time>2018-08-08T08:10:30Z</time>
      </trkpt>
      <trkpt lat="47.86747" lon="-2.79863">
        <ele>178.77</ele>
        <time>2018-08-08T08:10:46Z</time>
      </trkpt>
      <trkpt lat="47.86778" lon="-2.79894">
        <ele>175</ele>
        <time>2018-08-08T08:11:16Z</time>
      </trkpt>
      <trkpt lat="47.8678" lon="-2.79894">
        <ele>174.53</ele>
        <time>2018-08-08T08:11:35Z</time>
      </trkpt>
      <trkpt lat="47.86859" lon="-2.79977">
        <ele>155.4609375</ele>
      </trkpt>
      <trkpt lat="47.86893" lon="-2.79869">
        <ele>156.95703125</ele>
      </trkpt>
      <trkpt lat="47.86901" lon="-2.79757">
        <ele>155.28515625</ele>
      </trkpt>
      <trkpt lat="47.869" lon="-2.79746">
        <ele>155.328125</ele>
      </trkpt>
      <trkpt lat="47.86919" lon="-2.79661">
        <ele>155.69921875</ele>
      </trkpt>
      <trkpt lat="47.86925" lon="-2.79616">
        <ele>156.24609375</ele>
      </trkpt>
      <trkpt lat="47.8693" lon="-2.79591">
        <ele>156.73046875</ele>
      </trkpt>
      <trkpt lat="47.86935" lon="-2.79578">
        <ele>156.640625</ele>
      </trkpt>
      <trkpt lat="47.86953" lon="-2.79574">
        <ele>153.45703125</ele>
      </trkpt>
      <trkpt lat="47.86973" lon="-2.79573">
        <ele>149.7265625</ele>
      </trkpt>
      <trkpt lat="47.86977" lon="-2.79583">
        <ele>158.47</ele>
        <time>2018-08-08T08:16:12Z</time>
      </trkpt>
      <trkpt lat="47.8698" lon="-2.79599">
        <ele>158.08</ele>
        <time>2018-08-08T08:16:20Z</time>
      </trkpt>
      <trkpt lat="47.86985" lon="-2.79632">
        <ele>158.39</ele>
        <time>2018-08-08T08:16:34Z</time>
      </trkpt>
      <trkpt lat="47.8699" lon="-2.79672">
        <ele>158.58</ele>
        <time>2018-08-08T08:16:49Z</time>
      </trkpt>
      <trkpt lat="47.86993" lon="-2.79701">
        <ele>158.96</ele>
        <time>2018-08-08T08:17:01Z</time>
      </trkpt>
      <trkpt lat="47.87006" lon="-2.79735">
        <ele>160.11</ele>
        <time>2018-08-08T08:17:16Z</time>
      </trkpt>
      <trkpt lat="47.87015" lon="-2.79773">
        <ele>160.99</ele>
        <time>2018-08-08T08:17:29Z</time>
      </trkpt>
      <trkpt lat="47.8703" lon="-2.79792">
        <ele>162.37</ele>
        <time>2018-08-08T08:17:43Z</time>
      </trkpt>
      <trkpt lat="47.87051" lon="-2.79808">
        <ele>164.11</ele>
        <time>2018-08-08T08:17:57Z</time>
      </trkpt>
      <trkpt lat="47.87079" lon="-2.79817">
        <ele>164.8</ele>
        <time>2018-08-08T08:18:13Z</time>
      </trkpt>
      <trkpt lat="47.87102" lon="-2.79819">
        <ele>165.33</ele>
        <time>2018-08-08T08:18:28Z</time>
      </trkpt>
      <trkpt lat="47.87126" lon="-2.79824">
        <ele>166.07</ele>
        <time>2018-08-08T08:18:44Z</time>
      </trkpt>
      <trkpt lat="47.87163" lon="-2.79828">
        <ele>167.7</ele>
        <time>2018-08-08T08:19:05Z</time>
      </trkpt>
      <trkpt lat="47.87195" lon="-2.79839">
        <ele>169.23</ele>
        <time>2018-08-08T08:19:24Z</time>
      </trkpt>
      <trkpt lat="47.87218" lon="-2.79854">
        <ele>170.19</ele>
        <time>2018-08-08T08:19:40Z</time>
      </trkpt>
      <trkpt lat="47.87242" lon="-2.79875">
        <ele>170.93</ele>
        <time>2018-08-08T08:19:59Z</time>
      </trkpt>
      <trkpt lat="47.87268" lon="-2.799">
        <ele>171.21</ele>
        <time>2018-08-08T08:20:19Z</time>
      </trkpt>
      <trkpt lat="47.87287" lon="-2.79919">
        <ele>171.12</ele>
        <time>2018-08-08T08:20:34Z</time>
      </trkpt>
      <trkpt lat="47.87312" lon="-2.79939">
        <ele>170.11</ele>
        <time>2018-08-08T08:20:51Z</time>
      </trkpt>
      <trkpt lat="47.87335" lon="-2.7995">
        <ele>168.46</ele>
        <time>2018-08-08T08:21:07Z</time>
      </trkpt>
      <trkpt lat="47.87357" lon="-2.79955">
        <ele>166.36</ele>
        <time>2018-08-08T08:21:22Z</time>
      </trkpt>
      <trkpt lat="47.87379" lon="-2.79956">
        <ele>163.86</ele>
        <time>2018-08-08T08:21:36Z</time>
      </trkpt>
      <trkpt lat="47.87402" lon="-2.79956">
        <ele>161.32</ele>
        <time>2018-08-08T08:21:52Z</time>
      </trkpt>
      <trkpt lat="47.87427" lon="-2.79957">
        <ele>158.94</ele>
        <time>2018-08-08T08:22:08Z</time>
      </trkpt>
      <trkpt lat="47.87449" lon="-2.79967">
        <ele>157.28</ele>
        <time>2018-08-08T08:22:23Z</time>
      </trkpt>
      <trkpt lat="47.87469" lon="-2.79979">
        <ele>156.19</ele>
        <time>2018-08-08T08:22:36Z</time>
      </trkpt>
      <trkpt lat="47.87492" lon="-2.80003">
        <ele>155.06</ele>
        <time>2018-08-08T08:22:52Z</time>
      </trkpt>
      <trkpt lat="47.8751" lon="-2.80028">
        <ele>154.23</ele>
        <time>2018-08-08T08:23:09Z</time>
      </trkpt>
      <trkpt lat="47.87527" lon="-2.80051">
        <ele>153.65</ele>
        <time>2018-08-08T08:23:23Z</time>
      </trkpt>
      <trkpt lat="47.87541" lon="-2.80083">
        <ele>153.29</ele>
        <time>2018-08-08T08:23:40Z</time>
      </trkpt>
      <trkpt lat="47.87554" lon="-2.80127">
        <ele>153.9</ele>
        <time>2018-08-08T08:24:00Z</time>
      </trkpt>
      <trkpt lat="47.87558" lon="-2.80145">
        <ele>154.14</ele>
        <time>2018-08-08T08:24:12Z</time>
      </trkpt>
      <trkpt lat="47.87565" lon="-2.8017">
        <ele>154.96</ele>
        <time>2018-08-08T08:24:28Z</time>
      </trkpt>
      <trkpt lat="47.87571" lon="-2.80207">
        <ele>155.25</ele>
        <time>2018-08-08T08:24:42Z</time>
      </trkpt>
      <trkpt lat="47.87578" lon="-2.80242">
        <ele>155.02</ele>
        <time>2018-08-08T08:24:58Z</time>
      </trkpt>
      <trkpt lat="47.8758" lon="-2.8025">
        <ele>154.75</ele>
        <time>2018-08-08T08:25:02Z</time>
      </trkpt>
      <trkpt lat="47.87588" lon="-2.80289">
        <ele>153.57</ele>
        <time>2018-08-08T08:25:17Z</time>
      </trkpt>
      <trkpt lat="47.87598" lon="-2.80318">
        <ele>151.43</ele>
        <time>2018-08-08T08:25:31Z</time>
      </trkpt>
      <trkpt lat="47.876" lon="-2.80322">
        <ele>151.06</ele>
        <time>2018-08-08T08:25:33Z</time>
      </trkpt>
      <trkpt lat="47.87605" lon="-2.8033">
        <ele>150.36</ele>
        <time>2018-08-08T08:25:37Z</time>
      </trkpt>
      <trkpt lat="47.87603" lon="-2.80334">
        <ele>150.08</ele>
        <time>2018-08-08T08:25:39Z</time>
      </trkpt>
      <trkpt lat="47.87626" lon="-2.80373">
        <ele>147.35</ele>
        <time>2018-08-08T08:25:55Z</time>
      </trkpt>
      <trkpt lat="47.87639" lon="-2.80396">
        <ele>145.12</ele>
        <time>2018-08-08T08:26:10Z</time>
      </trkpt>
      <trkpt lat="47.87656" lon="-2.80422">
        <ele>143.62</ele>
        <time>2018-08-08T08:26:24Z</time>
      </trkpt>
      <trkpt lat="47.87677" lon="-2.80452">
        <ele>142.46</ele>
        <time>2018-08-08T08:26:41Z</time>
      </trkpt>
      <trkpt lat="47.87706" lon="-2.80479">
        <ele>141.5</ele>
        <time>2018-08-08T08:27:00Z</time>
      </trkpt>
      <trkpt lat="47.8774" lon="-2.80507">
        <ele>140.87</ele>
        <time>2018-08-08T08:27:20Z</time>
      </trkpt>
      <trkpt lat="47.87766" lon="-2.80531">
        <ele>139.57</ele>
        <time>2018-08-08T08:27:39Z</time>
      </trkpt>
      <trkpt lat="47.87792" lon="-2.80552">
        <ele>138.97</ele>
        <time>2018-08-08T08:27:58Z</time>
      </trkpt>
      <trkpt lat="47.8782" lon="-2.80571">
        <ele>138.25</ele>
        <time>2018-08-08T08:28:17Z</time>
      </trkpt>
      <trkpt lat="47.87844" lon="-2.80589">
        <ele>137.8</ele>
        <time>2018-08-08T08:28:34Z</time>
      </trkpt>
      <trkpt lat="47.87862" lon="-2.80607">
        <ele>137.97</ele>
        <time>2018-08-08T08:28:49Z</time>
      </trkpt>
      <trkpt lat="47.8788" lon="-2.80632">
        <ele>138.14</ele>
        <time>2018-08-08T08:29:05Z</time>
      </trkpt>
      <trkpt lat="47.87882" lon="-2.80637">
        <ele>138.16</ele>
        <time>2018-08-08T08:29:08Z</time>
      </trkpt>
      <trkpt lat="47.87898" lon="-2.80674">
        <ele>138.03</ele>
        <time>2018-08-08T08:29:26Z</time>
      </trkpt>
      <trkpt lat="47.87913" lon="-2.80708">
        <ele>138.11</ele>
        <time>2018-08-08T08:29:44Z</time>
      </trkpt>
      <trkpt lat="47.87918" lon="-2.80708">
        <ele>138</ele>
        <time>2018-08-08T08:29:56Z</time>
      </trkpt>
      <trkpt lat="47.87927" lon="-2.80705">
        <ele>138.07</ele>
        <time>2018-08-08T08:30:09Z</time>
      </trkpt>
      <trkpt lat="47.87928" lon="-2.80705">
        <ele>138.12</ele>
        <time>2018-08-08T08:30:11Z</time>
      </trkpt>
      <trkpt lat="47.87931" lon="-2.80704">
        <ele>138.16</ele>
        <time>2018-08-08T08:30:13Z</time>
      </trkpt>
      <trkpt lat="47.87934" lon="-2.80706">
        <ele>138.24</ele>
        <time>2018-08-08T08:30:22Z</time>
      </trkpt>
      <trkpt lat="47.87938" lon="-2.80705">
        <ele>138.26</ele>
        <time>2018-08-08T08:30:25Z</time>
      </trkpt>
      <trkpt lat="47.87944" lon="-2.80703">
        <ele>138.32</ele>
        <time>2018-08-08T08:30:29Z</time>
      </trkpt>
      <trkpt lat="47.87979" lon="-2.80694">
        <ele>138.57</ele>
        <time>2018-08-08T08:30:50Z</time>
      </trkpt>
      <trkpt lat="47.88008" lon="-2.80683">
        <ele>138.97</ele>
        <time>2018-08-08T08:31:08Z</time>
      </trkpt>
      <trkpt lat="47.88037" lon="-2.80673">
        <ele>139.08</ele>
        <time>2018-08-08T08:31:26Z</time>
      </trkpt>
      <trkpt lat="47.88068" lon="-2.80663">
        <ele>139.29</ele>
        <time>2018-08-08T08:31:46Z</time>
      </trkpt>
      <trkpt lat="47.88097" lon="-2.80655">
        <ele>139.72</ele>
        <time>2018-08-08T08:32:04Z</time>
      </trkpt>
      <trkpt lat="47.88127" lon="-2.80646">
        <ele>139.43</ele>
        <time>2018-08-08T08:32:22Z</time>
      </trkpt>
      <trkpt lat="47.88148" lon="-2.80639">
        <ele>139.4</ele>
        <time>2018-08-08T08:32:36Z</time>
      </trkpt>
      <trkpt lat="47.8818" lon="-2.80627">
        <ele>138.71</ele>
        <time>2018-08-08T08:32:56Z</time>
      </trkpt>
      <trkpt lat="47.88191" lon="-2.80619">
        <ele>138.45</ele>
        <time>2018-08-08T08:33:05Z</time>
      </trkpt>
      <trkpt lat="47.88193" lon="-2.80609">
        <ele>138.39</ele>
        <time>2018-08-08T08:33:11Z</time>
      </trkpt>
      <trkpt lat="47.88192" lon="-2.80575">
        <ele>138.26</ele>
        <time>2018-08-08T08:33:27Z</time>
      </trkpt>
      <trkpt lat="47.8819" lon="-2.80548">
        <ele>138.43</ele>
        <time>2018-08-08T08:33:39Z</time>
      </trkpt>
      <trkpt lat="47.88186" lon="-2.80522">
        <ele>138.29</ele>
        <time>2018-08-08T08:33:50Z</time>
      </trkpt>
      <trkpt lat="47.88175" lon="-2.8044">
        <ele>121.6484375</ele>
      </trkpt>
      <trkpt lat="47.88176" lon="-2.80367">
        <ele>120.359375</ele>
      </trkpt>
      <trkpt lat="47.88177" lon="-2.80301">
        <ele>119.203125</ele>
      </trkpt>
      <trkpt lat="47.88184" lon="-2.80282">
        <ele>118.97265625</ele>
      </trkpt>
      <trkpt lat="47.88218" lon="-2.80311">
        <ele>120.26171875</ele>
      </trkpt>
      <trkpt lat="47.88252" lon="-2.80336">
        <ele>137.59</ele>
        <time>2018-08-08T08:37:09Z</time>
      </trkpt>
      <trkpt lat="47.88282" lon="-2.8035">
        <ele>137.74</ele>
        <time>2018-08-08T08:37:26Z</time>
      </trkpt>
      <trkpt lat="47.88314" lon="-2.80359">
        <ele>137.79</ele>
        <time>2018-08-08T08:37:44Z</time>
      </trkpt>
      <trkpt lat="47.88339" lon="-2.80368">
        <ele>138.12</ele>
        <time>2018-08-08T08:37:59Z</time>
      </trkpt>
      <trkpt lat="47.88362" lon="-2.80378">
        <ele>138.16</ele>
        <time>2018-08-08T08:38:13Z</time>
      </trkpt>
      <trkpt lat="47.88383" lon="-2.80394">
        <ele>138.09</ele>
        <time>2018-08-08T08:38:28Z</time>
      </trkpt>
      <trkpt lat="47.88387" lon="-2.80397">
        <ele>138.15</ele>
        <time>2018-08-08T08:38:34Z</time>
      </trkpt>
      <trkpt lat="47.88396" lon="-2.804">
        <ele>138.05</ele>
        <time>2018-08-08T08:38:40Z</time>
      </trkpt>
      <trkpt lat="47.88423" lon="-2.80403">
        <ele>138.21</ele>
        <time>2018-08-08T08:38:57Z</time>
      </trkpt>
      <trkpt lat="47.88443" lon="-2.80402">
        <ele>138.3</ele>
        <time>2018-08-08T08:39:10Z</time>
      </trkpt>
      <trkpt lat="47.88465" lon="-2.80398">
        <ele>138.48</ele>
        <time>2018-08-08T08:39:25Z</time>
      </trkpt>
      <trkpt lat="47.88493" lon="-2.80393">
        <ele>139.21</ele>
        <time>2018-08-08T08:39:41Z</time>
      </trkpt>
      <trkpt lat="47.88494" lon="-2.8039">
        <ele>139.38</ele>
        <time>2018-08-08T08:39:44Z</time>
      </trkpt>
      <trkpt lat="47.88511" lon="-2.80388">
        <ele>140.02</ele>
        <time>2018-08-08T08:40:22Z</time>
      </trkpt>
      <trkpt lat="47.88538" lon="-2.80383">
        <ele>140.33</ele>
        <time>2018-08-08T08:40:39Z</time>
      </trkpt>
      <trkpt lat="47.88569" lon="-2.80379">
        <ele>140.94</ele>
        <time>2018-08-08T08:40:58Z</time>
      </trkpt>
      <trkpt lat="47.88595" lon="-2.80375">
        <ele>141.22</ele>
        <time>2018-08-08T08:41:14Z</time>
      </trkpt>
      <trkpt lat="47.8862" lon="-2.80373">
        <ele>141.38</ele>
        <time>2018-08-08T08:41:30Z</time>
      </trkpt>
      <trkpt lat="47.88645" lon="-2.80371">
        <ele>142.08</ele>
        <time>2018-08-08T08:41:46Z</time>
      </trkpt>
      <trkpt lat="47.8867" lon="-2.80367">
        <ele>142.43</ele>
        <time>2018-08-08T08:42:03Z</time>
      </trkpt>
      <trkpt lat="47.88698" lon="-2.80361">
        <ele>142.79</ele>
        <time>2018-08-08T08:42:21Z</time>
      </trkpt>
      <trkpt lat="47.88722" lon="-2.80358">
        <ele>143.34</ele>
        <time>2018-08-08T08:42:37Z</time>
      </trkpt>
      <trkpt lat="47.88751" lon="-2.80355">
        <ele>143.91</ele>
        <time>2018-08-08T08:42:53Z</time>
      </trkpt>
      <trkpt lat="47.88775" lon="-2.80354">
        <ele>144.6</ele>
        <time>2018-08-08T08:43:09Z</time>
      </trkpt>
      <trkpt lat="47.88803" lon="-2.80348">
        <ele>144.9</ele>
        <time>2018-08-08T08:43:26Z</time>
      </trkpt>
      <trkpt lat="47.8883" lon="-2.80347">
        <ele>145.38</ele>
        <time>2018-08-08T08:43:42Z</time>
      </trkpt>
      <trkpt lat="47.88856" lon="-2.80357">
        <ele>145.73</ele>
        <time>2018-08-08T08:44:00Z</time>
      </trkpt>
      <trkpt lat="47.88885" lon="-2.80376">
        <ele>145.89</ele>
        <time>2018-08-08T08:44:19Z</time>
      </trkpt>
      <trkpt lat="47.88914" lon="-2.80396">
        <ele>145.9</ele>
        <time>2018-08-08T08:44:38Z</time>
      </trkpt>
      <trkpt lat="47.88942" lon="-2.80415">
        <ele>145.87</ele>
        <time>2018-08-08T08:44:58Z</time>
      </trkpt>
      <trkpt lat="47.88976" lon="-2.80441">
        <ele>145.56</ele>
        <time>2018-08-08T08:45:21Z</time>
      </trkpt>
      <trkpt lat="47.89005" lon="-2.80461">
        <ele>145.13</ele>
        <time>2018-08-08T08:45:40Z</time>
      </trkpt>
      <trkpt lat="47.89031" lon="-2.80477">
        <ele>144.49</ele>
        <time>2018-08-08T08:45:57Z</time>
      </trkpt>
      <trkpt lat="47.89042" lon="-2.80488">
        <ele>144</ele>
        <time>2018-08-08T08:46:06Z</time>
      </trkpt>
      <trkpt lat="47.89043" lon="-2.80489">
        <ele>143.94</ele>
        <time>2018-08-08T08:46:07Z</time>
      </trkpt>
      <trkpt lat="47.89044" lon="-2.8049">
        <ele>143.88</ele>
        <time>2018-08-08T08:46:08Z</time>
      </trkpt>
      <trkpt lat="47.89061" lon="-2.80503">
        <ele>143.41</ele>
        <time>2018-08-08T08:46:22Z</time>
      </trkpt>
      <trkpt lat="47.89079" lon="-2.80514">
        <ele>142.89</ele>
        <time>2018-08-08T08:46:34Z</time>
      </trkpt>
      <trkpt lat="47.8908" lon="-2.80516">
        <ele>142.81</ele>
        <time>2018-08-08T08:46:35Z</time>
      </trkpt>
      <trkpt lat="47.89082" lon="-2.80516">
        <ele>142.75</ele>
        <time>2018-08-08T08:46:36Z</time>
      </trkpt>
      <trkpt lat="47.89083" lon="-2.80517">
        <ele>142.71</ele>
        <time>2018-08-08T08:46:37Z</time>
      </trkpt>
      <trkpt lat="47.89085" lon="-2.80518">
        <ele>142.64</ele>
        <time>2018-08-08T08:46:38Z</time>
      </trkpt>
      <trkpt lat="47.89086" lon="-2.80519">
        <ele>142.58</ele>
        <time>2018-08-08T08:46:39Z</time>
      </trkpt>
      <trkpt lat="47.89088" lon="-2.8052">
        <ele>142.51</ele>
        <time>2018-08-08T08:46:40Z</time>
      </trkpt>
      <trkpt lat="47.89089" lon="-2.80521">
        <ele>142.46</ele>
        <time>2018-08-08T08:46:41Z</time>
      </trkpt>
      <trkpt lat="47.89095" lon="-2.80527">
        <ele>142.19</ele>
        <time>2018-08-08T08:46:46Z</time>
      </trkpt>
      <trkpt lat="47.89096" lon="-2.80528">
        <ele>142.19</ele>
        <time>2018-08-08T08:46:47Z</time>
      </trkpt>
      <trkpt lat="47.89098" lon="-2.80529">
        <ele>142.17</ele>
        <time>2018-08-08T08:46:48Z</time>
      </trkpt>
      <trkpt lat="47.89106" lon="-2.80535">
        <ele>142.19</ele>
        <time>2018-08-08T08:46:53Z</time>
      </trkpt>
      <trkpt lat="47.89107" lon="-2.80537">
        <ele>142.14</ele>
        <time>2018-08-08T08:46:54Z</time>
      </trkpt>
      <trkpt lat="47.89109" lon="-2.80538">
        <ele>142.07</ele>
        <time>2018-08-08T08:46:55Z</time>
      </trkpt>
      <trkpt lat="47.8911" lon="-2.80539">
        <ele>142.04</ele>
        <time>2018-08-08T08:46:56Z</time>
      </trkpt>
      <trkpt lat="47.89112" lon="-2.8054">
        <ele>142.01</ele>
        <time>2018-08-08T08:46:57Z</time>
      </trkpt>
      <trkpt lat="47.89137" lon="-2.80556">
        <ele>141.49</ele>
        <time>2018-08-08T08:47:13Z</time>
      </trkpt>
      <trkpt lat="47.89154" lon="-2.80568">
        <ele>141.32</ele>
        <time>2018-08-08T08:47:24Z</time>
      </trkpt>
      <trkpt lat="47.89156" lon="-2.80569">
        <ele>141.3</ele>
        <time>2018-08-08T08:47:25Z</time>
      </trkpt>
      <trkpt lat="47.89182" lon="-2.80589">
        <ele>141.2</ele>
        <time>2018-08-08T08:47:43Z</time>
      </trkpt>
      <trkpt lat="47.89215" lon="-2.80612">
        <ele>140.92</ele>
        <time>2018-08-08T08:48:00Z</time>
      </trkpt>
      <trkpt lat="47.89215" lon="-2.80572">
        <ele>141.05</ele>
        <time>2018-08-08T08:48:15Z</time>
      </trkpt>
      <trkpt lat="47.89208" lon="-2.80528">
        <ele>141.61</ele>
        <time>2018-08-08T08:48:33Z</time>
      </trkpt>
      <trkpt lat="47.89202" lon="-2.80498">
        <ele>142.19</ele>
        <time>2018-08-08T08:48:46Z</time>
      </trkpt>
      <trkpt lat="47.89193" lon="-2.80465">
        <ele>142.69</ele>
        <time>2018-08-08T08:49:02Z</time>
      </trkpt>
      <trkpt lat="47.89183" lon="-2.80437">
        <ele>143.57</ele>
        <time>2018-08-08T08:49:16Z</time>
      </trkpt>
      <trkpt lat="47.89183" lon="-2.80435">
        <ele>143.62</ele>
        <time>2018-08-08T08:49:17Z</time>
      </trkpt>
      <trkpt lat="47.89182" lon="-2.80432">
        <ele>143.64</ele>
        <time>2018-08-08T08:49:18Z</time>
      </trkpt>
      <trkpt lat="47.89172" lon="-2.80406">
        <ele>144.37</ele>
        <time>2018-08-08T08:49:31Z</time>
      </trkpt>
      <trkpt lat="47.89161" lon="-2.8038">
        <ele>144.74</ele>
        <time>2018-08-08T08:49:46Z</time>
      </trkpt>
      <trkpt lat="47.89149" lon="-2.8035">
        <ele>145.15</ele>
        <time>2018-08-08T08:50:01Z</time>
      </trkpt>
      <trkpt lat="47.89141" lon="-2.80319">
        <ele>145.6</ele>
        <time>2018-08-08T08:50:14Z</time>
      </trkpt>
      <trkpt lat="47.89137" lon="-2.80286">
        <ele>146.2</ele>
        <time>2018-08-08T08:50:28Z</time>
      </trkpt>
      <trkpt lat="47.89132" lon="-2.80251">
        <ele>146.6</ele>
        <time>2018-08-08T08:50:44Z</time>
      </trkpt>
      <trkpt lat="47.89128" lon="-2.802">
        <ele>146.85</ele>
        <time>2018-08-08T08:51:01Z</time>
      </trkpt>
      <trkpt lat="47.89153" lon="-2.80195">
        <ele>147.05</ele>
        <time>2018-08-08T08:51:16Z</time>
      </trkpt>
      <trkpt lat="47.8918" lon="-2.80192">
        <ele>146.97</ele>
        <time>2018-08-08T08:51:32Z</time>
      </trkpt>
      <trkpt lat="47.89213" lon="-2.80197">
        <ele>147.15</ele>
        <time>2018-08-08T08:51:51Z</time>
      </trkpt>
      <trkpt lat="47.89234" lon="-2.80206">
        <ele>147.34</ele>
        <time>2018-08-08T08:52:06Z</time>
      </trkpt>
      <trkpt lat="47.89254" lon="-2.80214">
        <ele>147.25</ele>
        <time>2018-08-08T08:52:20Z</time>
      </trkpt>
      <trkpt lat="47.89284" lon="-2.80228">
        <ele>147.09</ele>
        <time>2018-08-08T08:52:39Z</time>
      </trkpt>
      <trkpt lat="47.8931" lon="-2.8024">
        <ele>146.95</ele>
        <time>2018-08-08T08:52:55Z</time>
      </trkpt>
      <trkpt lat="47.89339" lon="-2.80251">
        <ele>146.69</ele>
        <time>2018-08-08T08:53:12Z</time>
      </trkpt>
      <trkpt lat="47.89367" lon="-2.80261">
        <ele>146.42</ele>
        <time>2018-08-08T08:53:29Z</time>
      </trkpt>
      <trkpt lat="47.89392" lon="-2.80271">
        <ele>146.3</ele>
        <time>2018-08-08T08:53:45Z</time>
      </trkpt>
      <trkpt lat="47.89427" lon="-2.80281">
        <ele>145.95</ele>
        <time>2018-08-08T08:54:05Z</time>
      </trkpt>
      <trkpt lat="47.89455" lon="-2.80292">
        <ele>145.32</ele>
        <time>2018-08-08T08:54:23Z</time>
      </trkpt>
      <trkpt lat="47.89483" lon="-2.80301">
        <ele>145.07</ele>
        <time>2018-08-08T08:54:41Z</time>
      </trkpt>
      <trkpt lat="47.89518" lon="-2.80306">
        <ele>144.74</ele>
        <time>2018-08-08T08:55:03Z</time>
      </trkpt>
      <trkpt lat="47.89552" lon="-2.80306">
        <ele>144.51</ele>
        <time>2018-08-08T08:55:25Z</time>
      </trkpt>
      <trkpt lat="47.89586" lon="-2.80302">
        <ele>144.08</ele>
        <time>2018-08-08T08:55:46Z</time>
      </trkpt>
      <trkpt lat="47.89614" lon="-2.803">
        <ele>144.05</ele>
        <time>2018-08-08T08:56:05Z</time>
      </trkpt>
      <trkpt lat="47.8964" lon="-2.80297">
        <ele>143.86</ele>
        <time>2018-08-08T08:56:23Z</time>
      </trkpt>
      <trkpt lat="47.89662" lon="-2.803">
        <ele>143.6</ele>
        <time>2018-08-08T08:56:37Z</time>
      </trkpt>
      <trkpt lat="47.89684" lon="-2.80304">
        <ele>143.64</ele>
        <time>2018-08-08T08:56:51Z</time>
      </trkpt>
      <trkpt lat="47.89689" lon="-2.80309">
        <ele>144.07</ele>
        <time>2018-08-08T09:00:22Z</time>
      </trkpt>
      <trkpt lat="47.8969" lon="-2.8031">
        <ele>144.06</ele>
        <time>2018-08-08T09:00:23Z</time>
      </trkpt>
      <trkpt lat="47.89693" lon="-2.80312">
        <ele>144.02</ele>
        <time>2018-08-08T09:00:26Z</time>
      </trkpt>
      <trkpt lat="47.89717" lon="-2.80322">
        <ele>142.92</ele>
        <time>2018-08-08T09:00:45Z</time>
      </trkpt>
      <trkpt lat="47.89727" lon="-2.80325">
        <ele>142.7</ele>
        <time>2018-08-08T09:00:52Z</time>
      </trkpt>
      <trkpt lat="47.89729" lon="-2.80327">
        <ele>142.7</ele>
        <time>2018-08-08T09:00:53Z</time>
      </trkpt>
      <trkpt lat="47.89737" lon="-2.80328">
        <ele>142.65</ele>
        <time>2018-08-08T09:00:58Z</time>
      </trkpt>
      <trkpt lat="47.89756" lon="-2.8034">
        <ele>142.05</ele>
        <time>2018-08-08T09:01:11Z</time>
      </trkpt>
      <trkpt lat="47.89752" lon="-2.80379">
        <ele>141.7</ele>
        <time>2018-08-08T09:01:29Z</time>
      </trkpt>
      <trkpt lat="47.89751" lon="-2.80414">
        <ele>141.23</ele>
        <time>2018-08-08T09:01:44Z</time>
      </trkpt>
      <trkpt lat="47.89755" lon="-2.80423">
        <ele>140.98</ele>
        <time>2018-08-08T09:01:47Z</time>
      </trkpt>
      <trkpt lat="47.89769" lon="-2.80425">
        <ele>140.45</ele>
        <time>2018-08-08T09:01:54Z</time>
      </trkpt>
      <trkpt lat="47.8977" lon="-2.80426">
        <ele>140.41</ele>
        <time>2018-08-08T09:01:55Z</time>
      </trkpt>
      <trkpt lat="47.89772" lon="-2.80426">
        <ele>140.39</ele>
        <time>2018-08-08T09:01:56Z</time>
      </trkpt>
      <trkpt lat="47.89773" lon="-2.80427">
        <ele>140.36</ele>
        <time>2018-08-08T09:01:57Z</time>
      </trkpt>
      <trkpt lat="47.89775" lon="-2.80427">
        <ele>140.3</ele>
        <time>2018-08-08T09:01:58Z</time>
      </trkpt>
      <trkpt lat="47.89782" lon="-2.80431">
        <ele>139.86</ele>
        <time>2018-08-08T09:02:03Z</time>
      </trkpt>
      <trkpt lat="47.89784" lon="-2.80431">
        <ele>139.76</ele>
        <time>2018-08-08T09:02:04Z</time>
      </trkpt>
      <trkpt lat="47.89785" lon="-2.80431">
        <ele>139.66</ele>
        <time>2018-08-08T09:02:05Z</time>
      </trkpt>
      <trkpt lat="47.89787" lon="-2.80432">
        <ele>139.58</ele>
        <time>2018-08-08T09:02:06Z</time>
      </trkpt>
      <trkpt lat="47.89796" lon="-2.80436">
        <ele>139.26</ele>
        <time>2018-08-08T09:02:11Z</time>
      </trkpt>
      <trkpt lat="47.89797" lon="-2.80437">
        <ele>139.24</ele>
        <time>2018-08-08T09:02:12Z</time>
      </trkpt>
      <trkpt lat="47.89799" lon="-2.80438">
        <ele>139.2</ele>
        <time>2018-08-08T09:02:13Z</time>
      </trkpt>
      <trkpt lat="47.89801" lon="-2.8044">
        <ele>139.18</ele>
        <time>2018-08-08T09:02:14Z</time>
      </trkpt>
      <trkpt lat="47.89821" lon="-2.80453">
        <ele>138.86</ele>
        <time>2018-08-08T09:02:27Z</time>
      </trkpt>
      <trkpt lat="47.89835" lon="-2.80459">
        <ele>138.48</ele>
        <time>2018-08-08T09:02:36Z</time>
      </trkpt>
      <trkpt lat="47.89858" lon="-2.80468">
        <ele>137.68</ele>
        <time>2018-08-08T09:02:49Z</time>
      </trkpt>
      <trkpt lat="47.89881" lon="-2.80478">
        <ele>136.89</ele>
        <time>2018-08-08T09:03:03Z</time>
      </trkpt>
      <trkpt lat="47.89899" lon="-2.80491">
        <ele>135.98</ele>
        <time>2018-08-08T09:03:17Z</time>
      </trkpt>
      <trkpt lat="47.899" lon="-2.80493">
        <ele>135.9</ele>
        <time>2018-08-08T09:03:18Z</time>
      </trkpt>
      <trkpt lat="47.89922" lon="-2.8051">
        <ele>134.84</ele>
        <time>2018-08-08T09:03:32Z</time>
      </trkpt>
      <trkpt lat="47.89945" lon="-2.80525">
        <ele>134.58</ele>
        <time>2018-08-08T09:03:48Z</time>
      </trkpt>
      <trkpt lat="47.89969" lon="-2.80538">
        <ele>134.5</ele>
        <time>2018-08-08T09:04:03Z</time>
      </trkpt>
      <trkpt lat="47.89989" lon="-2.80545">
        <ele>135.58</ele>
        <time>2018-08-08T09:04:16Z</time>
      </trkpt>
      <trkpt lat="47.90014" lon="-2.80552">
        <ele>136.91</ele>
        <time>2018-08-08T09:04:32Z</time>
      </trkpt>
      <trkpt lat="47.90036" lon="-2.80555">
        <ele>137.85</ele>
        <time>2018-08-08T09:04:44Z</time>
      </trkpt>
      <trkpt lat="47.90058" lon="-2.80559">
        <ele>138.97</ele>
        <time>2018-08-08T09:04:58Z</time>
      </trkpt>
      <trkpt lat="47.90079" lon="-2.80565">
        <ele>139.84</ele>
        <time>2018-08-08T09:05:12Z</time>
      </trkpt>
      <trkpt lat="47.90097" lon="-2.80564">
        <ele>140.66</ele>
        <time>2018-08-08T09:05:25Z</time>
      </trkpt>
      <trkpt lat="47.90098" lon="-2.80562">
        <ele>140.74</ele>
        <time>2018-08-08T09:05:26Z</time>
      </trkpt>
      <trkpt lat="47.90098" lon="-2.80559">
        <ele>140.82</ele>
        <time>2018-08-08T09:05:27Z</time>
      </trkpt>
      <trkpt lat="47.90098" lon="-2.80556">
        <ele>140.91</ele>
        <time>2018-08-08T09:05:28Z</time>
      </trkpt>
      <trkpt lat="47.90097" lon="-2.80553">
        <ele>140.96</ele>
        <time>2018-08-08T09:05:29Z</time>
      </trkpt>
      <trkpt lat="47.90097" lon="-2.80549">
        <ele>141.05</ele>
        <time>2018-08-08T09:05:30Z</time>
      </trkpt>
      <trkpt lat="47.90101" lon="-2.80489">
        <ele>141.86</ele>
        <time>2018-08-08T09:05:42Z</time>
      </trkpt>
      <trkpt lat="47.90109" lon="-2.80428">
        <ele>142.9</ele>
        <time>2018-08-08T09:05:54Z</time>
      </trkpt>
      <trkpt lat="47.90119" lon="-2.80361">
        <ele>144.16</ele>
        <time>2018-08-08T09:06:07Z</time>
      </trkpt>
      <trkpt lat="47.90128" lon="-2.80288">
        <ele>144.98</ele>
        <time>2018-08-08T09:06:21Z</time>
      </trkpt>
      <trkpt lat="47.90151" lon="-2.80154">
        <ele>145.35</ele>
        <time>2018-08-08T09:06:33Z</time>
      </trkpt>
      <trkpt lat="47.90124" lon="-2.80135">
        <ele>144.29</ele>
        <time>2018-08-08T09:06:45Z</time>
      </trkpt>
      <trkpt lat="47.90098" lon="-2.8011">
        <ele>143.9</ele>
        <time>2018-08-08T09:07:02Z</time>
      </trkpt>
      <trkpt lat="47.90073" lon="-2.80089">
        <ele>143.5</ele>
        <time>2018-08-08T09:07:18Z</time>
      </trkpt>
      <trkpt lat="47.90051" lon="-2.80071">
        <ele>142.8</ele>
        <time>2018-08-08T09:07:34Z</time>
      </trkpt>
      <trkpt lat="47.90047" lon="-2.80068">
        <ele>142.64</ele>
        <time>2018-08-08T09:07:37Z</time>
      </trkpt>
      <trkpt lat="47.90046" lon="-2.80067">
        <ele>142.62</ele>
        <time>2018-08-08T09:07:38Z</time>
      </trkpt>
      <trkpt lat="47.9003" lon="-2.80055">
        <ele>142.39</ele>
        <time>2018-08-08T09:07:51Z</time>
      </trkpt>
      <trkpt lat="47.9002" lon="-2.80042">
        <ele>142.13</ele>
        <time>2018-08-08T09:07:59Z</time>
      </trkpt>
      <trkpt lat="47.9002" lon="-2.8004">
        <ele>142.12</ele>
        <time>2018-08-08T09:08:00Z</time>
      </trkpt>
      <trkpt lat="47.9002" lon="-2.80038">
        <ele>142.12</ele>
        <time>2018-08-08T09:08:01Z</time>
      </trkpt>
      <trkpt lat="47.9002" lon="-2.80036">
        <ele>142.14</ele>
        <time>2018-08-08T09:08:02Z</time>
      </trkpt>
      <trkpt lat="47.90019" lon="-2.80034">
        <ele>142.16</ele>
        <time>2018-08-08T09:08:03Z</time>
      </trkpt>
      <trkpt lat="47.90019" lon="-2.80032">
        <ele>142.16</ele>
        <time>2018-08-08T09:08:04Z</time>
      </trkpt>
      <trkpt lat="47.9" lon="-2.80011">
        <ele>142.15</ele>
        <time>2018-08-08T09:08:19Z</time>
      </trkpt>
      <trkpt lat="47.89974" lon="-2.79998">
        <ele>141.39</ele>
        <time>2018-08-08T09:08:35Z</time>
      </trkpt>
      <trkpt lat="47.8997" lon="-2.79991">
        <ele>141.05</ele>
        <time>2018-08-08T09:08:44Z</time>
      </trkpt>
      <trkpt lat="47.89964" lon="-2.79988">
        <ele>140.89</ele>
        <time>2018-08-08T09:08:48Z</time>
      </trkpt>
      <trkpt lat="47.89944" lon="-2.79977">
        <ele>140.17</ele>
        <time>2018-08-08T09:09:05Z</time>
      </trkpt>
      <trkpt lat="47.89929" lon="-2.7998">
        <ele>140.11</ele>
        <time>2018-08-08T09:09:17Z</time>
      </trkpt>
      <trkpt lat="47.89923" lon="-2.79975">
        <ele>140.04</ele>
        <time>2018-08-08T09:09:22Z</time>
      </trkpt>
      <trkpt lat="47.89908" lon="-2.79969">
        <ele>140.26</ele>
        <time>2018-08-08T09:09:35Z</time>
      </trkpt>
      <trkpt lat="47.89883" lon="-2.79971">
        <ele>140.33</ele>
        <time>2018-08-08T09:09:55Z</time>
      </trkpt>
      <trkpt lat="47.89875" lon="-2.7997">
        <ele>140.38</ele>
        <time>2018-08-08T09:10:04Z</time>
      </trkpt>
      <trkpt lat="47.89872" lon="-2.79968">
        <ele>140.41</ele>
        <time>2018-08-08T09:10:06Z</time>
      </trkpt>
      <trkpt lat="47.89866" lon="-2.79942">
        <ele>140.84</ele>
        <time>2018-08-08T09:10:19Z</time>
      </trkpt>
      <trkpt lat="47.89866" lon="-2.79939">
        <ele>140.85</ele>
        <time>2018-08-08T09:10:20Z</time>
      </trkpt>
      <trkpt lat="47.89866" lon="-2.79915">
        <ele>140.99</ele>
        <time>2018-08-08T09:10:29Z</time>
      </trkpt>
      <trkpt lat="47.89866" lon="-2.79911">
        <ele>140.94</ele>
        <time>2018-08-08T09:10:30Z</time>
      </trkpt>
      <trkpt lat="47.89865" lon="-2.79907">
        <ele>140.86</ele>
        <time>2018-08-08T09:10:31Z</time>
      </trkpt>
      <trkpt lat="47.89849" lon="-2.79847">
        <ele>141.35</ele>
        <time>2018-08-08T09:10:43Z</time>
      </trkpt>
      <trkpt lat="47.89831" lon="-2.79793">
        <ele>142.42</ele>
        <time>2018-08-08T09:10:53Z</time>
      </trkpt>
      <trkpt lat="47.89823" lon="-2.79757">
        <ele>142.92</ele>
        <time>2018-08-08T09:10:58Z</time>
      </trkpt>
      <trkpt lat="47.89818" lon="-2.79742">
        <ele>143.17</ele>
        <time>2018-08-08T09:11:00Z</time>
      </trkpt>
      <trkpt lat="47.89817" lon="-2.79733">
        <ele>143.29</ele>
        <time>2018-08-08T09:11:01Z</time>
      </trkpt>
      <trkpt lat="47.89807" lon="-2.79697">
        <ele>143.65</ele>
        <time>2018-08-08T09:11:05Z</time>
      </trkpt>
      <trkpt lat="47.89796" lon="-2.79666">
        <ele>130.08984375</ele>
      </trkpt>
      <trkpt lat="47.89785" lon="-2.79589">
        <ele>131.2109375</ele>
      </trkpt>
      <trkpt lat="47.89781" lon="-2.79434">
        <ele>132.41015625</ele>
      </trkpt>
      <trkpt lat="47.89728" lon="-2.79416">
        <ele>133.91015625</ele>
      </trkpt>
      <trkpt lat="47.89673" lon="-2.79395">
        <ele>135.8828125</ele>
      </trkpt>
      <trkpt lat="47.89604" lon="-2.79373">
        <ele>136.2265625</ele>
      </trkpt>
      <trkpt lat="47.8954" lon="-2.79351">
        <ele>136.15625</ele>
      </trkpt>
      <trkpt lat="47.89532" lon="-2.79331">
        <ele>136.10546875</ele>
      </trkpt>
      <trkpt lat="47.89554" lon="-2.79302">
        <ele>136.25</ele>
      </trkpt>
      <trkpt lat="47.89589" lon="-2.79188">
        <ele>135.58203125</ele>
      </trkpt>
      <trkpt lat="47.89628" lon="-2.79171">
        <ele>135.9609375</ele>
      </trkpt>
      <trkpt lat="47.89698" lon="-2.79176">
        <ele>135.8828125</ele>
      </trkpt>
      <trkpt lat="47.89779" lon="-2.79192">
        <ele>133.94140625</ele>
      </trkpt>
      <trkpt lat="47.89835" lon="-2.79218">
        <ele>131.8828125</ele>
      </trkpt>
      <trkpt lat="47.89853" lon="-2.79215">
        <ele>131.27734375</ele>
      </trkpt>
      <trkpt lat="47.89891" lon="-2.79189">
        <ele>130.65625</ele>
      </trkpt>
      <trkpt lat="47.89885" lon="-2.79168">
        <ele>146.44</ele>
        <time>2018-08-08T09:16:15Z</time>
      </trkpt>
      <trkpt lat="47.89876" lon="-2.79127">
        <ele>147.14</ele>
        <time>2018-08-08T09:16:32Z</time>
      </trkpt>
      <trkpt lat="47.89869" lon="-2.79086">
        <ele>147.52</ele>
        <time>2018-08-08T09:16:49Z</time>
      </trkpt>
      <trkpt lat="47.89869" lon="-2.79084">
        <ele>147.54</ele>
        <time>2018-08-08T09:16:50Z</time>
      </trkpt>
      <trkpt lat="47.89869" lon="-2.79082">
        <ele>147.58</ele>
        <time>2018-08-08T09:16:51Z</time>
      </trkpt>
      <trkpt lat="47.8986" lon="-2.79047">
        <ele>148.5</ele>
        <time>2018-08-08T09:17:07Z</time>
      </trkpt>
      <trkpt lat="47.89853" lon="-2.7901">
        <ele>149.28</ele>
        <time>2018-08-08T09:17:23Z</time>
      </trkpt>
      <trkpt lat="47.89842" lon="-2.78955">
        <ele>149.92</ele>
        <time>2018-08-08T09:17:47Z</time>
      </trkpt>
      <trkpt lat="47.89842" lon="-2.78954">
        <ele>149.91</ele>
        <time>2018-08-08T09:17:48Z</time>
      </trkpt>
      <trkpt lat="47.89841" lon="-2.78952">
        <ele>149.89</ele>
        <time>2018-08-08T09:17:49Z</time>
      </trkpt>
      <trkpt lat="47.89835" lon="-2.78928">
        <ele>150</ele>
        <time>2018-08-08T09:18:03Z</time>
      </trkpt>
      <trkpt lat="47.89835" lon="-2.78927">
        <ele>150.01</ele>
        <time>2018-08-08T09:18:04Z</time>
      </trkpt>
      <trkpt lat="47.89835" lon="-2.78924">
        <ele>150.04</ele>
        <time>2018-08-08T09:18:05Z</time>
      </trkpt>
      <trkpt lat="47.89832" lon="-2.78898">
        <ele>150.05</ele>
        <time>2018-08-08T09:18:17Z</time>
      </trkpt>
      <trkpt lat="47.89832" lon="-2.78897">
        <ele>150.05</ele>
        <time>2018-08-08T09:18:18Z</time>
      </trkpt>
      <trkpt lat="47.89832" lon="-2.78895">
        <ele>150.05</ele>
        <time>2018-08-08T09:18:19Z</time>
      </trkpt>
      <trkpt lat="47.89828" lon="-2.78864">
        <ele>149.92</ele>
        <time>2018-08-08T09:18:36Z</time>
      </trkpt>
      <trkpt lat="47.89694" lon="-2.78191">
        <ele>126.4765625</ele>
      </trkpt>
      <trkpt lat="47.89709" lon="-2.78191">
        <ele>126.34375</ele>
      </trkpt>
      <trkpt lat="47.89814" lon="-2.78232">
        <ele>124.47265625</ele>
      </trkpt>
      <trkpt lat="47.89924" lon="-2.78312">
        <ele>120.34765625</ele>
      </trkpt>
      <trkpt lat="47.89931" lon="-2.78315">
        <ele>134</ele>
        <time>2018-08-08T09:23:17Z</time>
      </trkpt>
      <trkpt lat="47.89932" lon="-2.78315">
        <ele>133.97</ele>
        <time>2018-08-08T09:23:18Z</time>
      </trkpt>
      <trkpt lat="47.89933" lon="-2.78316">
        <ele>133.95</ele>
        <time>2018-08-08T09:23:19Z</time>
      </trkpt>
      <trkpt lat="47.89934" lon="-2.78317">
        <ele>133.9</ele>
        <time>2018-08-08T09:23:20Z</time>
      </trkpt>
      <trkpt lat="47.89936" lon="-2.78318">
        <ele>133.9</ele>
        <time>2018-08-08T09:23:21Z</time>
      </trkpt>
      <trkpt lat="47.89948" lon="-2.7834">
        <ele>132.94</ele>
        <time>2018-08-08T09:23:38Z</time>
      </trkpt>
      <trkpt lat="47.89957" lon="-2.78349">
        <ele>132.75</ele>
        <time>2018-08-08T09:23:46Z</time>
      </trkpt>
      <trkpt lat="47.89959" lon="-2.78351">
        <ele>132.74</ele>
        <time>2018-08-08T09:23:47Z</time>
      </trkpt>
      <trkpt lat="47.8996" lon="-2.78353">
        <ele>132.69</ele>
        <time>2018-08-08T09:23:48Z</time>
      </trkpt>
      <trkpt lat="47.89961" lon="-2.78355">
        <ele>132.66</ele>
        <time>2018-08-08T09:23:49Z</time>
      </trkpt>
      <trkpt lat="47.89987" lon="-2.78378">
        <ele>132.7</ele>
        <time>2018-08-08T09:24:08Z</time>
      </trkpt>
      <trkpt lat="47.90001" lon="-2.78388">
        <ele>132.94</ele>
        <time>2018-08-08T09:24:16Z</time>
      </trkpt>
      <trkpt lat="47.90003" lon="-2.7839">
        <ele>132.98</ele>
        <time>2018-08-08T09:24:17Z</time>
      </trkpt>
      <trkpt lat="47.90029" lon="-2.78417">
        <ele>133.35</ele>
        <time>2018-08-08T09:24:36Z</time>
      </trkpt>
      <trkpt lat="47.90045" lon="-2.78428">
        <ele>133.5</ele>
        <time>2018-08-08T09:24:49Z</time>
      </trkpt>
      <trkpt lat="47.90053" lon="-2.78425">
        <ele>133.4</ele>
        <time>2018-08-08T09:24:56Z</time>
      </trkpt>
      <trkpt lat="47.90058" lon="-2.78418">
        <ele>133.55</ele>
        <time>2018-08-08T09:25:04Z</time>
      </trkpt>
      <trkpt lat="47.90069" lon="-2.78393">
        <ele>132.97</ele>
        <time>2018-08-08T09:25:17Z</time>
      </trkpt>
      <trkpt lat="47.90073" lon="-2.78363">
        <ele>131.8</ele>
        <time>2018-08-08T09:25:33Z</time>
      </trkpt>
      <trkpt lat="47.90074" lon="-2.78356">
        <ele>131.66</ele>
        <time>2018-08-08T09:25:36Z</time>
      </trkpt>
      <trkpt lat="47.90073" lon="-2.78342">
        <ele>131.46</ele>
        <time>2018-08-08T09:25:40Z</time>
      </trkpt>
      <trkpt lat="47.90076" lon="-2.78315">
        <ele>130.8</ele>
        <time>2018-08-08T09:25:53Z</time>
      </trkpt>
      <trkpt lat="47.90078" lon="-2.78284">
        <ele>129.93</ele>
        <time>2018-08-08T09:26:07Z</time>
      </trkpt>
      <trkpt lat="47.90081" lon="-2.78235">
        <ele>129.09</ele>
        <time>2018-08-08T09:26:23Z</time>
      </trkpt>
      <trkpt lat="47.90105" lon="-2.78219">
        <ele>128.62</ele>
        <time>2018-08-08T09:26:44Z</time>
      </trkpt>
      <trkpt lat="47.90134" lon="-2.78205">
        <ele>127.61</ele>
        <time>2018-08-08T09:27:05Z</time>
      </trkpt>
      <trkpt lat="47.90165" lon="-2.78193">
        <ele>126.86</ele>
        <time>2018-08-08T09:27:27Z</time>
      </trkpt>
      <trkpt lat="47.90175" lon="-2.78193">
        <ele>126.9</ele>
        <time>2018-08-08T09:27:33Z</time>
      </trkpt>
      <trkpt lat="47.90194" lon="-2.78188">
        <ele>127.57</ele>
        <time>2018-08-08T09:27:47Z</time>
      </trkpt>
      <trkpt lat="47.90221" lon="-2.78177">
        <ele>129.11</ele>
        <time>2018-08-08T09:28:00Z</time>
      </trkpt>
      <trkpt lat="47.90246" lon="-2.78162">
        <ele>130.73</ele>
        <time>2018-08-08T09:28:14Z</time>
      </trkpt>
      <trkpt lat="47.90267" lon="-2.7815">
        <ele>131.69</ele>
        <time>2018-08-08T09:28:28Z</time>
      </trkpt>
      <trkpt lat="47.90288" lon="-2.7814">
        <ele>132.86</ele>
        <time>2018-08-08T09:28:44Z</time>
      </trkpt>
      <trkpt lat="47.90309" lon="-2.78138">
        <ele>133.88</ele>
        <time>2018-08-08T09:28:57Z</time>
      </trkpt>
      <trkpt lat="47.90327" lon="-2.78134">
        <ele>134.55</ele>
        <time>2018-08-08T09:29:08Z</time>
      </trkpt>
      <trkpt lat="47.90338" lon="-2.78133">
        <ele>134.89</ele>
        <time>2018-08-08T09:29:17Z</time>
      </trkpt>
      <trkpt lat="47.90359" lon="-2.7814">
        <ele>135.43</ele>
        <time>2018-08-08T09:29:35Z</time>
      </trkpt>
      <trkpt lat="47.90366" lon="-2.78141">
        <ele>135.49</ele>
        <time>2018-08-08T09:29:39Z</time>
      </trkpt>
      <trkpt lat="47.90374" lon="-2.78142">
        <ele>135.56</ele>
        <time>2018-08-08T09:29:43Z</time>
      </trkpt>
      <trkpt lat="47.9038" lon="-2.78143">
        <ele>135.63</ele>
        <time>2018-08-08T09:29:47Z</time>
      </trkpt>
      <trkpt lat="47.90405" lon="-2.78146">
        <ele>136.24</ele>
        <time>2018-08-08T09:30:05Z</time>
      </trkpt>
      <trkpt lat="47.90426" lon="-2.7813">
        <ele>136.56</ele>
        <time>2018-08-08T09:30:21Z</time>
      </trkpt>
      <trkpt lat="47.90449" lon="-2.78123">
        <ele>137.05</ele>
        <time>2018-08-08T09:30:37Z</time>
      </trkpt>
      <trkpt lat="47.90479" lon="-2.78112">
        <ele>137.4</ele>
        <time>2018-08-08T09:30:57Z</time>
      </trkpt>
      <trkpt lat="47.90492" lon="-2.7811">
        <ele>122.3984375</ele>
      </trkpt>
      <trkpt lat="47.9051" lon="-2.7788">
        <ele>119.57421875</ele>
      </trkpt>
      <trkpt lat="47.9051" lon="-2.77863">
        <ele>133.99</ele>
        <time>2018-08-08T09:32:59Z</time>
      </trkpt>
      <trkpt lat="47.90517" lon="-2.77823">
        <ele>132.95</ele>
        <time>2018-08-08T09:33:13Z</time>
      </trkpt>
      <trkpt lat="47.90519" lon="-2.7781">
        <ele>132.39</ele>
        <time>2018-08-08T09:33:19Z</time>
      </trkpt>
      <trkpt lat="47.9052" lon="-2.77801">
        <ele>132.21</ele>
        <time>2018-08-08T09:33:22Z</time>
      </trkpt>
      <trkpt lat="47.90521" lon="-2.77778">
        <ele>131.61</ele>
        <time>2018-08-08T09:33:31Z</time>
      </trkpt>
      <trkpt lat="47.90524" lon="-2.77743">
        <ele>130.38</ele>
        <time>2018-08-08T09:33:46Z</time>
      </trkpt>
      <trkpt lat="47.90526" lon="-2.77712">
        <ele>129.55</ele>
        <time>2018-08-08T09:33:59Z</time>
      </trkpt>
      <trkpt lat="47.9053" lon="-2.77675">
        <ele>128.45</ele>
        <time>2018-08-08T09:34:14Z</time>
      </trkpt>
      <trkpt lat="47.90531" lon="-2.77669">
        <ele>128.31</ele>
        <time>2018-08-08T09:34:17Z</time>
      </trkpt>
      <trkpt lat="47.90533" lon="-2.77635">
        <ele>127.08</ele>
        <time>2018-08-08T09:34:31Z</time>
      </trkpt>
      <trkpt lat="47.90522" lon="-2.77619">
        <ele>126.03</ele>
        <time>2018-08-08T09:34:42Z</time>
      </trkpt>
      <trkpt lat="47.90503" lon="-2.7761">
        <ele>125.26</ele>
        <time>2018-08-08T09:34:56Z</time>
      </trkpt>
      <trkpt lat="47.90494" lon="-2.77607">
        <ele>124.87</ele>
        <time>2018-08-08T09:35:03Z</time>
      </trkpt>
      <trkpt lat="47.90485" lon="-2.77601">
        <ele>124.7</ele>
        <time>2018-08-08T09:35:09Z</time>
      </trkpt>
      <trkpt lat="47.90459" lon="-2.7759">
        <ele>123.81</ele>
        <time>2018-08-08T09:35:26Z</time>
      </trkpt>
      <trkpt lat="47.90454" lon="-2.77591">
        <ele>123.53</ele>
        <time>2018-08-08T09:35:30Z</time>
      </trkpt>
      <trkpt lat="47.90445" lon="-2.77591">
        <ele>123.21</ele>
        <time>2018-08-08T09:35:37Z</time>
      </trkpt>
      <trkpt lat="47.90433" lon="-2.7757">
        <ele>121.3</ele>
        <time>2018-08-08T09:35:50Z</time>
      </trkpt>
      <trkpt lat="47.9042" lon="-2.77542">
        <ele>119.5</ele>
        <time>2018-08-08T09:36:05Z</time>
      </trkpt>
      <trkpt lat="47.90407" lon="-2.77516">
        <ele>117.91</ele>
        <time>2018-08-08T09:36:20Z</time>
      </trkpt>
      <trkpt lat="47.90395" lon="-2.77496">
        <ele>116.87</ele>
        <time>2018-08-08T09:36:34Z</time>
      </trkpt>
      <trkpt lat="47.90385" lon="-2.77477">
        <ele>116.66</ele>
        <time>2018-08-08T09:36:50Z</time>
      </trkpt>
      <trkpt lat="47.90385" lon="-2.77469">
        <ele>116.64</ele>
        <time>2018-08-08T09:37:14Z</time>
      </trkpt>
      <trkpt lat="47.90382" lon="-2.77463">
        <ele>116.49</ele>
        <time>2018-08-08T09:37:40Z</time>
      </trkpt>
      <trkpt lat="47.90376" lon="-2.77455">
        <ele>116.36</ele>
        <time>2018-08-08T09:37:50Z</time>
      </trkpt>
      <trkpt lat="47.90364" lon="-2.77436">
        <ele>116.32</ele>
        <time>2018-08-08T09:38:04Z</time>
      </trkpt>
      <trkpt lat="47.90352" lon="-2.77409">
        <ele>117.33</ele>
        <time>2018-08-08T09:38:16Z</time>
      </trkpt>
      <trkpt lat="47.90342" lon="-2.77373">
        <ele>119.52</ele>
        <time>2018-08-08T09:38:26Z</time>
      </trkpt>
      <trkpt lat="47.90341" lon="-2.77369">
        <ele>119.75</ele>
        <time>2018-08-08T09:38:27Z</time>
      </trkpt>
      <trkpt lat="47.9034" lon="-2.77365">
        <ele>119.97</ele>
        <time>2018-08-08T09:38:28Z</time>
      </trkpt>
      <trkpt lat="47.90339" lon="-2.7736">
        <ele>120.16</ele>
        <time>2018-08-08T09:38:29Z</time>
      </trkpt>
      <trkpt lat="47.90338" lon="-2.77355">
        <ele>120.3</ele>
        <time>2018-08-08T09:38:30Z</time>
      </trkpt>
      <trkpt lat="47.90337" lon="-2.77352">
        <ele>120.44</ele>
        <time>2018-08-08T09:38:31Z</time>
      </trkpt>
      <trkpt lat="47.90337" lon="-2.77348">
        <ele>120.58</ele>
        <time>2018-08-08T09:38:32Z</time>
      </trkpt>
      <trkpt lat="47.90337" lon="-2.77344">
        <ele>120.7</ele>
        <time>2018-08-08T09:38:33Z</time>
      </trkpt>
      <trkpt lat="47.90336" lon="-2.77341">
        <ele>120.8</ele>
        <time>2018-08-08T09:38:34Z</time>
      </trkpt>
      <trkpt lat="47.90336" lon="-2.77337">
        <ele>120.91</ele>
        <time>2018-08-08T09:38:35Z</time>
      </trkpt>
      <trkpt lat="47.90335" lon="-2.77333">
        <ele>121.14</ele>
        <time>2018-08-08T09:38:36Z</time>
      </trkpt>
      <trkpt lat="47.90327" lon="-2.77288">
        <ele>122.02</ele>
        <time>2018-08-08T09:38:47Z</time>
      </trkpt>
      <trkpt lat="47.90302" lon="-2.77184">
        <ele>107.43359375</ele>
      </trkpt>
      <trkpt lat="47.90221" lon="-2.77087">
        <ele>108.20703125</ele>
      </trkpt>
      <trkpt lat="47.90199" lon="-2.77034">
        <ele>106.796875</ele>
      </trkpt>
      <trkpt lat="47.90177" lon="-2.7697">
        <ele>104.8203125</ele>
      </trkpt>
      <trkpt lat="47.90143" lon="-2.76895">
        <ele>103.2421875</ele>
      </trkpt>
      <trkpt lat="47.90144" lon="-2.76833">
        <ele>99.9765625</ele>
      </trkpt>
      <trkpt lat="47.90148" lon="-2.7674">
        <ele>96.78125</ele>
      </trkpt>
      <trkpt lat="47.90147" lon="-2.76688">
        <ele>95.1328125</ele>
      </trkpt>
      <trkpt lat="47.90145" lon="-2.76652">
        <ele>94.46875</ele>
      </trkpt>
      <trkpt lat="47.90149" lon="-2.76633">
        <ele>93.984375</ele>
      </trkpt>
      <trkpt lat="47.9019" lon="-2.76582">
        <ele>91.6171875</ele>
      </trkpt>
      <trkpt lat="47.90199" lon="-2.76547">
        <ele>90.90625</ele>
      </trkpt>
      <trkpt lat="47.90204" lon="-2.76483">
        <ele>90.80078125</ele>
      </trkpt>
      <trkpt lat="47.90214" lon="-2.76463">
        <ele>91.8671875</ele>
      </trkpt>
      <trkpt lat="47.90226" lon="-2.76493">
        <ele>91.41015625</ele>
      </trkpt>
      <trkpt lat="47.90248" lon="-2.76485">
        <ele>110.01</ele>
        <time>2018-08-08T09:44:43Z</time>
      </trkpt>
      <trkpt lat="47.90269" lon="-2.76473">
        <ele>112.38</ele>
        <time>2018-08-08T09:45:00Z</time>
      </trkpt>
      <trkpt lat="47.90294" lon="-2.76473">
        <ele>112.7</ele>
        <time>2018-08-08T09:45:16Z</time>
      </trkpt>
      <trkpt lat="47.90323" lon="-2.76468">
        <ele>113.26</ele>
        <time>2018-08-08T09:45:34Z</time>
      </trkpt>
      <trkpt lat="47.90352" lon="-2.76463">
        <ele>115.83</ele>
        <time>2018-08-08T09:45:55Z</time>
      </trkpt>
      <trkpt lat="47.90369" lon="-2.76473">
        <ele>116.86</ele>
        <time>2018-08-08T09:46:09Z</time>
      </trkpt>
      <trkpt lat="47.90391" lon="-2.76493">
        <ele>117.32</ele>
        <time>2018-08-08T09:46:24Z</time>
      </trkpt>
      <trkpt lat="47.90411" lon="-2.76512">
        <ele>117.59</ele>
        <time>2018-08-08T09:46:39Z</time>
      </trkpt>
      <trkpt lat="47.90429" lon="-2.76528">
        <ele>117.61</ele>
        <time>2018-08-08T09:46:53Z</time>
      </trkpt>
      <trkpt lat="47.90435" lon="-2.76531">
        <ele>117.76</ele>
        <time>2018-08-08T09:46:58Z</time>
      </trkpt>
      <trkpt lat="47.90457" lon="-2.76552">
        <ele>118.05</ele>
        <time>2018-08-08T09:47:12Z</time>
      </trkpt>
      <trkpt lat="47.9046" lon="-2.7652">
        <ele>102.59765625</ele>
      </trkpt>
      <trkpt lat="47.90456" lon="-2.76499">
        <ele>104.2109375</ele>
      </trkpt>
      <trkpt lat="47.90447" lon="-2.76461">
        <ele>106.1171875</ele>
      </trkpt>
      <trkpt lat="47.9045" lon="-2.7643">
        <ele>108.02734375</ele>
      </trkpt>
      <trkpt lat="47.90456" lon="-2.76404">
        <ele>109.3515625</ele>
      </trkpt>
      <trkpt lat="47.90466" lon="-2.76398">
        <ele>110.3046875</ele>
      </trkpt>
      <trkpt lat="47.90486" lon="-2.76392">
        <ele>111.92578125</ele>
      </trkpt>
      <trkpt lat="47.90507" lon="-2.7639">
        <ele>113.515625</ele>
      </trkpt>
      <trkpt lat="47.90527" lon="-2.7638">
        <ele>115.30078125</ele>
      </trkpt>
      <trkpt lat="47.90543" lon="-2.76342">
        <ele>117.5625</ele>
      </trkpt>
      <trkpt lat="47.90565" lon="-2.76319">
        <ele>119.3671875</ele>
      </trkpt>
      <trkpt lat="47.90571" lon="-2.76297">
        <ele>120.06640625</ele>
      </trkpt>
      <trkpt lat="47.90582" lon="-2.76278">
        <ele>121.0390625</ele>
      </trkpt>
      <trkpt lat="47.90581" lon="-2.76253">
        <ele>121.0234375</ele>
      </trkpt>
      <trkpt lat="47.90578" lon="-2.76236">
        <ele>120.76953125</ele>
      </trkpt>
      <trkpt lat="47.90578" lon="-2.76226">
        <ele>120.7578125</ele>
      </trkpt>
      <trkpt lat="47.90579" lon="-2.76209">
        <ele>121.05078125</ele>
      </trkpt>
      <trkpt lat="47.90599" lon="-2.7618">
        <ele>123.015625</ele>
      </trkpt>
      <trkpt lat="47.90622" lon="-2.76168">
        <ele>124.875</ele>
      </trkpt>
      <trkpt lat="47.90653" lon="-2.76153">
        <ele>128.23046875</ele>
      </trkpt>
      <trkpt lat="47.9069" lon="-2.7614">
        <ele>132.125</ele>
      </trkpt>
      <trkpt lat="47.90725" lon="-2.75968">
        <ele>141.22265625</ele>
      </trkpt>
      <trkpt lat="47.9073" lon="-2.75817">
        <ele>145.4453125</ele>
      </trkpt>
      <trkpt lat="47.90725" lon="-2.75727">
        <ele>159.53</ele>
        <time>2018-08-08T09:51:39Z</time>
      </trkpt>
      <trkpt lat="47.90724" lon="-2.75677">
        <ele>159.1</ele>
        <time>2018-08-08T09:52:00Z</time>
      </trkpt>
      <trkpt lat="47.90722" lon="-2.75639">
        <ele>158.87</ele>
        <time>2018-08-08T09:52:16Z</time>
      </trkpt>
      <trkpt lat="47.90725" lon="-2.75595">
        <ele>158.83</ele>
        <time>2018-08-08T09:52:34Z</time>
      </trkpt>
      <trkpt lat="47.90725" lon="-2.75577">
        <ele>158.92</ele>
        <time>2018-08-08T09:52:43Z</time>
      </trkpt>
      <trkpt lat="47.90707" lon="-2.75555">
        <ele>144.26953125</ele>
      </trkpt>
      <trkpt lat="47.90687" lon="-2.75545">
        <ele>143.90234375</ele>
      </trkpt>
      <trkpt lat="47.90658" lon="-2.75535">
        <ele>142.7109375</ele>
      </trkpt>
      <trkpt lat="47.90644" lon="-2.75534">
        <ele>142.109375</ele>
      </trkpt>
      <trkpt lat="47.90639" lon="-2.75541">
        <ele>141.6171875</ele>
      </trkpt>
      <trkpt lat="47.90624" lon="-2.75545">
        <ele>140.640625</ele>
      </trkpt>
      <trkpt lat="47.90602" lon="-2.75559">
        <ele>139.140625</ele>
      </trkpt>
      <trkpt lat="47.90587" lon="-2.75563">
        <ele>138.32421875</ele>
      </trkpt>
      <trkpt lat="47.90567" lon="-2.75564">
        <ele>137.06640625</ele>
      </trkpt>
      <trkpt lat="47.90553" lon="-2.75567">
        <ele>136.1796875</ele>
      </trkpt>
      <trkpt lat="47.90539" lon="-2.75564">
        <ele>135.19921875</ele>
      </trkpt>
      <trkpt lat="47.90527" lon="-2.75554">
        <ele>134.1171875</ele>
      </trkpt>
      <trkpt lat="47.90488" lon="-2.75509">
        <ele>129.95703125</ele>
      </trkpt>
      <trkpt lat="47.90481" lon="-2.75492">
        <ele>128.875</ele>
      </trkpt>
      <trkpt lat="47.90481" lon="-2.75477">
        <ele>128.4921875</ele>
      </trkpt>
      <trkpt lat="47.90595" lon="-2.75261">
        <ele>146.48046875</ele>
      </trkpt>
      <trkpt lat="47.90632" lon="-2.75169">
        <ele>149.8671875</ele>
      </trkpt>
      <trkpt lat="47.9065" lon="-2.75128">
        <ele>150.91796875</ele>
      </trkpt>
      <trkpt lat="47.90654" lon="-2.75113">
        <ele>151.27734375</ele>
      </trkpt>
      <trkpt lat="47.90652" lon="-2.75101">
        <ele>151.15234375</ele>
      </trkpt>
      <trkpt lat="47.90639" lon="-2.75092">
        <ele>150.71484375</ele>
      </trkpt>
      <trkpt lat="47.90622" lon="-2.75092">
        <ele>150.0625</ele>
      </trkpt>
      <trkpt lat="47.90587" lon="-2.75088">
        <ele>162.01</ele>
        <time>2018-08-08T09:57:40Z</time>
      </trkpt>
      <trkpt lat="47.90573" lon="-2.75087">
        <ele>161.25</ele>
        <time>2018-08-08T09:57:48Z</time>
      </trkpt>
      <trkpt lat="47.90572" lon="-2.75086">
        <ele>161.09</ele>
        <time>2018-08-08T09:57:49Z</time>
      </trkpt>
      <trkpt lat="47.90556" lon="-2.75084">
        <ele>159.81</ele>
        <time>2018-08-08T09:58:02Z</time>
      </trkpt>
      <trkpt lat="47.90553" lon="-2.75081">
        <ele>159.61</ele>
        <time>2018-08-08T09:58:04Z</time>
      </trkpt>
      <trkpt lat="47.90552" lon="-2.75079">
        <ele>159.49</ele>
        <time>2018-08-08T09:58:05Z</time>
      </trkpt>
      <trkpt lat="47.90551" lon="-2.75077">
        <ele>159.36</ele>
        <time>2018-08-08T09:58:06Z</time>
      </trkpt>
      <trkpt lat="47.90549" lon="-2.75076">
        <ele>159.2</ele>
        <time>2018-08-08T09:58:07Z</time>
      </trkpt>
      <trkpt lat="47.90547" lon="-2.75075">
        <ele>159.04</ele>
        <time>2018-08-08T09:58:08Z</time>
      </trkpt>
      <trkpt lat="47.90544" lon="-2.7507">
        <ele>158.56</ele>
        <time>2018-08-08T09:58:11Z</time>
      </trkpt>
      <trkpt lat="47.90544" lon="-2.75068">
        <ele>158.41</ele>
        <time>2018-08-08T09:58:12Z</time>
      </trkpt>
      <trkpt lat="47.90544" lon="-2.75066">
        <ele>158.21</ele>
        <time>2018-08-08T09:58:13Z</time>
      </trkpt>
      <trkpt lat="47.90542" lon="-2.75056">
        <ele>157.9</ele>
        <time>2018-08-08T09:58:17Z</time>
      </trkpt>
      <trkpt lat="47.90542" lon="-2.75053">
        <ele>157.85</ele>
        <time>2018-08-08T09:58:18Z</time>
      </trkpt>
      <trkpt lat="47.90544" lon="-2.75007">
        <ele>156.89</ele>
        <time>2018-08-08T09:58:30Z</time>
      </trkpt>
      <trkpt lat="47.9055" lon="-2.74947">
        <ele>156.13</ele>
        <time>2018-08-08T09:58:41Z</time>
      </trkpt>
      <trkpt lat="47.90555" lon="-2.74886">
        <ele>155.14</ele>
        <time>2018-08-08T09:58:52Z</time>
      </trkpt>
      <trkpt lat="47.90557" lon="-2.74877">
        <ele>155.01</ele>
        <time>2018-08-08T09:58:54Z</time>
      </trkpt>
      <trkpt lat="47.90571" lon="-2.74847">
        <ele>155.34</ele>
        <time>2018-08-08T09:59:00Z</time>
      </trkpt>
      <trkpt lat="47.90579" lon="-2.74835">
        <ele>156.1</ele>
        <time>2018-08-08T09:59:03Z</time>
      </trkpt>
      <trkpt lat="47.90596" lon="-2.74826">
        <ele>157.36</ele>
        <time>2018-08-08T09:59:07Z</time>
      </trkpt>
      <trkpt lat="47.90625" lon="-2.74827">
        <ele>161.39</ele>
        <time>2018-08-08T09:59:16Z</time>
      </trkpt>
      <trkpt lat="47.90637" lon="-2.74825">
        <ele>163.06</ele>
        <time>2018-08-08T09:59:21Z</time>
      </trkpt>
      <trkpt lat="47.90645" lon="-2.74828">
        <ele>164.41</ele>
        <time>2018-08-08T09:59:26Z</time>
      </trkpt>
      <trkpt lat="47.90667" lon="-2.74818">
        <ele>167.18</ele>
        <time>2018-08-08T09:59:38Z</time>
      </trkpt>
      <trkpt lat="47.90678" lon="-2.74814">
        <ele>168.33</ele>
        <time>2018-08-08T09:59:47Z</time>
      </trkpt>
      <trkpt lat="47.90698" lon="-2.74801">
        <ele>168.49</ele>
        <time>2018-08-08T09:59:57Z</time>
      </trkpt>
      <trkpt lat="47.90703" lon="-2.74773">
        <ele>168.14</ele>
        <time>2018-08-08T10:00:05Z</time>
      </trkpt>
      <trkpt lat="47.90707" lon="-2.7476">
        <ele>167.97</ele>
        <time>2018-08-08T10:00:09Z</time>
      </trkpt>
      <trkpt lat="47.90714" lon="-2.74724">
        <ele>167.84</ele>
        <time>2018-08-08T10:00:20Z</time>
      </trkpt>
      <trkpt lat="47.90714" lon="-2.74713">
        <ele>167.81</ele>
        <time>2018-08-08T10:00:23Z</time>
      </trkpt>
      <trkpt lat="47.9072" lon="-2.74676">
        <ele>167</ele>
        <time>2018-08-08T10:00:34Z</time>
      </trkpt>
      <trkpt lat="47.90717" lon="-2.74638">
        <ele>165.75</ele>
        <time>2018-08-08T10:00:44Z</time>
      </trkpt>
      <trkpt lat="47.90714" lon="-2.74624">
        <ele>165.33</ele>
        <time>2018-08-08T10:00:48Z</time>
      </trkpt>
      <trkpt lat="47.90713" lon="-2.74617">
        <ele>165</ele>
        <time>2018-08-08T10:00:50Z</time>
      </trkpt>
      <trkpt lat="47.9071" lon="-2.74605">
        <ele>164.36</ele>
        <time>2018-08-08T10:00:53Z</time>
      </trkpt>
      <trkpt lat="47.90697" lon="-2.74587">
        <ele>163.14</ele>
        <time>2018-08-08T10:01:00Z</time>
      </trkpt>
      <trkpt lat="47.90659" lon="-2.74577">
        <ele>161.97</ele>
        <time>2018-08-08T10:01:12Z</time>
      </trkpt>
      <trkpt lat="47.90646" lon="-2.74575">
        <ele>161.41</ele>
        <time>2018-08-08T10:01:20Z</time>
      </trkpt>
      <trkpt lat="47.90641" lon="-2.74574">
        <ele>161.03</ele>
        <time>2018-08-08T10:01:24Z</time>
      </trkpt>
      <trkpt lat="47.90634" lon="-2.74564">
        <ele>160.74</ele>
        <time>2018-08-08T10:01:29Z</time>
      </trkpt>
      <trkpt lat="47.90621" lon="-2.74546">
        <ele>159.17</ele>
        <time>2018-08-08T10:01:39Z</time>
      </trkpt>
      <trkpt lat="47.90621" lon="-2.74534">
        <ele>158.42</ele>
        <time>2018-08-08T10:01:44Z</time>
      </trkpt>
      <trkpt lat="47.90624" lon="-2.74489">
        <ele>155.73</ele>
        <time>2018-08-08T10:01:55Z</time>
      </trkpt>
      <trkpt lat="47.90625" lon="-2.74472">
        <ele>154.93</ele>
        <time>2018-08-08T10:01:59Z</time>
      </trkpt>
      <trkpt lat="47.90628" lon="-2.74444">
        <ele>153.69</ele>
        <time>2018-08-08T10:02:05Z</time>
      </trkpt>
      <trkpt lat="47.90638" lon="-2.74404">
        <ele>152.45</ele>
        <time>2018-08-08T10:02:15Z</time>
      </trkpt>
      <trkpt lat="47.90641" lon="-2.74391">
        <ele>152.4</ele>
        <time>2018-08-08T10:02:19Z</time>
      </trkpt>
      <trkpt lat="47.90654" lon="-2.7433">
        <ele>150.76</ele>
        <time>2018-08-08T10:02:33Z</time>
      </trkpt>
      <trkpt lat="47.90678" lon="-2.74289">
        <ele>150.03</ele>
        <time>2018-08-08T10:02:45Z</time>
      </trkpt>
      <trkpt lat="47.90702" lon="-2.7424">
        <ele>148.11</ele>
        <time>2018-08-08T10:02:57Z</time>
      </trkpt>
      <trkpt lat="47.90709" lon="-2.74227">
        <ele>147.69</ele>
        <time>2018-08-08T10:03:00Z</time>
      </trkpt>
      <trkpt lat="47.90727" lon="-2.74222">
        <ele>147.13</ele>
        <time>2018-08-08T10:03:09Z</time>
      </trkpt>
      <trkpt lat="47.90735" lon="-2.74236">
        <ele>146.99</ele>
        <time>2018-08-08T10:03:15Z</time>
      </trkpt>
      <trkpt lat="47.9075" lon="-2.74262">
        <ele>147.98</ele>
        <time>2018-08-08T10:03:26Z</time>
      </trkpt>
      <trkpt lat="47.90769" lon="-2.74291">
        <ele>148.35</ele>
        <time>2018-08-08T10:03:43Z</time>
      </trkpt>
      <trkpt lat="47.90794" lon="-2.74313">
        <ele>149.09</ele>
        <time>2018-08-08T10:03:57Z</time>
      </trkpt>
      <trkpt lat="47.90817" lon="-2.74316">
        <ele>149.62</ele>
        <time>2018-08-08T10:04:10Z</time>
      </trkpt>
      <trkpt lat="47.90859" lon="-2.74311">
        <ele>150.4</ele>
        <time>2018-08-08T10:04:22Z</time>
      </trkpt>
      <trkpt lat="47.90989" lon="-2.7425">
        <ele>153.9</ele>
        <time>2018-08-08T10:05:52Z</time>
      </trkpt>
      <trkpt lat="47.91018" lon="-2.74244">
        <ele>154.07</ele>
        <time>2018-08-08T10:06:10Z</time>
      </trkpt>
      <trkpt lat="47.91048" lon="-2.7423">
        <ele>153.62</ele>
        <time>2018-08-08T10:06:29Z</time>
      </trkpt>
      <trkpt lat="47.91075" lon="-2.74217">
        <ele>153.22</ele>
        <time>2018-08-08T10:06:47Z</time>
      </trkpt>
      <trkpt lat="47.91094" lon="-2.74202">
        <ele>152.98</ele>
        <time>2018-08-08T10:07:02Z</time>
      </trkpt>
      <trkpt lat="47.91098" lon="-2.74174">
        <ele>151.63</ele>
        <time>2018-08-08T10:07:18Z</time>
      </trkpt>
      <trkpt lat="47.911" lon="-2.74159">
        <ele>151.14</ele>
        <time>2018-08-08T10:07:25Z</time>
      </trkpt>
      <trkpt lat="47.91101" lon="-2.74145">
        <ele>150.43</ele>
        <time>2018-08-08T10:07:31Z</time>
      </trkpt>
      <trkpt lat="47.91103" lon="-2.74111">
        <ele>149.4</ele>
        <time>2018-08-08T10:07:46Z</time>
      </trkpt>
      <trkpt lat="47.91106" lon="-2.74072">
        <ele>148.28</ele>
        <time>2018-08-08T10:08:01Z</time>
      </trkpt>
      <trkpt lat="47.91106" lon="-2.74039">
        <ele>147.02</ele>
        <time>2018-08-08T10:08:15Z</time>
      </trkpt>
      <trkpt lat="47.91109" lon="-2.74004">
        <ele>145.53</ele>
        <time>2018-08-08T10:08:29Z</time>
      </trkpt>
      <trkpt lat="47.91111" lon="-2.73959">
        <ele>143.91</ele>
        <time>2018-08-08T10:08:46Z</time>
      </trkpt>
      <trkpt lat="47.91116" lon="-2.73917">
        <ele>141.84</ele>
        <time>2018-08-08T10:09:03Z</time>
      </trkpt>
      <trkpt lat="47.91123" lon="-2.73877">
        <ele>140</ele>
        <time>2018-08-08T10:09:20Z</time>
      </trkpt>
      <trkpt lat="47.91131" lon="-2.73837">
        <ele>138.57</ele>
        <time>2018-08-08T10:09:36Z</time>
      </trkpt>
      <trkpt lat="47.91137" lon="-2.73796">
        <ele>136.78</ele>
        <time>2018-08-08T10:09:53Z</time>
      </trkpt>
      <trkpt lat="47.91144" lon="-2.73757">
        <ele>135.3</ele>
        <time>2018-08-08T10:10:09Z</time>
      </trkpt>
      <trkpt lat="47.91152" lon="-2.73722">
        <ele>134.14</ele>
        <time>2018-08-08T10:10:24Z</time>
      </trkpt>
      <trkpt lat="47.91157" lon="-2.73687">
        <ele>132.96</ele>
        <time>2018-08-08T10:10:38Z</time>
      </trkpt>
      <trkpt lat="47.91159" lon="-2.73646">
        <ele>131.08</ele>
        <time>2018-08-08T10:10:55Z</time>
      </trkpt>
      <trkpt lat="47.91157" lon="-2.7361">
        <ele>129.74</ele>
        <time>2018-08-08T10:11:11Z</time>
      </trkpt>
      <trkpt lat="47.91154" lon="-2.73558">
        <ele>127.79</ele>
        <time>2018-08-08T10:11:30Z</time>
      </trkpt>
      <trkpt lat="47.91156" lon="-2.73516">
        <ele>126.49</ele>
        <time>2018-08-08T10:11:47Z</time>
      </trkpt>
      <trkpt lat="47.91169" lon="-2.73476">
        <ele>125.59</ele>
        <time>2018-08-08T10:12:04Z</time>
      </trkpt>
      <trkpt lat="47.91183" lon="-2.73441">
        <ele>125.01</ele>
        <time>2018-08-08T10:12:21Z</time>
      </trkpt>
      <trkpt lat="47.91192" lon="-2.73416">
        <ele>125.05</ele>
        <time>2018-08-08T10:12:33Z</time>
      </trkpt>
      <trkpt lat="47.91195" lon="-2.7341">
        <ele>125.08</ele>
        <time>2018-08-08T10:12:36Z</time>
      </trkpt>
      <trkpt lat="47.91198" lon="-2.73396">
        <ele>125.14</ele>
        <time>2018-08-08T10:12:42Z</time>
      </trkpt>
      <trkpt lat="47.91196" lon="-2.73357">
        <ele>125.25</ele>
        <time>2018-08-08T10:12:56Z</time>
      </trkpt>
      <trkpt lat="47.91193" lon="-2.73317">
        <ele>127.04</ele>
        <time>2018-08-08T10:13:12Z</time>
      </trkpt>
      <trkpt lat="47.9119" lon="-2.7328">
        <ele>128.9</ele>
        <time>2018-08-08T10:13:27Z</time>
      </trkpt>
      <trkpt lat="47.91184" lon="-2.73233">
        <ele>130.64</ele>
        <time>2018-08-08T10:13:46Z</time>
      </trkpt>
      <trkpt lat="47.91183" lon="-2.73189">
        <ele>132.78</ele>
        <time>2018-08-08T10:14:05Z</time>
      </trkpt>
      <trkpt lat="47.91184" lon="-2.73157">
        <ele>133.8</ele>
        <time>2018-08-08T10:14:19Z</time>
      </trkpt>
      <trkpt lat="47.91189" lon="-2.73116">
        <ele>135.22</ele>
        <time>2018-08-08T10:14:37Z</time>
      </trkpt>
      <trkpt lat="47.91191" lon="-2.73081">
        <ele>135.92</ele>
        <time>2018-08-08T10:14:53Z</time>
      </trkpt>
      <trkpt lat="47.91192" lon="-2.73049">
        <ele>136.06</ele>
        <time>2018-08-08T10:15:07Z</time>
      </trkpt>
      <trkpt lat="47.91195" lon="-2.73013">
        <ele>135.47</ele>
        <time>2018-08-08T10:15:23Z</time>
      </trkpt>
      <trkpt lat="47.91195" lon="-2.73006">
        <ele>135.16</ele>
        <time>2018-08-08T10:15:28Z</time>
      </trkpt>
      <trkpt lat="47.91195" lon="-2.72979">
        <ele>134.16</ele>
        <time>2018-08-08T10:15:40Z</time>
      </trkpt>
      <trkpt lat="47.91194" lon="-2.72958">
        <ele>133.53</ele>
        <time>2018-08-08T10:15:48Z</time>
      </trkpt>
      <trkpt lat="47.91193" lon="-2.72921">
        <ele>132.24</ele>
        <time>2018-08-08T10:16:03Z</time>
      </trkpt>
      <trkpt lat="47.91186" lon="-2.72882">
        <ele>131.11</ele>
        <time>2018-08-08T10:16:21Z</time>
      </trkpt>
      <trkpt lat="47.91176" lon="-2.72851">
        <ele>130.02</ele>
        <time>2018-08-08T10:16:36Z</time>
      </trkpt>
      <trkpt lat="47.91166" lon="-2.72827">
        <ele>129.23</ele>
        <time>2018-08-08T10:16:48Z</time>
      </trkpt>
      <trkpt lat="47.91156" lon="-2.72796">
        <ele>127.99</ele>
        <time>2018-08-08T10:17:03Z</time>
      </trkpt>
      <trkpt lat="47.91147" lon="-2.72769">
        <ele>126.52</ele>
        <time>2018-08-08T10:17:17Z</time>
      </trkpt>
      <trkpt lat="47.91135" lon="-2.72734">
        <ele>124.51</ele>
        <time>2018-08-08T10:17:34Z</time>
      </trkpt>
      <trkpt lat="47.91121" lon="-2.72702">
        <ele>122.95</ele>
        <time>2018-08-08T10:17:49Z</time>
      </trkpt>
      <trkpt lat="47.91109" lon="-2.72665">
        <ele>120.77</ele>
        <time>2018-08-08T10:18:06Z</time>
      </trkpt>
      <trkpt lat="47.91095" lon="-2.72627">
        <ele>105.3125</ele>
      </trkpt>
      <trkpt lat="47.91083" lon="-2.72615">
        <ele>104.25</ele>
      </trkpt>
      <trkpt lat="47.91047" lon="-2.72596">
        <ele>103.109375</ele>
      </trkpt>
      <trkpt lat="47.91037" lon="-2.72533">
        <ele>102.21484375</ele>
      </trkpt>
      <trkpt lat="47.91043" lon="-2.72504">
        <ele>102.31640625</ele>
      </trkpt>
      <trkpt lat="47.91057" lon="-2.7249">
        <ele>116.82</ele>
        <time>2018-08-08T10:20:12Z</time>
      </trkpt>
      <trkpt lat="47.9108" lon="-2.72476">
        <ele>116.76</ele>
        <time>2018-08-08T10:20:27Z</time>
      </trkpt>
      <trkpt lat="47.91089" lon="-2.7245">
        <ele>117.01</ele>
        <time>2018-08-08T10:20:41Z</time>
      </trkpt>
      <trkpt lat="47.91088" lon="-2.72436">
        <ele>117.32</ele>
        <time>2018-08-08T10:20:47Z</time>
      </trkpt>
      <trkpt lat="47.91094" lon="-2.72414">
        <ele>117.91</ele>
        <time>2018-08-08T10:20:57Z</time>
      </trkpt>
      <trkpt lat="47.91094" lon="-2.72397">
        <ele>118.43</ele>
        <time>2018-08-08T10:21:04Z</time>
      </trkpt>
      <trkpt lat="47.91098" lon="-2.72366">
        <ele>119.16</ele>
        <time>2018-08-08T10:21:20Z</time>
      </trkpt>
      <trkpt lat="47.91098" lon="-2.72356">
        <ele>119.19</ele>
        <time>2018-08-08T10:21:26Z</time>
      </trkpt>
      <trkpt lat="47.91076" lon="-2.72339">
        <ele>119.8</ele>
        <time>2018-08-08T10:21:42Z</time>
      </trkpt>
      <trkpt lat="47.91075" lon="-2.72339">
        <ele>119.82</ele>
        <time>2018-08-08T10:21:43Z</time>
      </trkpt>
      <trkpt lat="47.9107" lon="-2.72335">
        <ele>119.85</ele>
        <time>2018-08-08T10:21:47Z</time>
      </trkpt>
      <trkpt lat="47.91052" lon="-2.72328">
        <ele>120.41</ele>
        <time>2018-08-08T10:22:04Z</time>
      </trkpt>
      <trkpt lat="47.91048" lon="-2.72326">
        <ele>120.58</ele>
        <time>2018-08-08T10:22:16Z</time>
      </trkpt>
      <trkpt lat="47.91044" lon="-2.72317">
        <ele>121.06</ele>
        <time>2018-08-08T10:22:30Z</time>
      </trkpt>
      <trkpt lat="47.91034" lon="-2.72311">
        <ele>121.28</ele>
        <time>2018-08-08T10:22:50Z</time>
      </trkpt>
      <trkpt lat="47.91017" lon="-2.72294">
        <ele>119.28</ele>
        <time>2018-08-08T11:03:18Z</time>
      </trkpt>
      <trkpt lat="47.91017" lon="-2.72332">
        <ele>118.58</ele>
        <time>2018-08-08T11:03:32Z</time>
      </trkpt>
      <trkpt lat="47.91018" lon="-2.72352">
        <ele>117.85</ele>
        <time>2018-08-08T11:03:47Z</time>
      </trkpt>
      <trkpt lat="47.91017" lon="-2.72354">
        <ele>117.57</ele>
        <time>2018-08-08T11:04:05Z</time>
      </trkpt>
      <trkpt lat="47.91019" lon="-2.72355">
        <ele>118.01</ele>
        <time>2018-08-08T11:04:31Z</time>
      </trkpt>
      <trkpt lat="47.91017" lon="-2.72359">
        <ele>117.89</ele>
        <time>2018-08-08T11:04:38Z</time>
      </trkpt>
      <trkpt lat="47.91017" lon="-2.72371">
        <ele>117.75</ele>
        <time>2018-08-08T11:04:45Z</time>
      </trkpt>
      <trkpt lat="47.91019" lon="-2.72399">
        <ele>116.77</ele>
        <time>2018-08-08T11:05:00Z</time>
      </trkpt>
      <trkpt lat="47.9102" lon="-2.72402">
        <ele>116.69</ele>
        <time>2018-08-08T11:05:02Z</time>
      </trkpt>
      <trkpt lat="47.91023" lon="-2.72433">
        <ele>115.37</ele>
        <time>2018-08-08T11:05:19Z</time>
      </trkpt>
      <trkpt lat="47.91024" lon="-2.7244">
        <ele>115.18</ele>
        <time>2018-08-08T11:05:22Z</time>
      </trkpt>
      <trkpt lat="47.91026" lon="-2.72459">
        <ele>114.4</ele>
        <time>2018-08-08T11:05:34Z</time>
      </trkpt>
      <trkpt lat="47.91034" lon="-2.72485">
        <ele>113.42</ele>
        <time>2018-08-08T11:05:49Z</time>
      </trkpt>
      <trkpt lat="47.91037" lon="-2.72501">
        <ele>113.21</ele>
        <time>2018-08-08T11:05:57Z</time>
      </trkpt>
      <trkpt lat="47.91035" lon="-2.72516">
        <ele>113.29</ele>
        <time>2018-08-08T11:06:06Z</time>
      </trkpt>
      <trkpt lat="47.91028" lon="-2.72532">
        <ele>113.05</ele>
        <time>2018-08-08T11:06:16Z</time>
      </trkpt>
      <trkpt lat="47.9101" lon="-2.72544">
        <ele>112.4</ele>
        <time>2018-08-08T11:06:30Z</time>
      </trkpt>
      <trkpt lat="47.90998" lon="-2.72555">
        <ele>112.05</ele>
        <time>2018-08-08T11:06:41Z</time>
      </trkpt>
      <trkpt lat="47.90985" lon="-2.72556">
        <ele>112.3</ele>
        <time>2018-08-08T11:06:55Z</time>
      </trkpt>
      <trkpt lat="47.90968" lon="-2.72569">
        <ele>111.95</ele>
        <time>2018-08-08T11:07:10Z</time>
      </trkpt>
      <trkpt lat="47.90963" lon="-2.72571">
        <ele>111.95</ele>
        <time>2018-08-08T11:07:15Z</time>
      </trkpt>
      <trkpt lat="47.90946" lon="-2.72575">
        <ele>111.66</ele>
        <time>2018-08-08T11:07:30Z</time>
      </trkpt>
      <trkpt lat="47.90934" lon="-2.72577">
        <ele>111.6</ele>
        <time>2018-08-08T11:07:50Z</time>
      </trkpt>
      <trkpt lat="47.90932" lon="-2.7258">
        <ele>111.97</ele>
        <time>2018-08-08T11:08:11Z</time>
      </trkpt>
      <trkpt lat="47.90929" lon="-2.72579">
        <ele>111.93</ele>
        <time>2018-08-08T11:08:31Z</time>
      </trkpt>
      <trkpt lat="47.90926" lon="-2.72583">
        <ele>111.93</ele>
        <time>2018-08-08T11:08:50Z</time>
      </trkpt>
      <trkpt lat="47.90925" lon="-2.72586">
        <ele>111.94</ele>
        <time>2018-08-08T11:08:52Z</time>
      </trkpt>
      <trkpt lat="47.90916" lon="-2.72595">
        <ele>111.74</ele>
        <time>2018-08-08T11:08:59Z</time>
      </trkpt>
      <trkpt lat="47.90899" lon="-2.72601">
        <ele>111.53</ele>
        <time>2018-08-08T11:09:12Z</time>
      </trkpt>
      <trkpt lat="47.90884" lon="-2.72599">
        <ele>111.33</ele>
        <time>2018-08-08T11:09:24Z</time>
      </trkpt>
      <trkpt lat="47.9087" lon="-2.72606">
        <ele>111.09</ele>
        <time>2018-08-08T11:09:38Z</time>
      </trkpt>
      <trkpt lat="47.90861" lon="-2.72619">
        <ele>111.03</ele>
        <time>2018-08-08T11:09:45Z</time>
      </trkpt>
      <trkpt lat="47.90847" lon="-2.72641">
        <ele>111.45</ele>
        <time>2018-08-08T11:09:59Z</time>
      </trkpt>
      <trkpt lat="47.90825" lon="-2.72671">
        <ele>111.29</ele>
        <time>2018-08-08T11:10:14Z</time>
      </trkpt>
      <trkpt lat="47.90806" lon="-2.72687">
        <ele>111.21</ele>
        <time>2018-08-08T11:10:27Z</time>
      </trkpt>
      <trkpt lat="47.90791" lon="-2.727">
        <ele>111.24</ele>
        <time>2018-08-08T11:10:40Z</time>
      </trkpt>
      <trkpt lat="47.90772" lon="-2.72717">
        <ele>110.53</ele>
        <time>2018-08-08T11:10:54Z</time>
      </trkpt>
      <trkpt lat="47.90754" lon="-2.72722">
        <ele>110.17</ele>
        <time>2018-08-08T11:11:06Z</time>
      </trkpt>
      <trkpt lat="47.9075" lon="-2.72711">
        <ele>111.08</ele>
        <time>2018-08-08T11:11:14Z</time>
      </trkpt>
      <trkpt lat="47.90748" lon="-2.72709">
        <ele>111.4</ele>
        <time>2018-08-08T11:11:16Z</time>
      </trkpt>
      <trkpt lat="47.90746" lon="-2.72699">
        <ele>112.03</ele>
        <time>2018-08-08T11:11:22Z</time>
      </trkpt>
      <trkpt lat="47.90742" lon="-2.72688">
        <ele>112.98</ele>
        <time>2018-08-08T11:11:28Z</time>
      </trkpt>
      <trkpt lat="47.90738" lon="-2.72671">
        <ele>114.62</ele>
        <time>2018-08-08T11:11:38Z</time>
      </trkpt>
      <trkpt lat="47.90737" lon="-2.72665">
        <ele>115.63</ele>
        <time>2018-08-08T11:11:42Z</time>
      </trkpt>
      <trkpt lat="47.90732" lon="-2.72641">
        <ele>117.34</ele>
        <time>2018-08-08T11:11:53Z</time>
      </trkpt>
      <trkpt lat="47.90726" lon="-2.72611">
        <ele>119.83</ele>
        <time>2018-08-08T11:12:07Z</time>
      </trkpt>
      <trkpt lat="47.90718" lon="-2.72572">
        <ele>121.54</ele>
        <time>2018-08-08T11:12:24Z</time>
      </trkpt>
      <trkpt lat="47.90714" lon="-2.72568">
        <ele>121.6</ele>
        <time>2018-08-08T11:12:26Z</time>
      </trkpt>
      <trkpt lat="47.90712" lon="-2.72568">
        <ele>121.63</ele>
        <time>2018-08-08T11:12:27Z</time>
      </trkpt>
      <trkpt lat="47.90711" lon="-2.72567">
        <ele>121.66</ele>
        <time>2018-08-08T11:12:28Z</time>
      </trkpt>
      <trkpt lat="47.90709" lon="-2.72567">
        <ele>121.7</ele>
        <time>2018-08-08T11:12:29Z</time>
      </trkpt>
      <trkpt lat="47.90707" lon="-2.72568">
        <ele>121.77</ele>
        <time>2018-08-08T11:12:30Z</time>
      </trkpt>
      <trkpt lat="47.90682" lon="-2.7258">
        <ele>122.85</ele>
        <time>2018-08-08T11:12:45Z</time>
      </trkpt>
      <trkpt lat="47.90659" lon="-2.72599">
        <ele>123.27</ele>
        <time>2018-08-08T11:13:01Z</time>
      </trkpt>
      <trkpt lat="47.9064" lon="-2.72617">
        <ele>123.76</ele>
        <time>2018-08-08T11:13:15Z</time>
      </trkpt>
      <trkpt lat="47.9062" lon="-2.72633">
        <ele>123.39</ele>
        <time>2018-08-08T11:13:30Z</time>
      </trkpt>
      <trkpt lat="47.90595" lon="-2.72645">
        <ele>123.4</ele>
        <time>2018-08-08T11:13:47Z</time>
      </trkpt>
      <trkpt lat="47.90564" lon="-2.7266">
        <ele>123.41</ele>
        <time>2018-08-08T11:14:03Z</time>
      </trkpt>
      <trkpt lat="47.90547" lon="-2.72649">
        <ele>124.43</ele>
        <time>2018-08-08T11:14:18Z</time>
      </trkpt>
      <trkpt lat="47.90507" lon="-2.72634">
        <ele>112.4765625</ele>
      </trkpt>
      <trkpt lat="47.90501" lon="-2.72605">
        <ele>114.11328125</ele>
      </trkpt>
      <trkpt lat="47.90496" lon="-2.72579">
        <ele>115.24609375</ele>
      </trkpt>
      <trkpt lat="47.9048" lon="-2.72542">
        <ele>116.94140625</ele>
      </trkpt>
      <trkpt lat="47.90398" lon="-2.72511">
        <ele>119.0625</ele>
      </trkpt>
      <trkpt lat="47.90365" lon="-2.72507">
        <ele>130.61</ele>
        <time>2018-08-08T11:15:37Z</time>
      </trkpt>
      <trkpt lat="47.90292" lon="-2.72539">
        <ele>131.04</ele>
        <time>2018-08-08T11:15:51Z</time>
      </trkpt>
      <trkpt lat="47.90227" lon="-2.72569">
        <ele>131.22</ele>
        <time>2018-08-08T11:16:04Z</time>
      </trkpt>
      <trkpt lat="47.90176" lon="-2.72599">
        <ele>131.6</ele>
        <time>2018-08-08T11:16:14Z</time>
      </trkpt>
      <trkpt lat="47.90117" lon="-2.72622">
        <ele>131.2</ele>
        <time>2018-08-08T11:16:25Z</time>
      </trkpt>
      <trkpt lat="47.90053" lon="-2.72626">
        <ele>131.38</ele>
        <time>2018-08-08T11:16:36Z</time>
      </trkpt>
      <trkpt lat="47.90023" lon="-2.72614">
        <ele>131.44</ele>
        <time>2018-08-08T11:16:42Z</time>
      </trkpt>
      <trkpt lat="47.90018" lon="-2.72611">
        <ele>131.4</ele>
        <time>2018-08-08T11:16:43Z</time>
      </trkpt>
      <trkpt lat="47.90013" lon="-2.72608">
        <ele>131.36</ele>
        <time>2018-08-08T11:16:44Z</time>
      </trkpt>
      <trkpt lat="47.90008" lon="-2.72604">
        <ele>131.33</ele>
        <time>2018-08-08T11:16:45Z</time>
      </trkpt>
      <trkpt lat="47.90004" lon="-2.726">
        <ele>131.3</ele>
        <time>2018-08-08T11:16:46Z</time>
      </trkpt>
      <trkpt lat="47.89955" lon="-2.72553">
        <ele>130.71</ele>
        <time>2018-08-08T11:16:58Z</time>
      </trkpt>
      <trkpt lat="47.89906" lon="-2.72504">
        <ele>129.11</ele>
        <time>2018-08-08T11:17:12Z</time>
      </trkpt>
      <trkpt lat="47.89869" lon="-2.72465">
        <ele>126.11</ele>
        <time>2018-08-08T11:17:24Z</time>
      </trkpt>
      <trkpt lat="47.89844" lon="-2.7244">
        <ele>123.3</ele>
        <time>2018-08-08T11:17:35Z</time>
      </trkpt>
      <trkpt lat="47.89821" lon="-2.72446">
        <ele>121.06</ele>
        <time>2018-08-08T11:17:45Z</time>
      </trkpt>
      <trkpt lat="47.89782" lon="-2.72469">
        <ele>118.22</ele>
        <time>2018-08-08T11:17:57Z</time>
      </trkpt>
      <trkpt lat="47.89758" lon="-2.72477">
        <ele>116.5</ele>
        <time>2018-08-08T11:18:11Z</time>
      </trkpt>
      <trkpt lat="47.89735" lon="-2.72481">
        <ele>114.37</ele>
        <time>2018-08-08T11:18:25Z</time>
      </trkpt>
      <trkpt lat="47.89716" lon="-2.72484">
        <ele>112.05</ele>
        <time>2018-08-08T11:18:37Z</time>
      </trkpt>
      <trkpt lat="47.89698" lon="-2.72489">
        <ele>110.79</ele>
        <time>2018-08-08T11:18:48Z</time>
      </trkpt>
      <trkpt lat="47.89686" lon="-2.72495">
        <ele>110</ele>
        <time>2018-08-08T11:18:56Z</time>
      </trkpt>
      <trkpt lat="47.89677" lon="-2.72502">
        <ele>108.64</ele>
        <time>2018-08-08T11:19:03Z</time>
      </trkpt>
      <trkpt lat="47.89662" lon="-2.72505">
        <ele>107.42</ele>
        <time>2018-08-08T11:19:12Z</time>
      </trkpt>
      <trkpt lat="47.89654" lon="-2.72511">
        <ele>107.13</ele>
        <time>2018-08-08T11:19:17Z</time>
      </trkpt>
      <trkpt lat="47.89638" lon="-2.72522">
        <ele>105.76</ele>
        <time>2018-08-08T11:19:29Z</time>
      </trkpt>
      <trkpt lat="47.89618" lon="-2.72537">
        <ele>104.44</ele>
        <time>2018-08-08T11:19:43Z</time>
      </trkpt>
      <trkpt lat="47.89607" lon="-2.72546">
        <ele>103.4</ele>
        <time>2018-08-08T11:19:56Z</time>
      </trkpt>
      <trkpt lat="47.89605" lon="-2.72548">
        <ele>103.12</ele>
        <time>2018-08-08T11:19:59Z</time>
      </trkpt>
      <trkpt lat="47.89616" lon="-2.72538">
        <ele>104.47</ele>
        <time>2018-08-08T11:20:37Z</time>
      </trkpt>
      <trkpt lat="47.89606" lon="-2.72546">
        <ele>102.6</ele>
        <time>2018-08-08T11:21:46Z</time>
      </trkpt>
      <trkpt lat="47.89602" lon="-2.72548">
        <ele>102.39</ele>
        <time>2018-08-08T11:21:49Z</time>
      </trkpt>
      <trkpt lat="47.89587" lon="-2.72569">
        <ele>100.05</ele>
        <time>2018-08-08T11:22:07Z</time>
      </trkpt>
      <trkpt lat="47.89581" lon="-2.72588">
        <ele>100.2</ele>
        <time>2018-08-08T11:22:19Z</time>
      </trkpt>
      <trkpt lat="47.8957" lon="-2.72613">
        <ele>100.05</ele>
        <time>2018-08-08T11:22:40Z</time>
      </trkpt>
      <trkpt lat="47.89552" lon="-2.72646">
        <ele>99.25</ele>
        <time>2018-08-08T11:22:59Z</time>
      </trkpt>
      <trkpt lat="47.89537" lon="-2.72668">
        <ele>98.5</ele>
        <time>2018-08-08T11:23:20Z</time>
      </trkpt>
      <trkpt lat="47.89523" lon="-2.72704">
        <ele>99.28</ele>
        <time>2018-08-08T11:23:39Z</time>
      </trkpt>
      <trkpt lat="47.89502" lon="-2.72738">
        <ele>100.24</ele>
        <time>2018-08-08T11:24:02Z</time>
      </trkpt>
      <trkpt lat="47.89486" lon="-2.72766">
        <ele>99.84</ele>
        <time>2018-08-08T11:24:21Z</time>
      </trkpt>
      <trkpt lat="47.89464" lon="-2.72802">
        <ele>100.49</ele>
        <time>2018-08-08T11:24:44Z</time>
      </trkpt>
      <trkpt lat="47.89447" lon="-2.72838">
        <ele>99.81</ele>
        <time>2018-08-08T11:25:05Z</time>
      </trkpt>
      <trkpt lat="47.89426" lon="-2.72865">
        <ele>98.42</ele>
        <time>2018-08-08T11:25:22Z</time>
      </trkpt>
      <trkpt lat="47.89404" lon="-2.72902">
        <ele>97.18</ele>
        <time>2018-08-08T11:25:44Z</time>
      </trkpt>
      <trkpt lat="47.89402" lon="-2.72905">
        <ele>97.25</ele>
        <time>2018-08-08T11:25:46Z</time>
      </trkpt>
      <trkpt lat="47.89389" lon="-2.72923">
        <ele>96.66</ele>
        <time>2018-08-08T11:26:00Z</time>
      </trkpt>
      <trkpt lat="47.89375" lon="-2.72949">
        <ele>96.66</ele>
        <time>2018-08-08T11:26:05Z</time>
      </trkpt>
      <trkpt lat="47.89361" lon="-2.7298">
        <ele>96.74</ele>
        <time>2018-08-08T11:26:14Z</time>
      </trkpt>
      <trkpt lat="47.89357" lon="-2.72999">
        <ele>96.93</ele>
        <time>2018-08-08T11:26:24Z</time>
      </trkpt>
      <trkpt lat="47.89357" lon="-2.73004">
        <ele>96.92</ele>
        <time>2018-08-08T11:26:26Z</time>
      </trkpt>
      <trkpt lat="47.89359" lon="-2.73013">
        <ele>96.86</ele>
        <time>2018-08-08T11:26:30Z</time>
      </trkpt>
      <trkpt lat="47.8936" lon="-2.73023">
        <ele>97.01</ele>
        <time>2018-08-08T11:26:34Z</time>
      </trkpt>
      <trkpt lat="47.89364" lon="-2.7305">
        <ele>96.88</ele>
        <time>2018-08-08T11:26:48Z</time>
      </trkpt>
      <trkpt lat="47.89362" lon="-2.73076">
        <ele>97.43</ele>
        <time>2018-08-08T11:27:03Z</time>
      </trkpt>
      <trkpt lat="47.89372" lon="-2.73099">
        <ele>97.51</ele>
        <time>2018-08-08T11:27:17Z</time>
      </trkpt>
      <trkpt lat="47.89386" lon="-2.73141">
        <ele>98.59</ele>
        <time>2018-08-08T11:27:37Z</time>
      </trkpt>
      <trkpt lat="47.89389" lon="-2.73159">
        <ele>99</ele>
        <time>2018-08-08T11:27:47Z</time>
      </trkpt>
      <trkpt lat="47.89404" lon="-2.73192">
        <ele>98.34</ele>
        <time>2018-08-08T11:28:04Z</time>
      </trkpt>
      <trkpt lat="47.89405" lon="-2.73197">
        <ele>98.37</ele>
        <time>2018-08-08T11:28:06Z</time>
      </trkpt>
      <trkpt lat="47.89407" lon="-2.7321">
        <ele>98.26</ele>
        <time>2018-08-08T11:28:11Z</time>
      </trkpt>
      <trkpt lat="47.89413" lon="-2.73228">
        <ele>97.44</ele>
        <time>2018-08-08T11:28:21Z</time>
      </trkpt>
      <trkpt lat="47.89414" lon="-2.73244">
        <ele>96.04</ele>
        <time>2018-08-08T11:28:41Z</time>
      </trkpt>
      <trkpt lat="47.89415" lon="-2.73249">
        <ele>95.77</ele>
        <time>2018-08-08T11:29:08Z</time>
      </trkpt>
      <trkpt lat="47.89417" lon="-2.73255">
        <ele>95.32</ele>
        <time>2018-08-08T11:29:38Z</time>
      </trkpt>
      <trkpt lat="47.89417" lon="-2.73262">
        <ele>94.97</ele>
        <time>2018-08-08T11:29:58Z</time>
      </trkpt>
      <trkpt lat="47.89416" lon="-2.73264">
        <ele>95.6</ele>
        <time>2018-08-08T11:30:18Z</time>
      </trkpt>
      <trkpt lat="47.89417" lon="-2.73272">
        <ele>95.51</ele>
        <time>2018-08-08T11:30:28Z</time>
      </trkpt>
      <trkpt lat="47.89418" lon="-2.73285">
        <ele>95.51</ele>
        <time>2018-08-08T11:30:34Z</time>
      </trkpt>
      <trkpt lat="47.89418" lon="-2.73296">
        <ele>95.14</ele>
        <time>2018-08-08T11:30:49Z</time>
      </trkpt>
      <trkpt lat="47.89399" lon="-2.73315">
        <ele>92.94</ele>
        <time>2018-08-08T11:31:08Z</time>
      </trkpt>
      <trkpt lat="47.89395" lon="-2.73316">
        <ele>92.97</ele>
        <time>2018-08-08T11:31:12Z</time>
      </trkpt>
      <trkpt lat="47.89388" lon="-2.73322">
        <ele>92.29</ele>
        <time>2018-08-08T11:31:37Z</time>
      </trkpt>
      <trkpt lat="47.89388" lon="-2.73324">
        <ele>92.29</ele>
        <time>2018-08-08T11:31:41Z</time>
      </trkpt>
      <trkpt lat="47.89381" lon="-2.73323">
        <ele>92.81</ele>
        <time>2018-08-08T11:32:02Z</time>
      </trkpt>
      <trkpt lat="47.8938" lon="-2.73325">
        <ele>93.07</ele>
        <time>2018-08-08T11:32:23Z</time>
      </trkpt>
      <trkpt lat="47.89379" lon="-2.73332">
        <ele>93.18</ele>
        <time>2018-08-08T11:32:47Z</time>
      </trkpt>
      <trkpt lat="47.89378" lon="-2.73353">
        <ele>93.29</ele>
        <time>2018-08-08T11:33:04Z</time>
      </trkpt>
      <trkpt lat="47.89371" lon="-2.73379">
        <ele>92.92</ele>
        <time>2018-08-08T11:33:17Z</time>
      </trkpt>
      <trkpt lat="47.89366" lon="-2.73422">
        <ele>93.26</ele>
        <time>2018-08-08T11:33:36Z</time>
      </trkpt>
      <trkpt lat="47.89374" lon="-2.7346">
        <ele>92.97</ele>
        <time>2018-08-08T11:33:51Z</time>
      </trkpt>
      <trkpt lat="47.89375" lon="-2.73464">
        <ele>92.91</ele>
        <time>2018-08-08T11:33:53Z</time>
      </trkpt>
      <trkpt lat="47.89379" lon="-2.73502">
        <ele>92.68</ele>
        <time>2018-08-08T11:34:07Z</time>
      </trkpt>
      <trkpt lat="47.89378" lon="-2.73504">
        <ele>92.69</ele>
        <time>2018-08-08T11:34:08Z</time>
      </trkpt>
      <trkpt lat="47.89381" lon="-2.73545">
        <ele>93.42</ele>
        <time>2018-08-08T11:34:27Z</time>
      </trkpt>
      <trkpt lat="47.89373" lon="-2.73574">
        <ele>93.2</ele>
        <time>2018-08-08T11:34:46Z</time>
      </trkpt>
      <trkpt lat="47.89371" lon="-2.73584">
        <ele>92.98</ele>
        <time>2018-08-08T11:34:57Z</time>
      </trkpt>
      <trkpt lat="47.89366" lon="-2.73587">
        <ele>93.13</ele>
        <time>2018-08-08T11:35:02Z</time>
      </trkpt>
      <trkpt lat="47.89356" lon="-2.73585">
        <ele>93.25</ele>
        <time>2018-08-08T11:35:09Z</time>
      </trkpt>
      <trkpt lat="47.89336" lon="-2.73582">
        <ele>93.52</ele>
        <time>2018-08-08T11:35:24Z</time>
      </trkpt>
      <trkpt lat="47.8931" lon="-2.73604">
        <ele>92.91</ele>
        <time>2018-08-08T11:35:41Z</time>
      </trkpt>
      <trkpt lat="47.89288" lon="-2.73615">
        <ele>91.92</ele>
        <time>2018-08-08T11:36:00Z</time>
      </trkpt>
      <trkpt lat="47.89286" lon="-2.73615">
        <ele>91.98</ele>
        <time>2018-08-08T11:36:01Z</time>
      </trkpt>
      <trkpt lat="47.89257" lon="-2.73625">
        <ele>92.19</ele>
        <time>2018-08-08T11:36:18Z</time>
      </trkpt>
      <trkpt lat="47.89225" lon="-2.73625">
        <ele>92.39</ele>
        <time>2018-08-08T11:36:32Z</time>
      </trkpt>
      <trkpt lat="47.89191" lon="-2.73629">
        <ele>92.5</ele>
        <time>2018-08-08T11:36:44Z</time>
      </trkpt>
      <trkpt lat="47.89152" lon="-2.73638">
        <ele>91.7</ele>
        <time>2018-08-08T11:36:53Z</time>
      </trkpt>
      <trkpt lat="47.8912" lon="-2.73658">
        <ele>91.5</ele>
        <time>2018-08-08T11:36:57Z</time>
      </trkpt>
      <trkpt lat="47.89078" lon="-2.73664">
        <ele>94.22</ele>
        <time>2018-08-08T11:37:05Z</time>
      </trkpt>
      <trkpt lat="47.89046" lon="-2.73686">
        <ele>95.99</ele>
        <time>2018-08-08T11:37:15Z</time>
      </trkpt>
      <trkpt lat="47.89018" lon="-2.7372">
        <ele>95.02</ele>
        <time>2018-08-08T11:37:24Z</time>
      </trkpt>
      <trkpt lat="47.8899" lon="-2.73747">
        <ele>92.36</ele>
        <time>2018-08-08T11:37:33Z</time>
      </trkpt>
      <trkpt lat="47.8897" lon="-2.73757">
        <ele>91.88</ele>
        <time>2018-08-08T11:37:38Z</time>
      </trkpt>
      <trkpt lat="47.88942" lon="-2.73766">
        <ele>91.59</ele>
        <time>2018-08-08T11:37:45Z</time>
      </trkpt>
      <trkpt lat="47.88925" lon="-2.73785">
        <ele>83.58203125</ele>
      </trkpt>
      <trkpt lat="47.88892" lon="-2.73812">
        <ele>80.5625</ele>
      </trkpt>
      <trkpt lat="47.88855" lon="-2.73837">
        <ele>77.49609375</ele>
      </trkpt>
      <trkpt lat="47.88828" lon="-2.73856">
        <ele>93.55</ele>
        <time>2018-08-08T11:38:20Z</time>
      </trkpt>
      <trkpt lat="47.88831" lon="-2.73885">
        <ele>92.55</ele>
        <time>2018-08-08T11:38:33Z</time>
      </trkpt>
      <trkpt lat="47.88831" lon="-2.73911">
        <ele>92</ele>
        <time>2018-08-08T11:38:43Z</time>
      </trkpt>
      <trkpt lat="47.88835" lon="-2.73916">
        <ele>91.9</ele>
        <time>2018-08-08T11:38:47Z</time>
      </trkpt>
      <trkpt lat="47.88869" lon="-2.73931">
        <ele>91.15</ele>
        <time>2018-08-08T11:39:03Z</time>
      </trkpt>
      <trkpt lat="47.88814" lon="-2.73884">
        <ele>73.25390625</ele>
      </trkpt>
      <trkpt lat="47.88816" lon="-2.73869">
        <ele>74.22265625</ele>
      </trkpt>
      <trkpt lat="47.88785" lon="-2.73815">
        <ele>75.9140625</ele>
      </trkpt>
      <trkpt lat="47.88782" lon="-2.73801">
        <ele>76.203125</ele>
      </trkpt>
      <trkpt lat="47.88777" lon="-2.73763">
        <ele>77.3125</ele>
      </trkpt>
      <trkpt lat="47.88776" lon="-2.73756">
        <ele>77.59765625</ele>
      </trkpt>
      <trkpt lat="47.88722" lon="-2.73629">
        <ele>79.44140625</ele>
      </trkpt>
      <trkpt lat="47.88713" lon="-2.73617">
        <ele>79.046875</ele>
      </trkpt>
      <trkpt lat="47.8866" lon="-2.73584">
        <ele>76.9609375</ele>
      </trkpt>
      <trkpt lat="47.88651" lon="-2.73577">
        <ele>77.0234375</ele>
      </trkpt>
      <trkpt lat="47.88643" lon="-2.73565">
        <ele>77.55859375</ele>
      </trkpt>
      <trkpt lat="47.88637" lon="-2.73543">
        <ele>79.15625</ele>
      </trkpt>
      <trkpt lat="47.88638" lon="-2.73531">
        <ele>80.20703125</ele>
      </trkpt>
      <trkpt lat="47.88643" lon="-2.73513">
        <ele>82.21484375</ele>
      </trkpt>
      <trkpt lat="47.88649" lon="-2.735">
        <ele>84.00390625</ele>
      </trkpt>
      <trkpt lat="47.88657" lon="-2.7348">
        <ele>85.89453125</ele>
      </trkpt>
      <trkpt lat="47.88683" lon="-2.7344">
        <ele>89.63671875</ele>
      </trkpt>
      <trkpt lat="47.88689" lon="-2.73418">
        <ele>90.76953125</ele>
      </trkpt>
      <trkpt lat="47.88688" lon="-2.734">
        <ele>91.4140625</ele>
      </trkpt>
      <trkpt lat="47.88683" lon="-2.73385">
        <ele>91.8671875</ele>
      </trkpt>
      <trkpt lat="47.88677" lon="-2.73374">
        <ele>92.1875</ele>
      </trkpt>
      <trkpt lat="47.88664" lon="-2.73367">
        <ele>92.13671875</ele>
      </trkpt>
      <trkpt lat="47.88651" lon="-2.73363">
        <ele>91.84375</ele>
      </trkpt>
      <trkpt lat="47.88638" lon="-2.73367">
        <ele>91.1796875</ele>
      </trkpt>
      <trkpt lat="47.88624" lon="-2.73377">
        <ele>91.046875</ele>
      </trkpt>
      <trkpt lat="47.88601" lon="-2.73387">
        <ele>91.3828125</ele>
      </trkpt>
      <trkpt lat="47.88558" lon="-2.73394">
        <ele>92.20703125</ele>
      </trkpt>
      <trkpt lat="47.88541" lon="-2.73397">
        <ele>92.421875</ele>
      </trkpt>
      <trkpt lat="47.88475" lon="-2.73411">
        <ele>93.125</ele>
      </trkpt>
      <trkpt lat="47.88467" lon="-2.73417">
        <ele>93.3046875</ele>
      </trkpt>
      <trkpt lat="47.88453" lon="-2.73416">
        <ele>94.15625</ele>
      </trkpt>
      <trkpt lat="47.88445" lon="-2.7342">
        <ele>94.51953125</ele>
      </trkpt>
      <trkpt lat="47.88434" lon="-2.73416">
        <ele>95.37890625</ele>
      </trkpt>
      <trkpt lat="47.8839" lon="-2.73083">
        <ele>110.0390625</ele>
      </trkpt>
      <trkpt lat="47.88386" lon="-2.73077">
        <ele>110</ele>
      </trkpt>
      <trkpt lat="47.88508" lon="-2.72996">
        <ele>113</ele>
      </trkpt>
      <trkpt lat="47.88336" lon="-2.72597">
        <ele>105.69140625</ele>
      </trkpt>
      <trkpt lat="47.88317" lon="-2.72586">
        <ele>103.42578125</ele>
      </trkpt>
      <trkpt lat="47.88309" lon="-2.72585">
        <ele>102.44140625</ele>
      </trkpt>
      <trkpt lat="47.88296" lon="-2.7257">
        <ele>100.55859375</ele>
      </trkpt>
      <trkpt lat="47.8828" lon="-2.72548">
        <ele>97.98046875</ele>
      </trkpt>
      <trkpt lat="47.8827" lon="-2.7253">
        <ele>96.78125</ele>
      </trkpt>
      <trkpt lat="47.88222" lon="-2.726">
        <ele>94.08984375</ele>
      </trkpt>
      <trkpt lat="47.88211" lon="-2.72652">
        <ele>94.578125</ele>
      </trkpt>
      <trkpt lat="47.8821" lon="-2.72692">
        <ele>94.04296875</ele>
      </trkpt>
      <trkpt lat="47.88196" lon="-2.7276">
        <ele>93.16796875</ele>
      </trkpt>
      <trkpt lat="47.88179" lon="-2.7283">
        <ele>92.06640625</ele>
      </trkpt>
      <trkpt lat="47.8815" lon="-2.72966">
        <ele>90.4296875</ele>
      </trkpt>
      <trkpt lat="47.88148" lon="-2.73002">
        <ele>90.0859375</ele>
      </trkpt>
      <trkpt lat="47.88129" lon="-2.73094">
        <ele>88.53515625</ele>
      </trkpt>
      <trkpt lat="47.88127" lon="-2.7313">
        <ele>88.18359375</ele>
      </trkpt>
      <trkpt lat="47.88127" lon="-2.73177">
        <ele>88.18359375</ele>
      </trkpt>
      <trkpt lat="47.88126" lon="-2.73274">
        <ele>88.640625</ele>
      </trkpt>
      <trkpt lat="47.88115" lon="-2.73376">
        <ele>89.25</ele>
      </trkpt>
      <trkpt lat="47.88111" lon="-2.73507">
        <ele>92.05078125</ele>
      </trkpt>
      <trkpt lat="47.88107" lon="-2.73536">
        <ele>92.06640625</ele>
      </trkpt>
      <trkpt lat="47.88105" lon="-2.73544">
        <ele>92.3359375</ele>
      </trkpt>
      <trkpt lat="47.88087" lon="-2.73538">
        <ele>90.94921875</ele>
      </trkpt>
      <trkpt lat="47.88072" lon="-2.73523">
        <ele>88.6328125</ele>
      </trkpt>
      <trkpt lat="47.88053" lon="-2.73522">
        <ele>86.42578125</ele>
      </trkpt>
      <trkpt lat="47.88026" lon="-2.7353">
        <ele>83.96484375</ele>
      </trkpt>
      <trkpt lat="47.88013" lon="-2.73532">
        <ele>82.12890625</ele>
      </trkpt>
      <trkpt lat="47.88002" lon="-2.73524">
        <ele>80.27734375</ele>
      </trkpt>
      <trkpt lat="47.87995" lon="-2.73498">
        <ele>79.01171875</ele>
      </trkpt>
      <trkpt lat="47.87983" lon="-2.73479">
        <ele>79.421875</ele>
      </trkpt>
      <trkpt lat="47.87954" lon="-2.73532">
        <ele>76.57</ele>
        <time>2018-08-08T13:33:18Z</time>
      </trkpt>
      <trkpt lat="47.87936" lon="-2.7356">
        <ele>76.28</ele>
        <time>2018-08-08T13:33:28Z</time>
      </trkpt>
      <trkpt lat="47.87823" lon="-2.7372">
        <ele>74.42</ele>
        <time>2018-08-08T13:35:16Z</time>
      </trkpt>
      <trkpt lat="47.87813" lon="-2.73753">
        <ele>72.48</ele>
        <time>2018-08-08T13:35:26Z</time>
      </trkpt>
      <trkpt lat="47.87818" lon="-2.73874">
        <ele>69.62</ele>
        <time>2018-08-08T13:36:31Z</time>
      </trkpt>
      <trkpt lat="47.87826" lon="-2.73875">
        <ele>69.07</ele>
        <time>2018-08-08T13:36:42Z</time>
      </trkpt>
      <trkpt lat="47.87841" lon="-2.7388">
        <ele>69.03</ele>
        <time>2018-08-08T13:36:55Z</time>
      </trkpt>
      <trkpt lat="47.87847" lon="-2.73884">
        <ele>69.94</ele>
        <time>2018-08-08T13:37:04Z</time>
      </trkpt>
      <trkpt lat="47.87852" lon="-2.73917">
        <ele>70.01</ele>
        <time>2018-08-08T13:37:20Z</time>
      </trkpt>
      <trkpt lat="47.87851" lon="-2.73928">
        <ele>69.68</ele>
        <time>2018-08-08T13:37:25Z</time>
      </trkpt>
      <trkpt lat="47.8785" lon="-2.73933">
        <ele>69.38</ele>
        <time>2018-08-08T13:37:30Z</time>
      </trkpt>
      <trkpt lat="47.87853" lon="-2.73937">
        <ele>69.24</ele>
        <time>2018-08-08T13:37:32Z</time>
      </trkpt>
      <trkpt lat="47.87855" lon="-2.73951">
        <ele>69.07</ele>
        <time>2018-08-08T13:37:40Z</time>
      </trkpt>
      <trkpt lat="47.87853" lon="-2.73958">
        <ele>68.94</ele>
        <time>2018-08-08T13:37:45Z</time>
      </trkpt>
      <trkpt lat="47.87859" lon="-2.73972">
        <ele>68.84</ele>
        <time>2018-08-08T13:37:49Z</time>
      </trkpt>
      <trkpt lat="47.8787" lon="-2.73994">
        <ele>68.34</ele>
        <time>2018-08-08T13:37:56Z</time>
      </trkpt>
      <trkpt lat="47.87882" lon="-2.74023">
        <ele>67.76</ele>
        <time>2018-08-08T13:38:15Z</time>
      </trkpt>
      <trkpt lat="47.87875" lon="-2.74034">
        <ele>67.63</ele>
        <time>2018-08-08T13:38:21Z</time>
      </trkpt>
      <trkpt lat="47.8787" lon="-2.74041">
        <ele>68</ele>
        <time>2018-08-08T13:38:44Z</time>
      </trkpt>
      <trkpt lat="47.87871" lon="-2.7404">
        <ele>68.24</ele>
        <time>2018-08-08T13:39:04Z</time>
      </trkpt>
      <trkpt lat="47.87871" lon="-2.74049">
        <ele>68.85</ele>
        <time>2018-08-08T13:39:25Z</time>
      </trkpt>
      <trkpt lat="47.87868" lon="-2.74056">
        <ele>68.45</ele>
        <time>2018-08-08T13:39:43Z</time>
      </trkpt>
      <trkpt lat="47.87869" lon="-2.74062">
        <ele>68.53</ele>
        <time>2018-08-08T13:40:00Z</time>
      </trkpt>
      <trkpt lat="47.87869" lon="-2.7407">
        <ele>68.83</ele>
        <time>2018-08-08T13:40:20Z</time>
      </trkpt>
      <trkpt lat="47.8787" lon="-2.74072">
        <ele>68.87</ele>
        <time>2018-08-08T13:40:24Z</time>
      </trkpt>
      <trkpt lat="47.8787" lon="-2.74077">
        <ele>68.92</ele>
        <time>2018-08-08T13:40:27Z</time>
      </trkpt>
      <trkpt lat="47.87869" lon="-2.74101">
        <ele>68.67</ele>
        <time>2018-08-08T13:40:39Z</time>
      </trkpt>
      <trkpt lat="47.87859" lon="-2.74123">
        <ele>68.84</ele>
        <time>2018-08-08T13:40:52Z</time>
      </trkpt>
      <trkpt lat="47.87854" lon="-2.74134">
        <ele>68.8</ele>
        <time>2018-08-08T13:40:58Z</time>
      </trkpt>
      <trkpt lat="47.87842" lon="-2.74164">
        <ele>68.72</ele>
        <time>2018-08-08T13:41:12Z</time>
      </trkpt>
      <trkpt lat="47.87838" lon="-2.74208">
        <ele>68.68</ele>
        <time>2018-08-08T13:41:26Z</time>
      </trkpt>
      <trkpt lat="47.87839" lon="-2.74248">
        <ele>68.54</ele>
        <time>2018-08-08T13:41:41Z</time>
      </trkpt>
      <trkpt lat="47.87822" lon="-2.7425">
        <ele>69.28</ele>
        <time>2018-08-08T13:41:54Z</time>
      </trkpt>
      <trkpt lat="47.878" lon="-2.74251">
        <ele>70.98</ele>
        <time>2018-08-08T13:42:11Z</time>
      </trkpt>
      <trkpt lat="47.87776" lon="-2.74254">
        <ele>73.62</ele>
        <time>2018-08-08T13:42:31Z</time>
      </trkpt>
      <trkpt lat="47.87744" lon="-2.74254">
        <ele>73.74</ele>
        <time>2018-08-08T13:42:49Z</time>
      </trkpt>
      <trkpt lat="47.87715" lon="-2.7426">
        <ele>73.16</ele>
        <time>2018-08-08T13:43:01Z</time>
      </trkpt>
      <trkpt lat="47.87682" lon="-2.74254">
        <ele>71.49</ele>
        <time>2018-08-08T13:43:20Z</time>
      </trkpt>
      <trkpt lat="47.87653" lon="-2.74226">
        <ele>70.69</ele>
        <time>2018-08-08T13:43:42Z</time>
      </trkpt>
      <trkpt lat="47.87629" lon="-2.74203">
        <ele>69.85</ele>
        <time>2018-08-08T13:43:59Z</time>
      </trkpt>
      <trkpt lat="47.87603" lon="-2.74182">
        <ele>69.13</ele>
        <time>2018-08-08T13:44:17Z</time>
      </trkpt>
      <trkpt lat="47.87589" lon="-2.74157">
        <ele>68.65</ele>
        <time>2018-08-08T13:44:33Z</time>
      </trkpt>
      <trkpt lat="47.87587" lon="-2.74191">
        <ele>69.74</ele>
        <time>2018-08-08T14:24:20Z</time>
      </trkpt>
      <trkpt lat="47.87584" lon="-2.74228">
        <ele>68.17</ele>
        <time>2018-08-08T14:24:35Z</time>
      </trkpt>
      <trkpt lat="47.87572" lon="-2.74267">
        <ele>67.39</ele>
        <time>2018-08-08T14:24:50Z</time>
      </trkpt>
      <trkpt lat="47.87563" lon="-2.74299">
        <ele>67.78</ele>
        <time>2018-08-08T14:25:04Z</time>
      </trkpt>
      <trkpt lat="47.8757" lon="-2.74325">
        <ele>68.6</ele>
        <time>2018-08-08T14:25:17Z</time>
      </trkpt>
      <trkpt lat="47.8759" lon="-2.74342">
        <ele>68.34</ele>
        <time>2018-08-08T14:25:33Z</time>
      </trkpt>
      <trkpt lat="47.87604" lon="-2.74347">
        <ele>68.14</ele>
        <time>2018-08-08T14:25:46Z</time>
      </trkpt>
      <trkpt lat="47.87616" lon="-2.74358">
        <ele>67.8</ele>
        <time>2018-08-08T14:25:56Z</time>
      </trkpt>
      <trkpt lat="47.87642" lon="-2.7437">
        <ele>67.05</ele>
        <time>2018-08-08T14:26:16Z</time>
      </trkpt>
      <trkpt lat="47.87655" lon="-2.74379">
        <ele>66.63</ele>
        <time>2018-08-08T14:26:25Z</time>
      </trkpt>
      <trkpt lat="47.87657" lon="-2.74381">
        <ele>66.65</ele>
        <time>2018-08-08T14:26:26Z</time>
      </trkpt>
      <trkpt lat="47.87659" lon="-2.74384">
        <ele>66.68</ele>
        <time>2018-08-08T14:26:27Z</time>
      </trkpt>
      <trkpt lat="47.8766" lon="-2.74387">
        <ele>66.71</ele>
        <time>2018-08-08T14:26:28Z</time>
      </trkpt>
      <trkpt lat="47.8766" lon="-2.7439">
        <ele>66.74</ele>
        <time>2018-08-08T14:26:29Z</time>
      </trkpt>
      <trkpt lat="47.87668" lon="-2.74413">
        <ele>67.86</ele>
        <time>2018-08-08T14:26:37Z</time>
      </trkpt>
      <trkpt lat="47.87671" lon="-2.74417">
        <ele>68.04</ele>
        <time>2018-08-08T14:26:38Z</time>
      </trkpt>
      <trkpt lat="47.87685" lon="-2.74442">
        <ele>71.05</ele>
        <time>2018-08-08T14:26:48Z</time>
      </trkpt>
      <trkpt lat="47.87685" lon="-2.74445">
        <ele>71.4</ele>
        <time>2018-08-08T14:26:49Z</time>
      </trkpt>
      <trkpt lat="47.87686" lon="-2.74449">
        <ele>71.74</ele>
        <time>2018-08-08T14:26:50Z</time>
      </trkpt>
      <trkpt lat="47.87686" lon="-2.74456">
        <ele>72.07</ele>
        <time>2018-08-08T14:26:51Z</time>
      </trkpt>
      <trkpt lat="47.87687" lon="-2.74461">
        <ele>72.39</ele>
        <time>2018-08-08T14:26:52Z</time>
      </trkpt>
      <trkpt lat="47.87688" lon="-2.74467">
        <ele>72.72</ele>
        <time>2018-08-08T14:26:53Z</time>
      </trkpt>
      <trkpt lat="47.87689" lon="-2.74472">
        <ele>73.05</ele>
        <time>2018-08-08T14:26:54Z</time>
      </trkpt>
      <trkpt lat="47.87689" lon="-2.74478">
        <ele>73.36</ele>
        <time>2018-08-08T14:26:55Z</time>
      </trkpt>
      <trkpt lat="47.87691" lon="-2.74481">
        <ele>73.63</ele>
        <time>2018-08-08T14:26:56Z</time>
      </trkpt>
      <trkpt lat="47.87693" lon="-2.74485">
        <ele>73.88</ele>
        <time>2018-08-08T14:26:57Z</time>
      </trkpt>
      <trkpt lat="47.87694" lon="-2.74488">
        <ele>74.14</ele>
        <time>2018-08-08T14:26:58Z</time>
      </trkpt>
      <trkpt lat="47.87698" lon="-2.74497">
        <ele>75.35</ele>
        <time>2018-08-08T14:27:02Z</time>
      </trkpt>
      <trkpt lat="47.87697" lon="-2.74501">
        <ele>75.47</ele>
        <time>2018-08-08T14:27:03Z</time>
      </trkpt>
      <trkpt lat="47.87697" lon="-2.74503">
        <ele>75.57</ele>
        <time>2018-08-08T14:27:04Z</time>
      </trkpt>
      <trkpt lat="47.87702" lon="-2.74517">
        <ele>76.13</ele>
        <time>2018-08-08T14:27:10Z</time>
      </trkpt>
      <trkpt lat="47.87703" lon="-2.74521">
        <ele>76.32</ele>
        <time>2018-08-08T14:27:11Z</time>
      </trkpt>
      <trkpt lat="47.87706" lon="-2.74524">
        <ele>76.53</ele>
        <time>2018-08-08T14:27:12Z</time>
      </trkpt>
      <trkpt lat="47.87708" lon="-2.74528">
        <ele>76.76</ele>
        <time>2018-08-08T14:27:13Z</time>
      </trkpt>
      <trkpt lat="47.87708" lon="-2.74534">
        <ele>77.05</ele>
        <time>2018-08-08T14:27:14Z</time>
      </trkpt>
      <trkpt lat="47.87718" lon="-2.74574">
        <ele>80.07</ele>
        <time>2018-08-08T14:27:21Z</time>
      </trkpt>
      <trkpt lat="47.87723" lon="-2.74601">
        <ele>82.22</ele>
        <time>2018-08-08T14:27:26Z</time>
      </trkpt>
      <trkpt lat="47.87732" lon="-2.74642">
        <ele>83.83</ele>
        <time>2018-08-08T14:27:33Z</time>
      </trkpt>
      <trkpt lat="47.87737" lon="-2.74653">
        <ele>84.18</ele>
        <time>2018-08-08T14:27:35Z</time>
      </trkpt>
      <trkpt lat="47.87738" lon="-2.74667">
        <ele>84.79</ele>
        <time>2018-08-08T14:27:38Z</time>
      </trkpt>
      <trkpt lat="47.87739" lon="-2.74671">
        <ele>84.96</ele>
        <time>2018-08-08T14:27:39Z</time>
      </trkpt>
      <trkpt lat="47.87742" lon="-2.74673">
        <ele>85.13</ele>
        <time>2018-08-08T14:27:40Z</time>
      </trkpt>
      <trkpt lat="47.87744" lon="-2.74677">
        <ele>85.33</ele>
        <time>2018-08-08T14:27:41Z</time>
      </trkpt>
      <trkpt lat="47.87745" lon="-2.74681">
        <ele>85.57</ele>
        <time>2018-08-08T14:27:42Z</time>
      </trkpt>
      <trkpt lat="47.87746" lon="-2.74686">
        <ele>85.82</ele>
        <time>2018-08-08T14:27:43Z</time>
      </trkpt>
      <trkpt lat="47.87744" lon="-2.74731">
        <ele>92.51171875</ele>
      </trkpt>
      <trkpt lat="47.87681" lon="-2.7473">
        <ele>94.765625</ele>
      </trkpt>
      <trkpt lat="47.87614" lon="-2.74891">
        <ele>101.953125</ele>
      </trkpt>
      <trkpt lat="47.8761" lon="-2.74933">
        <ele>103</ele>
      </trkpt>
      <trkpt lat="47.87652" lon="-2.75123">
        <ele>105</ele>
      </trkpt>
      <trkpt lat="47.87653" lon="-2.75129">
        <ele>100.31</ele>
        <time>2018-08-08T14:28:54Z</time>
      </trkpt>
      <trkpt lat="47.87624" lon="-2.75143">
        <ele>100.54</ele>
        <time>2018-08-08T14:29:07Z</time>
      </trkpt>
      <trkpt lat="47.87608" lon="-2.75146">
        <ele>100.48</ele>
        <time>2018-08-08T14:29:16Z</time>
      </trkpt>
      <trkpt lat="47.87602" lon="-2.75147">
        <ele>100.47</ele>
        <time>2018-08-08T14:29:20Z</time>
      </trkpt>
      <trkpt lat="47.87595" lon="-2.75148">
        <ele>100.58</ele>
        <time>2018-08-08T14:29:24Z</time>
      </trkpt>
      <trkpt lat="47.87572" lon="-2.75144">
        <ele>100.63</ele>
        <time>2018-08-08T14:29:38Z</time>
      </trkpt>
      <trkpt lat="47.87546" lon="-2.75148">
        <ele>99.72</ele>
        <time>2018-08-08T14:29:51Z</time>
      </trkpt>
      <trkpt lat="47.87527" lon="-2.75151">
        <ele>99.89</ele>
        <time>2018-08-08T14:30:02Z</time>
      </trkpt>
      <trkpt lat="47.87505" lon="-2.75158">
        <ele>99.79</ele>
        <time>2018-08-08T14:30:13Z</time>
      </trkpt>
      <trkpt lat="47.87497" lon="-2.75158">
        <ele>99.53</ele>
        <time>2018-08-08T14:30:18Z</time>
      </trkpt>
      <trkpt lat="47.87494" lon="-2.75168">
        <ele>99.23</ele>
        <time>2018-08-08T14:30:31Z</time>
      </trkpt>
      <trkpt lat="47.87491" lon="-2.75179">
        <ele>99.28</ele>
        <time>2018-08-08T14:30:39Z</time>
      </trkpt>
      <trkpt lat="47.87487" lon="-2.75185">
        <ele>99.12</ele>
        <time>2018-08-08T14:30:43Z</time>
      </trkpt>
      <trkpt lat="47.87466" lon="-2.752">
        <ele>98.27</ele>
        <time>2018-08-08T14:30:58Z</time>
      </trkpt>
      <trkpt lat="47.87441" lon="-2.7522">
        <ele>97.87</ele>
        <time>2018-08-08T14:31:17Z</time>
      </trkpt>
      <trkpt lat="47.87411" lon="-2.75252">
        <ele>97.05</ele>
        <time>2018-08-08T14:31:39Z</time>
      </trkpt>
      <trkpt lat="47.87387" lon="-2.7527">
        <ele>96.47</ele>
        <time>2018-08-08T14:31:54Z</time>
      </trkpt>
      <trkpt lat="47.87366" lon="-2.75282">
        <ele>95.52</ele>
        <time>2018-08-08T14:32:07Z</time>
      </trkpt>
      <trkpt lat="47.87358" lon="-2.75289">
        <ele>95.01</ele>
        <time>2018-08-08T14:32:13Z</time>
      </trkpt>
      <trkpt lat="47.87337" lon="-2.75309">
        <ele>93.82</ele>
        <time>2018-08-08T14:32:27Z</time>
      </trkpt>
      <trkpt lat="47.87316" lon="-2.7533">
        <ele>92.59</ele>
        <time>2018-08-08T14:32:40Z</time>
      </trkpt>
      <trkpt lat="47.87306" lon="-2.75345">
        <ele>90.65</ele>
        <time>2018-08-08T14:32:50Z</time>
      </trkpt>
      <trkpt lat="47.87289" lon="-2.7537">
        <ele>88.47</ele>
        <time>2018-08-08T14:33:04Z</time>
      </trkpt>
      <trkpt lat="47.87276" lon="-2.75387">
        <ele>86.45</ele>
        <time>2018-08-08T14:33:17Z</time>
      </trkpt>
      <trkpt lat="47.87268" lon="-2.75411">
        <ele>84.4</ele>
        <time>2018-08-08T14:33:36Z</time>
      </trkpt>
      <trkpt lat="47.87249" lon="-2.75445">
        <ele>83.34</ele>
        <time>2018-08-08T14:33:48Z</time>
      </trkpt>
      <trkpt lat="47.8722" lon="-2.7549">
        <ele>80.47</ele>
        <time>2018-08-08T14:34:08Z</time>
      </trkpt>
      <trkpt lat="47.87208" lon="-2.75511">
        <ele>80.2</ele>
        <time>2018-08-08T14:34:15Z</time>
      </trkpt>
      <trkpt lat="47.87205" lon="-2.75531">
        <ele>80.15</ele>
        <time>2018-08-08T14:34:19Z</time>
      </trkpt>
      <trkpt lat="47.87208" lon="-2.75559">
        <ele>80.02</ele>
        <time>2018-08-08T14:34:27Z</time>
      </trkpt>
      <trkpt lat="47.87207" lon="-2.75575">
        <ele>80.02</ele>
        <time>2018-08-08T14:34:31Z</time>
      </trkpt>
      <trkpt lat="47.87214" lon="-2.75616">
        <ele>80.18</ele>
        <time>2018-08-08T14:34:47Z</time>
      </trkpt>
      <trkpt lat="47.87224" lon="-2.75638">
        <ele>79.96</ele>
        <time>2018-08-08T14:34:57Z</time>
      </trkpt>
      <trkpt lat="47.87236" lon="-2.75653">
        <ele>79.39</ele>
        <time>2018-08-08T14:35:09Z</time>
      </trkpt>
      <trkpt lat="47.87251" lon="-2.75665">
        <ele>78.48</ele>
        <time>2018-08-08T14:35:23Z</time>
      </trkpt>
      <trkpt lat="47.87261" lon="-2.75686">
        <ele>78.68</ele>
        <time>2018-08-08T14:35:35Z</time>
      </trkpt>
      <trkpt lat="47.87263" lon="-2.757">
        <ele>78.71</ele>
        <time>2018-08-08T14:35:40Z</time>
      </trkpt>
      <trkpt lat="47.87274" lon="-2.75727">
        <ele>78.91</ele>
        <time>2018-08-08T14:35:52Z</time>
      </trkpt>
      <trkpt lat="47.87284" lon="-2.75753">
        <ele>79.18</ele>
        <time>2018-08-08T14:36:04Z</time>
      </trkpt>
      <trkpt lat="47.87293" lon="-2.75762">
        <ele>79.3</ele>
        <time>2018-08-08T14:36:11Z</time>
      </trkpt>
      <trkpt lat="47.87312" lon="-2.75783">
        <ele>79.37</ele>
        <time>2018-08-08T14:36:25Z</time>
      </trkpt>
      <trkpt lat="47.8732" lon="-2.75792">
        <ele>79.13</ele>
        <time>2018-08-08T14:36:31Z</time>
      </trkpt>
      <trkpt lat="47.87318" lon="-2.75802">
        <ele>78.79</ele>
        <time>2018-08-08T14:36:36Z</time>
      </trkpt>
      <trkpt lat="47.87315" lon="-2.75824">
        <ele>78.64</ele>
        <time>2018-08-08T14:36:44Z</time>
      </trkpt>
      <trkpt lat="47.87316" lon="-2.7587">
        <ele>79.3</ele>
        <time>2018-08-08T14:36:57Z</time>
      </trkpt>
      <trkpt lat="47.87331" lon="-2.75897">
        <ele>80.78</ele>
        <time>2018-08-08T14:37:10Z</time>
      </trkpt>
      <trkpt lat="47.87331" lon="-2.75927">
        <ele>86.61328125</ele>
      </trkpt>
      <trkpt lat="47.87304" lon="-2.75915">
        <ele>88.1328125</ele>
      </trkpt>
      <trkpt lat="47.87359" lon="-2.76084">
        <ele>96.47265625</ele>
      </trkpt>
      <trkpt lat="47.87344" lon="-2.76085">
        <ele>98.5390625</ele>
      </trkpt>
      <trkpt lat="47.87328" lon="-2.76074">
        <ele>85.82</ele>
        <time>2018-08-08T14:38:11Z</time>
      </trkpt>
      <trkpt lat="47.873" lon="-2.7605">
        <ele>99.921875</ele>
      </trkpt>
      <trkpt lat="47.87244" lon="-2.76018">
        <ele>100.12109375</ele>
      </trkpt>
      <trkpt lat="47.87191" lon="-2.76007">
        <ele>101.76953125</ele>
      </trkpt>
      <trkpt lat="47.87157" lon="-2.76015">
        <ele>102.05859375</ele>
      </trkpt>
      <trkpt lat="47.87123" lon="-2.76038">
        <ele>102.09375</ele>
      </trkpt>
      <trkpt lat="47.8708" lon="-2.76095">
        <ele>101.31640625</ele>
      </trkpt>
      <trkpt lat="47.87072" lon="-2.76128">
        <ele>102.92578125</ele>
      </trkpt>
      <trkpt lat="47.87088" lon="-2.76154">
        <ele>105.3828125</ele>
      </trkpt>
      <trkpt lat="47.87113" lon="-2.7623">
        <ele>105.73</ele>
        <time>2018-08-08T14:40:26Z</time>
      </trkpt>
      <trkpt lat="47.8712" lon="-2.76279">
        <ele>108.53</ele>
        <time>2018-08-08T14:40:46Z</time>
      </trkpt>
      <trkpt lat="47.87116" lon="-2.76323">
        <ele>111.34</ele>
        <time>2018-08-08T14:41:04Z</time>
      </trkpt>
      <trkpt lat="47.8711" lon="-2.76356">
        <ele>112.11</ele>
        <time>2018-08-08T14:41:19Z</time>
      </trkpt>
      <trkpt lat="47.87108" lon="-2.76364">
        <ele>112.13</ele>
        <time>2018-08-08T14:41:23Z</time>
      </trkpt>
      <trkpt lat="47.87108" lon="-2.76365">
        <ele>112.13</ele>
        <time>2018-08-08T14:41:24Z</time>
      </trkpt>
      <trkpt lat="47.87101" lon="-2.7639">
        <ele>112.92</ele>
        <time>2018-08-08T14:41:38Z</time>
      </trkpt>
      <trkpt lat="47.87098" lon="-2.76399">
        <ele>113.44</ele>
        <time>2018-08-08T14:41:43Z</time>
      </trkpt>
      <trkpt lat="47.87089" lon="-2.76426">
        <ele>115.54</ele>
        <time>2018-08-08T14:41:58Z</time>
      </trkpt>
      <trkpt lat="47.87078" lon="-2.76467">
        <ele>118.29</ele>
        <time>2018-08-08T14:42:09Z</time>
      </trkpt>
      <trkpt lat="47.87073" lon="-2.76509">
        <ele>119.24</ele>
        <time>2018-08-08T14:42:21Z</time>
      </trkpt>
      <trkpt lat="47.8707" lon="-2.76522">
        <ele>119.14</ele>
        <time>2018-08-08T14:42:25Z</time>
      </trkpt>
      <trkpt lat="47.87065" lon="-2.76553">
        <ele>118.7</ele>
        <time>2018-08-08T14:42:36Z</time>
      </trkpt>
      <trkpt lat="47.87063" lon="-2.76563">
        <ele>118.4</ele>
        <time>2018-08-08T14:42:41Z</time>
      </trkpt>
      <trkpt lat="47.87049" lon="-2.76567">
        <ele>118.32</ele>
        <time>2018-08-08T14:42:48Z</time>
      </trkpt>
      <trkpt lat="47.87048" lon="-2.76567">
        <ele>118.3</ele>
        <time>2018-08-08T14:42:49Z</time>
      </trkpt>
      <trkpt lat="47.87046" lon="-2.76569">
        <ele>118.28</ele>
        <time>2018-08-08T14:42:50Z</time>
      </trkpt>
      <trkpt lat="47.87044" lon="-2.76571">
        <ele>118.28</ele>
        <time>2018-08-08T14:42:51Z</time>
      </trkpt>
      <trkpt lat="47.87043" lon="-2.76572">
        <ele>118.28</ele>
        <time>2018-08-08T14:42:52Z</time>
      </trkpt>
      <trkpt lat="47.87042" lon="-2.76574">
        <ele>118.28</ele>
        <time>2018-08-08T14:42:53Z</time>
      </trkpt>
      <trkpt lat="47.87008" lon="-2.76576">
        <ele>117.48</ele>
        <time>2018-08-08T14:43:10Z</time>
      </trkpt>
      <trkpt lat="47.86981" lon="-2.76568">
        <ele>115.39</ele>
        <time>2018-08-08T14:43:25Z</time>
      </trkpt>
      <trkpt lat="47.86954" lon="-2.76596">
        <ele>112.69</ele>
        <time>2018-08-08T14:43:43Z</time>
      </trkpt>
      <trkpt lat="47.8693" lon="-2.7665">
        <ele>111.2</ele>
        <time>2018-08-08T14:44:07Z</time>
      </trkpt>
      <trkpt lat="47.86918" lon="-2.76689">
        <ele>108.9</ele>
        <time>2018-08-08T14:44:23Z</time>
      </trkpt>
      <trkpt lat="47.86917" lon="-2.76691">
        <ele>108.77</ele>
        <time>2018-08-08T14:44:24Z</time>
      </trkpt>
      <trkpt lat="47.86914" lon="-2.76699">
        <ele>108.25</ele>
        <time>2018-08-08T14:44:29Z</time>
      </trkpt>
      <trkpt lat="47.86914" lon="-2.767">
        <ele>108.18</ele>
        <time>2018-08-08T14:44:30Z</time>
      </trkpt>
      <trkpt lat="47.86913" lon="-2.76702">
        <ele>108.14</ele>
        <time>2018-08-08T14:44:31Z</time>
      </trkpt>
      <trkpt lat="47.86904" lon="-2.76726">
        <ele>112.81640625</ele>
      </trkpt>
      <trkpt lat="47.86897" lon="-2.76737">
        <ele>114.2578125</ele>
      </trkpt>
      <trkpt lat="47.86866" lon="-2.7675">
        <ele>114.8203125</ele>
      </trkpt>
      <trkpt lat="47.86843" lon="-2.76756">
        <ele>117.5234375</ele>
      </trkpt>
      <trkpt lat="47.86819" lon="-2.76742">
        <ele>116.87890625</ele>
      </trkpt>
      <trkpt lat="47.86796" lon="-2.76725">
        <ele>115.09375</ele>
      </trkpt>
      <trkpt lat="47.86738" lon="-2.76701">
        <ele>114.27734375</ele>
      </trkpt>
      <trkpt lat="47.86722" lon="-2.76701">
        <ele>113.40234375</ele>
      </trkpt>
      <trkpt lat="47.86662" lon="-2.76738">
        <ele>115.11328125</ele>
      </trkpt>
      <trkpt lat="47.86614" lon="-2.76799">
        <ele>117.2421875</ele>
      </trkpt>
      <trkpt lat="47.86604" lon="-2.76718">
        <ele>117.7265625</ele>
      </trkpt>
      <trkpt lat="47.86596" lon="-2.76652">
        <ele>119.32421875</ele>
      </trkpt>
      <trkpt lat="47.86583" lon="-2.76625">
        <ele>122.09375</ele>
      </trkpt>
      <trkpt lat="47.86564" lon="-2.76585">
        <ele>123.75390625</ele>
      </trkpt>
      <trkpt lat="47.86553" lon="-2.76576">
        <ele>124.4375</ele>
      </trkpt>
      <trkpt lat="47.86539" lon="-2.76571">
        <ele>125.55078125</ele>
      </trkpt>
      <trkpt lat="47.86507" lon="-2.76599">
        <ele>122.51</ele>
        <time>2018-08-08T14:49:00Z</time>
      </trkpt>
      <trkpt lat="47.86491" lon="-2.7662">
        <ele>124.77</ele>
        <time>2018-08-08T14:49:10Z</time>
      </trkpt>
      <trkpt lat="47.86469" lon="-2.7663">
        <ele>126.65</ele>
        <time>2018-08-08T14:49:26Z</time>
      </trkpt>
      <trkpt lat="47.86467" lon="-2.76632">
        <ele>126.76</ele>
        <time>2018-08-08T14:49:27Z</time>
      </trkpt>
      <trkpt lat="47.86463" lon="-2.76634">
        <ele>127</ele>
        <time>2018-08-08T14:49:29Z</time>
      </trkpt>
      <trkpt lat="47.86457" lon="-2.76635">
        <ele>127.21</ele>
        <time>2018-08-08T14:49:33Z</time>
      </trkpt>
      <trkpt lat="47.86454" lon="-2.76636">
        <ele>127.14</ele>
        <time>2018-08-08T14:49:35Z</time>
      </trkpt>
      <trkpt lat="47.86436" lon="-2.76638">
        <ele>126.53</ele>
        <time>2018-08-08T14:49:44Z</time>
      </trkpt>
      <trkpt lat="47.86419" lon="-2.76639">
        <ele>125.29</ele>
        <time>2018-08-08T14:49:55Z</time>
      </trkpt>
      <trkpt lat="47.8641" lon="-2.76637">
        <ele>124.63</ele>
        <time>2018-08-08T14:50:00Z</time>
      </trkpt>
      <trkpt lat="47.86388" lon="-2.76632">
        <ele>122.06</ele>
        <time>2018-08-08T14:50:16Z</time>
      </trkpt>
      <trkpt lat="47.86378" lon="-2.7663">
        <ele>121.34</ele>
        <time>2018-08-08T14:50:22Z</time>
      </trkpt>
      <trkpt lat="47.86357" lon="-2.76632">
        <ele>120.9</ele>
        <time>2018-08-08T14:50:35Z</time>
      </trkpt>
      <trkpt lat="47.86326" lon="-2.76635">
        <ele>120.29</ele>
        <time>2018-08-08T14:50:50Z</time>
      </trkpt>
      <trkpt lat="47.86314" lon="-2.76636">
        <ele>120.05</ele>
        <time>2018-08-08T14:50:57Z</time>
      </trkpt>
      <trkpt lat="47.8629" lon="-2.76641">
        <ele>119.53</ele>
        <time>2018-08-08T14:51:11Z</time>
      </trkpt>
      <trkpt lat="47.8627" lon="-2.76653">
        <ele>120.63</ele>
        <time>2018-08-08T14:51:26Z</time>
      </trkpt>
      <trkpt lat="47.86247" lon="-2.76666">
        <ele>121.7</ele>
        <time>2018-08-08T14:51:42Z</time>
      </trkpt>
      <trkpt lat="47.8623" lon="-2.76656">
        <ele>118.6</ele>
        <time>2018-08-08T14:51:57Z</time>
      </trkpt>
      <trkpt lat="47.86227" lon="-2.76654">
        <ele>117.98</ele>
        <time>2018-08-08T14:52:00Z</time>
      </trkpt>
      <trkpt lat="47.86215" lon="-2.7666">
        <ele>116.76</ele>
        <time>2018-08-08T14:52:15Z</time>
      </trkpt>
      <trkpt lat="47.86206" lon="-2.76673">
        <ele>118.8</ele>
        <time>2018-08-08T14:52:34Z</time>
      </trkpt>
      <trkpt lat="47.86205" lon="-2.76679">
        <ele>119.07</ele>
        <time>2018-08-08T14:52:56Z</time>
      </trkpt>
      <trkpt lat="47.86188" lon="-2.76692">
        <ele>119.58</ele>
        <time>2018-08-08T14:53:15Z</time>
      </trkpt>
      <trkpt lat="47.86166" lon="-2.76703">
        <ele>119.87</ele>
        <time>2018-08-08T14:53:33Z</time>
      </trkpt>
      <trkpt lat="47.86142" lon="-2.76708">
        <ele>118.54</ele>
        <time>2018-08-08T14:53:50Z</time>
      </trkpt>
      <trkpt lat="47.86119" lon="-2.76727">
        <ele>118.65</ele>
        <time>2018-08-08T14:54:10Z</time>
      </trkpt>
      <trkpt lat="47.86097" lon="-2.76741">
        <ele>118.67</ele>
        <time>2018-08-08T14:54:28Z</time>
      </trkpt>
      <trkpt lat="47.86089" lon="-2.7676">
        <ele>120.94</ele>
        <time>2018-08-08T14:54:44Z</time>
      </trkpt>
      <trkpt lat="47.86078" lon="-2.76792">
        <ele>123.52</ele>
        <time>2018-08-08T14:55:01Z</time>
      </trkpt>
      <trkpt lat="47.86058" lon="-2.76809">
        <ele>123.34</ele>
        <time>2018-08-08T14:55:17Z</time>
      </trkpt>
      <trkpt lat="47.8605" lon="-2.76814">
        <ele>122.91</ele>
        <time>2018-08-08T14:55:23Z</time>
      </trkpt>
      <trkpt lat="47.8603" lon="-2.76829">
        <ele>121.56</ele>
        <time>2018-08-08T14:55:39Z</time>
      </trkpt>
      <trkpt lat="47.86011" lon="-2.76844">
        <ele>121.23</ele>
        <time>2018-08-08T14:55:55Z</time>
      </trkpt>
      <trkpt lat="47.86001" lon="-2.76857">
        <ele>120.92</ele>
        <time>2018-08-08T14:56:05Z</time>
      </trkpt>
      <trkpt lat="47.85989" lon="-2.76877">
        <ele>120.72</ele>
        <time>2018-08-08T14:56:16Z</time>
      </trkpt>
      <trkpt lat="47.85968" lon="-2.76899">
        <ele>119.93</ele>
        <time>2018-08-08T14:56:29Z</time>
      </trkpt>
      <trkpt lat="47.85949" lon="-2.76892">
        <ele>116.79</ele>
        <time>2018-08-08T14:56:41Z</time>
      </trkpt>
      <trkpt lat="47.8593" lon="-2.76879">
        <ele>113.65</ele>
        <time>2018-08-08T14:56:55Z</time>
      </trkpt>
      <trkpt lat="47.85911" lon="-2.76866">
        <ele>110.4</ele>
        <time>2018-08-08T14:57:06Z</time>
      </trkpt>
      <trkpt lat="47.85902" lon="-2.76869">
        <ele>109.4</ele>
        <time>2018-08-08T14:57:10Z</time>
      </trkpt>
      <trkpt lat="47.85899" lon="-2.76873">
        <ele>108.82</ele>
        <time>2018-08-08T14:57:13Z</time>
      </trkpt>
      <trkpt lat="47.85898" lon="-2.76882">
        <ele>108.81</ele>
        <time>2018-08-08T14:57:18Z</time>
      </trkpt>
      <trkpt lat="47.85896" lon="-2.76892">
        <ele>108.73</ele>
        <time>2018-08-08T14:57:23Z</time>
      </trkpt>
      <trkpt lat="47.85893" lon="-2.76898">
        <ele>108.71</ele>
        <time>2018-08-08T14:57:25Z</time>
      </trkpt>
      <trkpt lat="47.85891" lon="-2.76902">
        <ele>108.69</ele>
        <time>2018-08-08T14:57:26Z</time>
      </trkpt>
      <trkpt lat="47.85889" lon="-2.76905">
        <ele>108.68</ele>
        <time>2018-08-08T14:57:27Z</time>
      </trkpt>
      <trkpt lat="47.85888" lon="-2.76909">
        <ele>108.68</ele>
        <time>2018-08-08T14:57:28Z</time>
      </trkpt>
      <trkpt lat="47.85887" lon="-2.76911">
        <ele>108.71</ele>
        <time>2018-08-08T14:57:29Z</time>
      </trkpt>
      <trkpt lat="47.85887" lon="-2.76914">
        <ele>108.87</ele>
        <time>2018-08-08T14:57:30Z</time>
      </trkpt>
      <trkpt lat="47.85887" lon="-2.76916">
        <ele>109.15</ele>
        <time>2018-08-08T14:57:31Z</time>
      </trkpt>
      <trkpt lat="47.85877" lon="-2.76955">
        <ele>111.01</ele>
        <time>2018-08-08T14:57:46Z</time>
      </trkpt>
      <trkpt lat="47.85862" lon="-2.7698">
        <ele>110.57</ele>
        <time>2018-08-08T14:58:01Z</time>
      </trkpt>
      <trkpt lat="47.8585" lon="-2.77005">
        <ele>110.8</ele>
        <time>2018-08-08T14:58:15Z</time>
      </trkpt>
      <trkpt lat="47.85845" lon="-2.77027">
        <ele>111.24</ele>
        <time>2018-08-08T14:58:28Z</time>
      </trkpt>
      <trkpt lat="47.85845" lon="-2.77051">
        <ele>111.63</ele>
        <time>2018-08-08T14:58:45Z</time>
      </trkpt>
      <trkpt lat="47.85839" lon="-2.77086">
        <ele>109.21</ele>
        <time>2018-08-08T14:59:03Z</time>
      </trkpt>
      <trkpt lat="47.85831" lon="-2.7711">
        <ele>106.08</ele>
        <time>2018-08-08T14:59:16Z</time>
      </trkpt>
      <trkpt lat="47.85826" lon="-2.77129">
        <ele>103.01</ele>
        <time>2018-08-08T14:59:30Z</time>
      </trkpt>
      <trkpt lat="47.85825" lon="-2.77146">
        <ele>99.74</ele>
        <time>2018-08-08T14:59:41Z</time>
      </trkpt>
      <trkpt lat="47.85829" lon="-2.77169">
        <ele>96.74</ele>
        <time>2018-08-08T14:59:54Z</time>
      </trkpt>
      <trkpt lat="47.85835" lon="-2.77191">
        <ele>94.15</ele>
        <time>2018-08-08T15:00:13Z</time>
      </trkpt>
      <trkpt lat="47.85834" lon="-2.77197">
        <ele>93.68</ele>
        <time>2018-08-08T15:00:16Z</time>
      </trkpt>
      <trkpt lat="47.85825" lon="-2.77223">
        <ele>90.67</ele>
        <time>2018-08-08T15:00:30Z</time>
      </trkpt>
      <trkpt lat="47.85807" lon="-2.77258">
        <ele>87.6</ele>
        <time>2018-08-08T15:00:41Z</time>
      </trkpt>
      <trkpt lat="47.85784" lon="-2.77264">
        <ele>83.93</ele>
        <time>2018-08-08T15:00:54Z</time>
      </trkpt>
      <trkpt lat="47.85783" lon="-2.77266">
        <ele>83.61</ele>
        <time>2018-08-08T15:00:55Z</time>
      </trkpt>
      <trkpt lat="47.8578" lon="-2.77273">
        <ele>81.96</ele>
        <time>2018-08-08T15:01:01Z</time>
      </trkpt>
      <trkpt lat="47.85779" lon="-2.77295">
        <ele>79.47</ele>
        <time>2018-08-08T15:01:12Z</time>
      </trkpt>
      <trkpt lat="47.85772" lon="-2.77324">
        <ele>77.11</ele>
        <time>2018-08-08T15:01:26Z</time>
      </trkpt>
      <trkpt lat="47.85765" lon="-2.77336">
        <ele>76.45</ele>
        <time>2018-08-08T15:01:33Z</time>
      </trkpt>
      <trkpt lat="47.85741" lon="-2.77361">
        <ele>75.48</ele>
        <time>2018-08-08T15:01:49Z</time>
      </trkpt>
      <trkpt lat="47.85725" lon="-2.77373">
        <ele>75.75</ele>
        <time>2018-08-08T15:01:59Z</time>
      </trkpt>
      <trkpt lat="47.85718" lon="-2.77373">
        <ele>76.08</ele>
        <time>2018-08-08T15:02:03Z</time>
      </trkpt>
      <trkpt lat="47.8567" lon="-2.77359">
        <ele>78.15</ele>
        <time>2018-08-08T15:02:21Z</time>
      </trkpt>
      <trkpt lat="47.85655" lon="-2.77383">
        <ele>80.35</ele>
        <time>2018-08-08T15:02:35Z</time>
      </trkpt>
      <trkpt lat="47.85638" lon="-2.77414">
        <ele>82.34</ele>
        <time>2018-08-08T15:02:51Z</time>
      </trkpt>
      <trkpt lat="47.85626" lon="-2.77455">
        <ele>84.62</ele>
        <time>2018-08-08T15:03:10Z</time>
      </trkpt>
      <trkpt lat="47.85606" lon="-2.77493">
        <ele>87.01</ele>
        <time>2018-08-08T15:03:28Z</time>
      </trkpt>
      <trkpt lat="47.85595" lon="-2.77523">
        <ele>89.48</ele>
        <time>2018-08-08T15:03:43Z</time>
      </trkpt>
      <trkpt lat="47.85584" lon="-2.77551">
        <ele>91.01</ele>
        <time>2018-08-08T15:03:58Z</time>
      </trkpt>
      <trkpt lat="47.85573" lon="-2.77585">
        <ele>92.11</ele>
        <time>2018-08-08T15:04:12Z</time>
      </trkpt>
      <trkpt lat="47.85566" lon="-2.77622">
        <ele>93.14</ele>
        <time>2018-08-08T15:04:27Z</time>
      </trkpt>
      <trkpt lat="47.85563" lon="-2.77643">
        <ele>93.98</ele>
        <time>2018-08-08T15:04:35Z</time>
      </trkpt>
      <trkpt lat="47.85558" lon="-2.77683">
        <ele>94.56</ele>
        <time>2018-08-08T15:04:51Z</time>
      </trkpt>
      <trkpt lat="47.85556" lon="-2.77732">
        <ele>95.57</ele>
        <time>2018-08-08T15:05:11Z</time>
      </trkpt>
      <trkpt lat="47.85558" lon="-2.77733">
        <ele>95.63</ele>
        <time>2018-08-08T15:05:12Z</time>
      </trkpt>
      <trkpt lat="47.85584" lon="-2.77736">
        <ele>94.73</ele>
        <time>2018-08-08T15:05:29Z</time>
      </trkpt>
      <trkpt lat="47.85611" lon="-2.77739">
        <ele>93.6</ele>
        <time>2018-08-08T15:05:44Z</time>
      </trkpt>
      <trkpt lat="47.8564" lon="-2.77743">
        <ele>91.83</ele>
        <time>2018-08-08T15:06:02Z</time>
      </trkpt>
      <trkpt lat="47.85666" lon="-2.77751">
        <ele>91.54</ele>
        <time>2018-08-08T15:06:18Z</time>
      </trkpt>
      <trkpt lat="47.85691" lon="-2.7776">
        <ele>91.47</ele>
        <time>2018-08-08T15:06:33Z</time>
      </trkpt>
      <trkpt lat="47.85715" lon="-2.77768">
        <ele>92.65</ele>
        <time>2018-08-08T15:06:47Z</time>
      </trkpt>
      <trkpt lat="47.85735" lon="-2.77773">
        <ele>93.71</ele>
        <time>2018-08-08T15:06:59Z</time>
      </trkpt>
      <trkpt lat="47.85758" lon="-2.77777">
        <ele>95.39</ele>
        <time>2018-08-08T15:07:13Z</time>
      </trkpt>
      <trkpt lat="47.85768" lon="-2.77789">
        <ele>96.68</ele>
        <time>2018-08-08T15:07:22Z</time>
      </trkpt>
      <trkpt lat="47.85768" lon="-2.7779">
        <ele>96.85</ele>
        <time>2018-08-08T15:07:23Z</time>
      </trkpt>
      <trkpt lat="47.85768" lon="-2.77792">
        <ele>97.02</ele>
        <time>2018-08-08T15:07:24Z</time>
      </trkpt>
      <trkpt lat="47.85767" lon="-2.77794">
        <ele>97.46</ele>
        <time>2018-08-08T15:07:25Z</time>
      </trkpt>
      <trkpt lat="47.85767" lon="-2.77796">
        <ele>97.46</ele>
        <time>2018-08-08T15:07:26Z</time>
      </trkpt>
      <trkpt lat="47.85767" lon="-2.77798">
        <ele>97.95</ele>
        <time>2018-08-08T15:07:27Z</time>
      </trkpt>
      <trkpt lat="47.85767" lon="-2.77799">
        <ele>98.19</ele>
        <time>2018-08-08T15:07:28Z</time>
      </trkpt>
      <trkpt lat="47.85768" lon="-2.77805">
        <ele>98.88</ele>
        <time>2018-08-08T15:07:31Z</time>
      </trkpt>
      <trkpt lat="47.85767" lon="-2.77807">
        <ele>99.08</ele>
        <time>2018-08-08T15:07:32Z</time>
      </trkpt>
      <trkpt lat="47.85766" lon="-2.77809">
        <ele>99.27</ele>
        <time>2018-08-08T15:07:33Z</time>
      </trkpt>
      <trkpt lat="47.85765" lon="-2.77811">
        <ele>99.45</ele>
        <time>2018-08-08T15:07:34Z</time>
      </trkpt>
      <trkpt lat="47.85765" lon="-2.77813">
        <ele>99.63</ele>
        <time>2018-08-08T15:07:35Z</time>
      </trkpt>
      <trkpt lat="47.85764" lon="-2.77815">
        <ele>99.83</ele>
        <time>2018-08-08T15:07:36Z</time>
      </trkpt>
      <trkpt lat="47.85753" lon="-2.77836">
        <ele>102.93</ele>
        <time>2018-08-08T15:07:49Z</time>
      </trkpt>
      <trkpt lat="47.85735" lon="-2.77851">
        <ele>105.9</ele>
        <time>2018-08-08T15:08:03Z</time>
      </trkpt>
      <trkpt lat="47.8571" lon="-2.77861">
        <ele>108.23</ele>
        <time>2018-08-08T15:08:19Z</time>
      </trkpt>
      <trkpt lat="47.85689" lon="-2.77875">
        <ele>109.43</ele>
        <time>2018-08-08T15:08:34Z</time>
      </trkpt>
      <trkpt lat="47.85672" lon="-2.77888">
        <ele>110.75</ele>
        <time>2018-08-08T15:08:46Z</time>
      </trkpt>
      <trkpt lat="47.85653" lon="-2.77898">
        <ele>113.39</ele>
        <time>2018-08-08T15:09:01Z</time>
      </trkpt>
      <trkpt lat="47.8563" lon="-2.77921">
        <ele>116.13</ele>
        <time>2018-08-08T15:09:18Z</time>
      </trkpt>
      <trkpt lat="47.85609" lon="-2.77938">
        <ele>118.04</ele>
        <time>2018-08-08T15:09:33Z</time>
      </trkpt>
      <trkpt lat="47.85583" lon="-2.77962">
        <ele>120</ele>
        <time>2018-08-08T15:09:51Z</time>
      </trkpt>
      <trkpt lat="47.85564" lon="-2.7799">
        <ele>121.68</ele>
        <time>2018-08-08T15:10:07Z</time>
      </trkpt>
      <trkpt lat="47.85546" lon="-2.78024">
        <ele>121.65</ele>
        <time>2018-08-08T15:10:24Z</time>
      </trkpt>
      <trkpt lat="47.8555" lon="-2.78072">
        <ele>124.2421875</ele>
      </trkpt>
      <trkpt lat="47.85549" lon="-2.78124">
        <ele>124.6796875</ele>
      </trkpt>
      <trkpt lat="47.85563" lon="-2.78193">
        <ele>131.21484375</ele>
      </trkpt>
      <trkpt lat="47.85581" lon="-2.7827">
        <ele>141.6171875</ele>
      </trkpt>
      <trkpt lat="47.85617" lon="-2.7837">
        <ele>155.703125</ele>
      </trkpt>
      <trkpt lat="47.85636" lon="-2.78382">
        <ele>160.140625</ele>
      </trkpt>
      <trkpt lat="47.85644" lon="-2.78381">
        <ele>161.29296875</ele>
      </trkpt>
      <trkpt lat="47.85653" lon="-2.78371">
        <ele>162.01953125</ele>
      </trkpt>
      <trkpt lat="47.85659" lon="-2.78371">
        <ele>162.75</ele>
      </trkpt>
      <trkpt lat="47.85698" lon="-2.78407">
        <ele>169.06640625</ele>
      </trkpt>
      <trkpt lat="47.85694" lon="-2.78421">
        <ele>169.11328125</ele>
      </trkpt>
      <trkpt lat="47.85668" lon="-2.78681">
        <ele>164.25</ele>
      </trkpt>
      <trkpt lat="47.85664" lon="-2.78692">
        <ele>163.69921875</ele>
      </trkpt>
      <trkpt lat="47.8566" lon="-2.78702">
        <ele>163.13671875</ele>
      </trkpt>
      <trkpt lat="47.85629" lon="-2.78712">
        <ele>157.5</ele>
        <time>2018-08-08T15:13:53Z</time>
      </trkpt>
      <trkpt lat="47.85496" lon="-2.78743">
        <ele>143.765625</ele>
      </trkpt>
      <trkpt lat="47.85478" lon="-2.78754">
        <ele>140.79296875</ele>
      </trkpt>
      <trkpt lat="47.8532" lon="-2.7883">
        <ele>109.77</ele>
        <time>2018-08-08T15:17:54Z</time>
      </trkpt>
      <trkpt lat="47.85308" lon="-2.78845">
        <ele>108.18</ele>
        <time>2018-08-08T15:18:05Z</time>
      </trkpt>
      <trkpt lat="47.85307" lon="-2.78847">
        <ele>107.94</ele>
        <time>2018-08-08T15:18:06Z</time>
      </trkpt>
      <trkpt lat="47.85306" lon="-2.78848">
        <ele>107.71</ele>
        <time>2018-08-08T15:18:07Z</time>
      </trkpt>
      <trkpt lat="47.85305" lon="-2.78849">
        <ele>107.48</ele>
        <time>2018-08-08T15:18:08Z</time>
      </trkpt>
      <trkpt lat="47.85304" lon="-2.7885">
        <ele>107.29</ele>
        <time>2018-08-08T15:18:09Z</time>
      </trkpt>
      <trkpt lat="47.85303" lon="-2.78852">
        <ele>107.11</ele>
        <time>2018-08-08T15:18:10Z</time>
      </trkpt>
      <trkpt lat="47.85301" lon="-2.78852">
        <ele>106.94</ele>
        <time>2018-08-08T15:18:11Z</time>
      </trkpt>
      <trkpt lat="47.853" lon="-2.78853">
        <ele>106.79</ele>
        <time>2018-08-08T15:18:12Z</time>
      </trkpt>
      <trkpt lat="47.85289" lon="-2.78865">
        <ele>105.32</ele>
        <time>2018-08-08T15:18:22Z</time>
      </trkpt>
      <trkpt lat="47.85287" lon="-2.78867">
        <ele>105.2</ele>
        <time>2018-08-08T15:18:23Z</time>
      </trkpt>
      <trkpt lat="47.85286" lon="-2.78868">
        <ele>105.08</ele>
        <time>2018-08-08T15:18:24Z</time>
      </trkpt>
      <trkpt lat="47.85284" lon="-2.78869">
        <ele>104.97</ele>
        <time>2018-08-08T15:18:25Z</time>
      </trkpt>
      <trkpt lat="47.85282" lon="-2.7887">
        <ele>104.89</ele>
        <time>2018-08-08T15:18:26Z</time>
      </trkpt>
      <trkpt lat="47.85281" lon="-2.78871">
        <ele>104.83</ele>
        <time>2018-08-08T15:18:27Z</time>
      </trkpt>
      <trkpt lat="47.8528" lon="-2.78872">
        <ele>104.78</ele>
        <time>2018-08-08T15:18:28Z</time>
      </trkpt>
      <trkpt lat="47.85279" lon="-2.78873">
        <ele>104.7</ele>
        <time>2018-08-08T15:18:29Z</time>
      </trkpt>
      <trkpt lat="47.85278" lon="-2.78874">
        <ele>104.57</ele>
        <time>2018-08-08T15:18:30Z</time>
      </trkpt>
      <trkpt lat="47.85255" lon="-2.78881">
        <ele>102.28</ele>
        <time>2018-08-08T15:18:45Z</time>
      </trkpt>
      <trkpt lat="47.85229" lon="-2.7888">
        <ele>101.18</ele>
        <time>2018-08-08T15:19:02Z</time>
      </trkpt>
      <trkpt lat="47.85209" lon="-2.78883">
        <ele>99.64</ele>
        <time>2018-08-08T15:19:16Z</time>
      </trkpt>
      <trkpt lat="47.85205" lon="-2.78888">
        <ele>99.25</ele>
        <time>2018-08-08T15:19:20Z</time>
      </trkpt>
      <trkpt lat="47.85204" lon="-2.7889">
        <ele>99.2</ele>
        <time>2018-08-08T15:19:21Z</time>
      </trkpt>
      <trkpt lat="47.85203" lon="-2.78892">
        <ele>99.16</ele>
        <time>2018-08-08T15:19:22Z</time>
      </trkpt>
      <trkpt lat="47.85203" lon="-2.78894">
        <ele>99.13</ele>
        <time>2018-08-08T15:19:23Z</time>
      </trkpt>
      <trkpt lat="47.85203" lon="-2.78896">
        <ele>99.11</ele>
        <time>2018-08-08T15:19:24Z</time>
      </trkpt>
      <trkpt lat="47.85199" lon="-2.78931">
        <ele>98.62</ele>
        <time>2018-08-08T15:19:41Z</time>
      </trkpt>
      <trkpt lat="47.85197" lon="-2.78963">
        <ele>97.78</ele>
        <time>2018-08-08T15:19:55Z</time>
      </trkpt>
      <trkpt lat="47.85203" lon="-2.79006">
        <ele>96.75</ele>
        <time>2018-08-08T15:20:13Z</time>
      </trkpt>
      <trkpt lat="47.85213" lon="-2.79035">
        <ele>96.13</ele>
        <time>2018-08-08T15:20:28Z</time>
      </trkpt>
      <trkpt lat="47.85218" lon="-2.79055">
        <ele>96.26</ele>
        <time>2018-08-08T15:20:39Z</time>
      </trkpt>
      <trkpt lat="47.85219" lon="-2.79056">
        <ele>96.3</ele>
        <time>2018-08-08T15:20:40Z</time>
      </trkpt>
      <trkpt lat="47.8522" lon="-2.7906">
        <ele>96.36</ele>
        <time>2018-08-08T15:20:42Z</time>
      </trkpt>
      <trkpt lat="47.85219" lon="-2.79062">
        <ele>96.39</ele>
        <time>2018-08-08T15:20:43Z</time>
      </trkpt>
      <trkpt lat="47.85219" lon="-2.79063">
        <ele>96.41</ele>
        <time>2018-08-08T15:20:44Z</time>
      </trkpt>
      <trkpt lat="47.85218" lon="-2.79065">
        <ele>96.42</ele>
        <time>2018-08-08T15:20:45Z</time>
      </trkpt>
      <trkpt lat="47.85218" lon="-2.79067">
        <ele>96.4</ele>
        <time>2018-08-08T15:20:46Z</time>
      </trkpt>
      <trkpt lat="47.85217" lon="-2.79069">
        <ele>96.38</ele>
        <time>2018-08-08T15:20:47Z</time>
      </trkpt>
      <trkpt lat="47.85217" lon="-2.7907">
        <ele>96.36</ele>
        <time>2018-08-08T15:20:48Z</time>
      </trkpt>
      <trkpt lat="47.85216" lon="-2.79072">
        <ele>96.37</ele>
        <time>2018-08-08T15:20:49Z</time>
      </trkpt>
    </trkseg>
  </trk>
</gpx>